<?xml version="1.0" encoding="utf-8"?>
<gpx xmlns:xsi="http://www.w3.org/2001/XMLSchema-instance" xmlns:xsd="http://www.w3.org/2001/XMLSchema" version="1.1" creator="Shapelink.com" xmlns="http://www.topografix.com/GPX/1/1" xmlns:gpxtpx="http://www.garmin.com/xmlschemas/TrackPointExtension/v1">
  <metadata>
    <name>Löpning 30.26 km, 2019-05-03</name>
    <desc></desc>
    <author><name>Marian Moron</name></author> 
    <time>2019-05-03T19:49:05Z</time>
  </metadata>
  <trk>
    <name>Löpning 30.26 km, 2019-05-03</name>
    <trkseg>
      <trkpt lat="51.230012957167" lon="4.458626647052">
        <ele>1.6</ele>
        <time>2019-05-03T19:49:05Z</time>
      </trkpt>
      <trkpt lat="51.230019830325" lon="4.458670484389">
        <ele>1.4</ele>
        <time>2019-05-03T19:49:06Z</time>
      </trkpt>
      <trkpt lat="51.23002863132" lon="4.458849689411">
        <ele>1</ele>
        <time>2019-05-03T19:49:31Z</time>
      </trkpt>
      <trkpt lat="51.230209428903" lon="4.458830830136">
        <ele>2.4</ele>
        <time>2019-05-03T19:49:39Z</time>
      </trkpt>
      <trkpt lat="51.230401458232" lon="4.458832757973">
        <ele>5.2</ele>
        <time>2019-05-03T19:49:47Z</time>
      </trkpt>
      <trkpt lat="51.230414617815" lon="4.458865447383">
        <ele>5.6</ele>
        <time>2019-05-03T19:49:48Z</time>
      </trkpt>
      <trkpt lat="51.23045610822" lon="4.459188904904">
        <ele>8.2</ele>
        <time>2019-05-03T19:49:55Z</time>
      </trkpt>
      <trkpt lat="51.23047203383" lon="4.459509512579">
        <ele>11.2</ele>
        <time>2019-05-03T19:50:02Z</time>
      </trkpt>
      <trkpt lat="51.23051478152" lon="4.459814865196">
        <ele>9.4</ele>
        <time>2019-05-03T19:50:10Z</time>
      </trkpt>
      <trkpt lat="51.230585357118" lon="4.459897175454">
        <ele>9.6</ele>
        <time>2019-05-03T19:50:14Z</time>
      </trkpt>
      <trkpt lat="51.23077042947" lon="4.459829952616">
        <ele>10.8</ele>
        <time>2019-05-03T19:50:20Z</time>
      </trkpt>
      <trkpt lat="51.230969248138" lon="4.459757197724">
        <ele>11.4</ele>
        <time>2019-05-03T19:50:27Z</time>
      </trkpt>
      <trkpt lat="51.231156918879" lon="4.459717048423">
        <ele>12.6</ele>
        <time>2019-05-03T19:50:34Z</time>
      </trkpt>
      <trkpt lat="51.231347439466" lon="4.459723251029">
        <ele>13.4</ele>
        <time>2019-05-03T19:50:41Z</time>
      </trkpt>
      <trkpt lat="51.231528656144" lon="4.459736662069">
        <ele>14.2</ele>
        <time>2019-05-03T19:50:48Z</time>
      </trkpt>
      <trkpt lat="51.231698389619" lon="4.459601545841">
        <ele>11.2</ele>
        <time>2019-05-03T19:50:55Z</time>
      </trkpt>
      <trkpt lat="51.231846833068" lon="4.45941052234">
        <ele>9.4</ele>
        <time>2019-05-03T19:51:02Z</time>
      </trkpt>
      <trkpt lat="51.23202603809" lon="4.459293008102">
        <ele>9.4</ele>
        <time>2019-05-03T19:51:09Z</time>
      </trkpt>
      <trkpt lat="51.232213038279" lon="4.459353106325">
        <ele>8.8</ele>
        <time>2019-05-03T19:51:16Z</time>
      </trkpt>
      <trkpt lat="51.232389980188" lon="4.459370037763">
        <ele>7.2</ele>
        <time>2019-05-03T19:51:23Z</time>
      </trkpt>
      <trkpt lat="51.2325784053" lon="4.459259899597">
        <ele>6.2</ele>
        <time>2019-05-03T19:51:31Z</time>
      </trkpt>
      <trkpt lat="51.232670690019" lon="4.459267527126">
        <ele>5.6</ele>
        <time>2019-05-03T19:51:35Z</time>
      </trkpt>
      <trkpt lat="51.232761382177" lon="4.459516218099">
        <ele>4</ele>
        <time>2019-05-03T19:51:41Z</time>
      </trkpt>
      <trkpt lat="51.232823492056" lon="4.459801286518">
        <ele>2.4</ele>
        <time>2019-05-03T19:51:47Z</time>
      </trkpt>
      <trkpt lat="51.232883841736" lon="4.460077553942">
        <ele>1.4</ele>
        <time>2019-05-03T19:51:53Z</time>
      </trkpt>
      <trkpt lat="51.232949639651" lon="4.460382236007">
        <ele>1.6</ele>
        <time>2019-05-03T19:52:01Z</time>
      </trkpt>
      <trkpt lat="51.232999847232" lon="4.460695048515">
        <ele>1.2</ele>
        <time>2019-05-03T19:52:08Z</time>
      </trkpt>
      <trkpt lat="51.233064052586" lon="4.460969807197">
        <ele>0</ele>
        <time>2019-05-03T19:52:15Z</time>
      </trkpt>
      <trkpt lat="51.233126162465" lon="4.461262503145">
        <ele>1</ele>
        <time>2019-05-03T19:52:22Z</time>
      </trkpt>
      <trkpt lat="51.233177543512" lon="4.461539105845">
        <ele>0.8</ele>
        <time>2019-05-03T19:52:29Z</time>
      </trkpt>
      <trkpt lat="51.233211825483" lon="4.461825850644">
        <ele>0.6</ele>
        <time>2019-05-03T19:52:36Z</time>
      </trkpt>
      <trkpt lat="51.233264296177" lon="4.462125252112">
        <ele>0</ele>
        <time>2019-05-03T19:52:43Z</time>
      </trkpt>
      <trkpt lat="51.233308301152" lon="4.46242381539">
        <ele>0</ele>
        <time>2019-05-03T19:52:50Z</time>
      </trkpt>
      <trkpt lat="51.233346438797" lon="4.462747189092">
        <ele>0</ele>
        <time>2019-05-03T19:52:58Z</time>
      </trkpt>
      <trkpt lat="51.233387929202" lon="4.463049272768">
        <ele>0</ele>
        <time>2019-05-03T19:53:06Z</time>
      </trkpt>
      <trkpt lat="51.233418439318" lon="4.463332664807">
        <ele>0</ele>
        <time>2019-05-03T19:53:14Z</time>
      </trkpt>
      <trkpt lat="51.233469652727" lon="4.463627204773">
        <ele>0</ele>
        <time>2019-05-03T19:53:22Z</time>
      </trkpt>
      <trkpt lat="51.233493457323" lon="4.463940352557">
        <ele>0</ele>
        <time>2019-05-03T19:53:30Z</time>
      </trkpt>
      <trkpt lat="51.233500246662" lon="4.464000786056">
        <ele>0</ele>
        <time>2019-05-03T19:53:32Z</time>
      </trkpt>
      <trkpt lat="51.233548610225" lon="4.464300271343">
        <ele>0.6</ele>
        <time>2019-05-03T19:53:39Z</time>
      </trkpt>
      <trkpt lat="51.233610552466" lon="4.464610150186">
        <ele>0</ele>
        <time>2019-05-03T19:53:47Z</time>
      </trkpt>
      <trkpt lat="51.233651875233" lon="4.464897649356">
        <ele>0</ele>
        <time>2019-05-03T19:53:54Z</time>
      </trkpt>
      <trkpt lat="51.233691186344" lon="4.465187411639">
        <ele>0</ele>
        <time>2019-05-03T19:54:01Z</time>
      </trkpt>
      <trkpt lat="51.233734604586" lon="4.465479604673">
        <ele>0</ele>
        <time>2019-05-03T19:54:08Z</time>
      </trkpt>
      <trkpt lat="51.233775005344" lon="4.465767020024">
        <ele>0</ele>
        <time>2019-05-03T19:54:15Z</time>
      </trkpt>
      <trkpt lat="51.233801408329" lon="4.466078910523">
        <ele>0</ele>
        <time>2019-05-03T19:54:22Z</time>
      </trkpt>
      <trkpt lat="51.233836109395" lon="4.466361129096">
        <ele>0</ele>
        <time>2019-05-03T19:54:29Z</time>
      </trkpt>
      <trkpt lat="51.23389939274" lon="4.46665667489">
        <ele>0</ele>
        <time>2019-05-03T19:54:36Z</time>
      </trkpt>
      <trkpt lat="51.233937446566" lon="4.46695674691">
        <ele>0</ele>
        <time>2019-05-03T19:54:43Z</time>
      </trkpt>
      <trkpt lat="51.233969213967" lon="4.467249610496">
        <ele>0</ele>
        <time>2019-05-03T19:54:50Z</time>
      </trkpt>
      <trkpt lat="51.234020595014" lon="4.467540546245">
        <ele>0</ele>
        <time>2019-05-03T19:54:57Z</time>
      </trkpt>
      <trkpt lat="51.234093433725" lon="4.467914378985">
        <ele>0</ele>
        <time>2019-05-03T19:55:06Z</time>
      </trkpt>
      <trkpt lat="51.234143892763" lon="4.468188802391">
        <ele>0</ele>
        <time>2019-05-03T19:55:13Z</time>
      </trkpt>
      <trkpt lat="51.234189741756" lon="4.468473786991">
        <ele>0</ele>
        <time>2019-05-03T19:55:20Z</time>
      </trkpt>
      <trkpt lat="51.234223688451" lon="4.468796825417">
        <ele>0</ele>
        <time>2019-05-03T19:55:28Z</time>
      </trkpt>
      <trkpt lat="51.23427909281" lon="4.469107626269">
        <ele>0</ele>
        <time>2019-05-03T19:55:36Z</time>
      </trkpt>
      <trkpt lat="51.234336760282" lon="4.46942102551">
        <ele>0</ele>
        <time>2019-05-03T19:55:44Z</time>
      </trkpt>
      <trkpt lat="51.234385040026" lon="4.469724785566">
        <ele>0</ele>
        <time>2019-05-03T19:55:52Z</time>
      </trkpt>
      <trkpt lat="51.234422507119" lon="4.47003877154">
        <ele>0</ele>
        <time>2019-05-03T19:56:00Z</time>
      </trkpt>
      <trkpt lat="51.234470954501" lon="4.470320319561">
        <ele>0</ele>
        <time>2019-05-03T19:56:07Z</time>
      </trkpt>
      <trkpt lat="51.2345062423" lon="4.470358541025">
        <ele>0</ele>
        <time>2019-05-03T19:56:09Z</time>
      </trkpt>
      <trkpt lat="51.234652003541" lon="4.470312524394">
        <ele>0</ele>
        <time>2019-05-03T19:56:16Z</time>
      </trkpt>
      <trkpt lat="51.234790472529" lon="4.47051737803">
        <ele>0</ele>
        <time>2019-05-03T19:56:24Z</time>
      </trkpt>
      <trkpt lat="51.234868675656" lon="4.470814348747">
        <ele>1</ele>
        <time>2019-05-03T19:56:32Z</time>
      </trkpt>
      <trkpt lat="51.234921230169" lon="4.471123557038">
        <ele>2</ele>
        <time>2019-05-03T19:56:39Z</time>
      </trkpt>
      <trkpt lat="51.23497646689" lon="4.471405440335">
        <ele>0</ele>
        <time>2019-05-03T19:56:46Z</time>
      </trkpt>
      <trkpt lat="51.235009826852" lon="4.471691011668">
        <ele>0</ele>
        <time>2019-05-03T19:56:53Z</time>
      </trkpt>
      <trkpt lat="51.235043186814" lon="4.471990580774">
        <ele>0</ele>
        <time>2019-05-03T19:57:00Z</time>
      </trkpt>
      <trkpt lat="51.235079983355" lon="4.472297274495">
        <ele>0</ele>
        <time>2019-05-03T19:57:07Z</time>
      </trkpt>
      <trkpt lat="51.235119210647" lon="4.472597430334">
        <ele>0</ele>
        <time>2019-05-03T19:57:14Z</time>
      </trkpt>
      <trkpt lat="51.235202107638" lon="4.472880654735">
        <ele>0</ele>
        <time>2019-05-03T19:57:21Z</time>
      </trkpt>
      <trkpt lat="51.235283160611" lon="4.473177373995">
        <ele>0.8</ele>
        <time>2019-05-03T19:57:29Z</time>
      </trkpt>
      <trkpt lat="51.235354909675" lon="4.473441990578">
        <ele>2.4</ele>
        <time>2019-05-03T19:57:35Z</time>
      </trkpt>
      <trkpt lat="51.235422970703" lon="4.473734602707">
        <ele>5.4</ele>
        <time>2019-05-03T19:57:42Z</time>
      </trkpt>
      <trkpt lat="51.235489942084" lon="4.474029897044">
        <ele>6</ele>
        <time>2019-05-03T19:57:49Z</time>
      </trkpt>
      <trkpt lat="51.235546519909" lon="4.474333992376">
        <ele>6.2</ele>
        <time>2019-05-03T19:57:56Z</time>
      </trkpt>
      <trkpt lat="51.23560343301" lon="4.474623251745">
        <ele>5.2</ele>
        <time>2019-05-03T19:58:03Z</time>
      </trkpt>
      <trkpt lat="51.235668308916" lon="4.474902452834">
        <ele>5.6</ele>
        <time>2019-05-03T19:58:10Z</time>
      </trkpt>
      <trkpt lat="51.235738213962" lon="4.475202273397">
        <ele>7.4</ele>
        <time>2019-05-03T19:58:17Z</time>
      </trkpt>
      <trkpt lat="51.235794037416" lon="4.475511649326">
        <ele>8.6</ele>
        <time>2019-05-03T19:58:25Z</time>
      </trkpt>
      <trkpt lat="51.235837204201" lon="4.475793029709">
        <ele>11</ele>
        <time>2019-05-03T19:58:32Z</time>
      </trkpt>
      <trkpt lat="51.235917586622" lon="4.4760603285">
        <ele>10.8</ele>
        <time>2019-05-03T19:58:39Z</time>
      </trkpt>
      <trkpt lat="51.23599067679" lon="4.476333997535">
        <ele>11.6</ele>
        <time>2019-05-03T19:58:46Z</time>
      </trkpt>
      <trkpt lat="51.236076004532" lon="4.476619987963">
        <ele>8.2</ele>
        <time>2019-05-03T19:58:55Z</time>
      </trkpt>
      <trkpt lat="51.236127553217" lon="4.47691025316">
        <ele>5.2</ele>
        <time>2019-05-03T19:59:04Z</time>
      </trkpt>
      <trkpt lat="51.236189746915" lon="4.477189035154">
        <ele>2.2</ele>
        <time>2019-05-03T19:59:12Z</time>
      </trkpt>
      <trkpt lat="51.23623794284" lon="4.477487849889">
        <ele>5.2</ele>
        <time>2019-05-03T19:59:20Z</time>
      </trkpt>
      <trkpt lat="51.23630080709" lon="4.477767386254">
        <ele>4.8</ele>
        <time>2019-05-03T19:59:28Z</time>
      </trkpt>
      <trkpt lat="51.236314050492" lon="4.478084976445">
        <ele>1.4</ele>
        <time>2019-05-03T19:59:36Z</time>
      </trkpt>
      <trkpt lat="51.236340285839" lon="4.478403237188">
        <ele>0</ele>
        <time>2019-05-03T19:59:44Z</time>
      </trkpt>
      <trkpt lat="51.236354954164" lon="4.478721162655">
        <ele>0</ele>
        <time>2019-05-03T19:59:52Z</time>
      </trkpt>
      <trkpt lat="51.236378004389" lon="4.479012685137">
        <ele>2.2</ele>
        <time>2019-05-03T19:59:59Z</time>
      </trkpt>
      <trkpt lat="51.236407508677" lon="4.479302028325">
        <ele>2.4</ele>
        <time>2019-05-03T20:00:06Z</time>
      </trkpt>
      <trkpt lat="51.236428547246" lon="4.479618109774">
        <ele>3.6</ele>
        <time>2019-05-03T20:00:14Z</time>
      </trkpt>
      <trkpt lat="51.236412873093" lon="4.479980291673">
        <ele>5</ele>
        <time>2019-05-03T20:00:22Z</time>
      </trkpt>
      <trkpt lat="51.236406586668" lon="4.480271227422">
        <ele>6.2</ele>
        <time>2019-05-03T20:00:30Z</time>
      </trkpt>
      <trkpt lat="51.236388314126" lon="4.480587057414">
        <ele>4.4</ele>
        <time>2019-05-03T20:00:38Z</time>
      </trkpt>
      <trkpt lat="51.236385799556" lon="4.480895176058">
        <ele>3.2</ele>
        <time>2019-05-03T20:00:46Z</time>
      </trkpt>
      <trkpt lat="51.236379680769" lon="4.48129147229">
        <ele>1.8</ele>
        <time>2019-05-03T20:00:56Z</time>
      </trkpt>
      <trkpt lat="51.236372807611" lon="4.481608224291">
        <ele>1.8</ele>
        <time>2019-05-03T20:01:04Z</time>
      </trkpt>
      <trkpt lat="51.236363922797" lon="4.48190335099">
        <ele>0.6</ele>
        <time>2019-05-03T20:01:11Z</time>
      </trkpt>
      <trkpt lat="51.236354954164" lon="4.482204093562">
        <ele>0.8</ele>
        <time>2019-05-03T20:01:18Z</time>
      </trkpt>
      <trkpt lat="51.236354199793" lon="4.482498968804">
        <ele>1.2</ele>
        <time>2019-05-03T20:01:25Z</time>
      </trkpt>
      <trkpt lat="51.236346823721" lon="4.482793341132">
        <ele>0.4</ele>
        <time>2019-05-03T20:01:32Z</time>
      </trkpt>
      <trkpt lat="51.236338944735" lon="4.483115960463">
        <ele>0</ele>
        <time>2019-05-03T20:01:40Z</time>
      </trkpt>
      <trkpt lat="51.236345398798" lon="4.483436735776">
        <ele>0</ele>
        <time>2019-05-03T20:01:48Z</time>
      </trkpt>
      <trkpt lat="51.236347829549" lon="4.4837632946">
        <ele>0</ele>
        <time>2019-05-03T20:01:56Z</time>
      </trkpt>
      <trkpt lat="51.236352355775" lon="4.484055571453">
        <ele>0</ele>
        <time>2019-05-03T20:02:03Z</time>
      </trkpt>
      <trkpt lat="51.236350847033" lon="4.484382968467">
        <ele>0</ele>
        <time>2019-05-03T20:02:11Z</time>
      </trkpt>
      <trkpt lat="51.236359228933" lon="4.484676418786">
        <ele>0</ele>
        <time>2019-05-03T20:02:18Z</time>
      </trkpt>
      <trkpt lat="51.236351433766" lon="4.485003396705">
        <ele>0</ele>
        <time>2019-05-03T20:02:26Z</time>
      </trkpt>
      <trkpt lat="51.236355121802" lon="4.485324423475">
        <ele>0</ele>
        <time>2019-05-03T20:02:34Z</time>
      </trkpt>
      <trkpt lat="51.236343722418" lon="4.48563497287">
        <ele>0</ele>
        <time>2019-05-03T20:02:42Z</time>
      </trkpt>
      <trkpt lat="51.236357049639" lon="4.485944935532">
        <ele>0</ele>
        <time>2019-05-03T20:02:50Z</time>
      </trkpt>
      <trkpt lat="51.236368113747" lon="4.486258670049">
        <ele>0</ele>
        <time>2019-05-03T20:02:58Z</time>
      </trkpt>
      <trkpt lat="51.236366940281" lon="4.48656955472">
        <ele>0</ele>
        <time>2019-05-03T20:03:06Z</time>
      </trkpt>
      <trkpt lat="51.236369957765" lon="4.486867279808">
        <ele>0</ele>
        <time>2019-05-03T20:03:14Z</time>
      </trkpt>
      <trkpt lat="51.236379010217" lon="4.487160311032">
        <ele>0</ele>
        <time>2019-05-03T20:03:22Z</time>
      </trkpt>
      <trkpt lat="51.236397450397" lon="4.487467675305">
        <ele>0</ele>
        <time>2019-05-03T20:03:30Z</time>
      </trkpt>
      <trkpt lat="51.236408682143" lon="4.487782918564">
        <ele>0</ele>
        <time>2019-05-03T20:03:38Z</time>
      </trkpt>
      <trkpt lat="51.236412956912" lon="4.488076201245">
        <ele>0</ele>
        <time>2019-05-03T20:03:45Z</time>
      </trkpt>
      <trkpt lat="51.236424356296" lon="4.488399072033">
        <ele>0</ele>
        <time>2019-05-03T20:03:53Z</time>
      </trkpt>
      <trkpt lat="51.236424523934" lon="4.488718841518">
        <ele>0</ele>
        <time>2019-05-03T20:04:01Z</time>
      </trkpt>
      <trkpt lat="51.236430139807" lon="4.489006592145">
        <ele>0</ele>
        <time>2019-05-03T20:04:08Z</time>
      </trkpt>
      <trkpt lat="51.23643491749" lon="4.489293839858">
        <ele>0</ele>
        <time>2019-05-03T20:04:15Z</time>
      </trkpt>
      <trkpt lat="51.236422847554" lon="4.489595504439">
        <ele>0</ele>
        <time>2019-05-03T20:04:22Z</time>
      </trkpt>
      <trkpt lat="51.236409185057" lon="4.489920554521">
        <ele>0</ele>
        <time>2019-05-03T20:04:30Z</time>
      </trkpt>
      <trkpt lat="51.236410358523" lon="4.490228673165">
        <ele>0</ele>
        <time>2019-05-03T20:04:38Z</time>
      </trkpt>
      <trkpt lat="51.236555700669" lon="4.490414667526">
        <ele>0</ele>
        <time>2019-05-03T20:04:47Z</time>
      </trkpt>
      <trkpt lat="51.236757704459" lon="4.490448949497">
        <ele>0</ele>
        <time>2019-05-03T20:04:55Z</time>
      </trkpt>
      <trkpt lat="51.236941268069" lon="4.490445932013">
        <ele>0</ele>
        <time>2019-05-03T20:05:02Z</time>
      </trkpt>
      <trkpt lat="51.237140338194" lon="4.490394886242">
        <ele>1.6</ele>
        <time>2019-05-03T20:05:11Z</time>
      </trkpt>
      <trkpt lat="51.237329517677" lon="4.490319030047">
        <ele>4.4</ele>
        <time>2019-05-03T20:05:19Z</time>
      </trkpt>
      <trkpt lat="51.237511740183" lon="4.490193636823">
        <ele>1.4</ele>
        <time>2019-05-03T20:05:27Z</time>
      </trkpt>
      <trkpt lat="51.237681725115" lon="4.490084672123">
        <ele>1.4</ele>
        <time>2019-05-03T20:05:35Z</time>
      </trkpt>
      <trkpt lat="51.237866043096" lon="4.490013425973">
        <ele>1.2</ele>
        <time>2019-05-03T20:05:43Z</time>
      </trkpt>
      <trkpt lat="51.238051869819" lon="4.489966068238">
        <ele>0.8</ele>
        <time>2019-05-03T20:05:51Z</time>
      </trkpt>
      <trkpt lat="51.238244318243" lon="4.489953411569">
        <ele>1</ele>
        <time>2019-05-03T20:05:59Z</time>
      </trkpt>
      <trkpt lat="51.238433833002" lon="4.489962799297">
        <ele>2</ele>
        <time>2019-05-03T20:06:07Z</time>
      </trkpt>
      <trkpt lat="51.238626281426" lon="4.489989956653">
        <ele>3</ele>
        <time>2019-05-03T20:06:16Z</time>
      </trkpt>
      <trkpt lat="51.238826357379" lon="4.490063298278">
        <ele>2.4</ele>
        <time>2019-05-03T20:06:24Z</time>
      </trkpt>
      <trkpt lat="51.238999527433" lon="4.490147955468">
        <ele>1.6</ele>
        <time>2019-05-03T20:06:33Z</time>
      </trkpt>
      <trkpt lat="51.239187114355" lon="4.490225236586">
        <ele>2.6</ele>
        <time>2019-05-03T20:06:41Z</time>
      </trkpt>
      <trkpt lat="51.239375623286" lon="4.490331099983">
        <ele>0.6</ele>
        <time>2019-05-03T20:06:49Z</time>
      </trkpt>
      <trkpt lat="51.239621548232" lon="4.490444674728">
        <ele>0.2</ele>
        <time>2019-05-03T20:07:00Z</time>
      </trkpt>
      <trkpt lat="51.239796646123" lon="4.490536875628">
        <ele>0</ele>
        <time>2019-05-03T20:07:08Z</time>
      </trkpt>
      <trkpt lat="51.239976940792" lon="4.490631255822">
        <ele>0</ele>
        <time>2019-05-03T20:07:16Z</time>
      </trkpt>
      <trkpt lat="51.240162432239" lon="4.490714571908">
        <ele>0</ele>
        <time>2019-05-03T20:07:24Z</time>
      </trkpt>
      <trkpt lat="51.240339122691" lon="4.490795624881">
        <ele>0</ele>
        <time>2019-05-03T20:07:32Z</time>
      </trkpt>
      <trkpt lat="51.240523356853" lon="4.490876594035">
        <ele>0</ele>
        <time>2019-05-03T20:07:40Z</time>
      </trkpt>
      <trkpt lat="51.240697700373" lon="4.490961083587">
        <ele>0</ele>
        <time>2019-05-03T20:07:47Z</time>
      </trkpt>
      <trkpt lat="51.24088654458" lon="4.491058145989">
        <ele>0</ele>
        <time>2019-05-03T20:07:55Z</time>
      </trkpt>
      <trkpt lat="51.241081256117" lon="4.491151771812">
        <ele>0</ele>
        <time>2019-05-03T20:08:04Z</time>
      </trkpt>
      <trkpt lat="51.241250738135" lon="4.491247157834">
        <ele>0</ele>
        <time>2019-05-03T20:08:11Z</time>
      </trkpt>
      <trkpt lat="51.241425333112" lon="4.491385291546">
        <ele>0</ele>
        <time>2019-05-03T20:08:19Z</time>
      </trkpt>
      <trkpt lat="51.241576291131" lon="4.491581176549">
        <ele>0</ele>
        <time>2019-05-03T20:08:27Z</time>
      </trkpt>
      <trkpt lat="51.241708473694" lon="4.491817294672">
        <ele>0</ele>
        <time>2019-05-03T20:08:35Z</time>
      </trkpt>
      <trkpt lat="51.241804614087" lon="4.492099680883">
        <ele>0</ele>
        <time>2019-05-03T20:08:43Z</time>
      </trkpt>
      <trkpt lat="51.241854737849" lon="4.492378295239">
        <ele>0</ele>
        <time>2019-05-03T20:08:50Z</time>
      </trkpt>
      <trkpt lat="51.241895473883" lon="4.492665123857">
        <ele>0</ele>
        <time>2019-05-03T20:08:57Z</time>
      </trkpt>
      <trkpt lat="51.241934533537" lon="4.492952287751">
        <ele>0</ele>
        <time>2019-05-03T20:09:04Z</time>
      </trkpt>
      <trkpt lat="51.241989434982" lon="4.493262082775">
        <ele>0</ele>
        <time>2019-05-03T20:09:12Z</time>
      </trkpt>
      <trkpt lat="51.242026734437" lon="4.493577326034">
        <ele>0</ele>
        <time>2019-05-03T20:09:20Z</time>
      </trkpt>
      <trkpt lat="51.242085659194" lon="4.493888797438">
        <ele>0</ele>
        <time>2019-05-03T20:09:28Z</time>
      </trkpt>
      <trkpt lat="51.242144332494" lon="4.494194150055">
        <ele>0</ele>
        <time>2019-05-03T20:09:36Z</time>
      </trkpt>
      <trkpt lat="51.242195462084" lon="4.494475111343">
        <ele>0</ele>
        <time>2019-05-03T20:09:43Z</time>
      </trkpt>
      <trkpt lat="51.24224105962" lon="4.494765795635">
        <ele>0.4</ele>
        <time>2019-05-03T20:09:50Z</time>
      </trkpt>
      <trkpt lat="51.24229638016" lon="4.495075087745">
        <ele>1.8</ele>
        <time>2019-05-03T20:09:58Z</time>
      </trkpt>
      <trkpt lat="51.242364189731" lon="4.495380524181">
        <ele>2.6</ele>
        <time>2019-05-03T20:10:06Z</time>
      </trkpt>
      <trkpt lat="51.242424707049" lon="4.495650672818">
        <ele>3.6</ele>
        <time>2019-05-03T20:10:14Z</time>
      </trkpt>
      <trkpt lat="51.242503077814" lon="4.4959170496">
        <ele>4.2</ele>
        <time>2019-05-03T20:10:23Z</time>
      </trkpt>
      <trkpt lat="51.242560158553" lon="4.496196585965">
        <ele>0</ele>
        <time>2019-05-03T20:10:31Z</time>
      </trkpt>
      <trkpt lat="51.242642720268" lon="4.496487605533">
        <ele>0</ele>
        <time>2019-05-03T20:10:40Z</time>
      </trkpt>
      <trkpt lat="51.24273559172" lon="4.496736128868">
        <ele>0</ele>
        <time>2019-05-03T20:10:48Z</time>
      </trkpt>
      <trkpt lat="51.24285629108" lon="4.496955064096">
        <ele>0</ele>
        <time>2019-05-03T20:10:55Z</time>
      </trkpt>
      <trkpt lat="51.24294430103" lon="4.497226218561">
        <ele>0</ele>
        <time>2019-05-03T20:11:03Z</time>
      </trkpt>
      <trkpt lat="51.243053684825" lon="4.497493265895">
        <ele>0</ele>
        <time>2019-05-03T20:11:11Z</time>
      </trkpt>
      <trkpt lat="51.243098947085" lon="4.497590663573">
        <ele>0</ele>
        <time>2019-05-03T20:11:14Z</time>
      </trkpt>
      <trkpt lat="51.243204475206" lon="4.497835750329">
        <ele>0</ele>
        <time>2019-05-03T20:11:22Z</time>
      </trkpt>
      <trkpt lat="51.243308243128" lon="4.498117633626">
        <ele>0</ele>
        <time>2019-05-03T20:11:31Z</time>
      </trkpt>
      <trkpt lat="51.243424080986" lon="4.498356685414">
        <ele>0</ele>
        <time>2019-05-03T20:11:39Z</time>
      </trkpt>
      <trkpt lat="51.243543103966" lon="4.498609399699">
        <ele>0</ele>
        <time>2019-05-03T20:11:48Z</time>
      </trkpt>
      <trkpt lat="51.243679309841" lon="4.498852223342">
        <ele>0</ele>
        <time>2019-05-03T20:11:56Z</time>
      </trkpt>
      <trkpt lat="51.243795650613" lon="4.499127484938">
        <ele>0</ele>
        <time>2019-05-03T20:12:05Z</time>
      </trkpt>
      <trkpt lat="51.243913751584" lon="4.499384138716">
        <ele>0</ele>
        <time>2019-05-03T20:12:12Z</time>
      </trkpt>
      <trkpt lat="51.244006203941" lon="4.499640792494">
        <ele>0</ele>
        <time>2019-05-03T20:12:19Z</time>
      </trkpt>
      <trkpt lat="51.244094213891" lon="4.499902307774">
        <ele>0</ele>
        <time>2019-05-03T20:12:26Z</time>
      </trkpt>
      <trkpt lat="51.244206531351" lon="4.500157620448">
        <ele>0</ele>
        <time>2019-05-03T20:12:35Z</time>
      </trkpt>
      <trkpt lat="51.244285237392" lon="4.500439755202">
        <ele>0</ele>
        <time>2019-05-03T20:12:43Z</time>
      </trkpt>
      <trkpt lat="51.244341647579" lon="4.500751897158">
        <ele>0</ele>
        <time>2019-05-03T20:12:51Z</time>
      </trkpt>
      <trkpt lat="51.244523953904" lon="4.500824149136">
        <ele>0</ele>
        <time>2019-05-03T20:12:58Z</time>
      </trkpt>
      <trkpt lat="51.244559074065" lon="4.500843259868">
        <ele>0</ele>
        <time>2019-05-03T20:13:00Z</time>
      </trkpt>
      <trkpt lat="51.244737357078" lon="4.501050879531">
        <ele>0</ele>
        <time>2019-05-03T20:13:10Z</time>
      </trkpt>
      <trkpt lat="51.244929051131" lon="4.501103517863">
        <ele>3</ele>
        <time>2019-05-03T20:13:19Z</time>
      </trkpt>
      <trkpt lat="51.245042877333" lon="4.501353801397">
        <ele>6.8</ele>
        <time>2019-05-03T20:13:28Z</time>
      </trkpt>
      <trkpt lat="51.245170617489" lon="4.501565779648">
        <ele>7.4</ele>
        <time>2019-05-03T20:13:36Z</time>
      </trkpt>
      <trkpt lat="51.245323503345" lon="4.501772393483">
        <ele>5.6</ele>
        <time>2019-05-03T20:13:44Z</time>
      </trkpt>
      <trkpt lat="51.245452500786" lon="4.501980767517">
        <ele>3.6</ele>
        <time>2019-05-03T20:13:51Z</time>
      </trkpt>
      <trkpt lat="51.245591556507" lon="4.502162822385">
        <ele>5.6</ele>
        <time>2019-05-03T20:13:58Z</time>
      </trkpt>
      <trkpt lat="51.245740670508" lon="4.502359629397">
        <ele>3.2</ele>
        <time>2019-05-03T20:14:06Z</time>
      </trkpt>
      <trkpt lat="51.245884336274" lon="4.50256808725">
        <ele>2.6</ele>
        <time>2019-05-03T20:14:13Z</time>
      </trkpt>
      <trkpt lat="51.246029929877" lon="4.50276925285">
        <ele>2.2</ele>
        <time>2019-05-03T20:14:21Z</time>
      </trkpt>
      <trkpt lat="51.246186922864" lon="4.502958599971">
        <ele>3.6</ele>
        <time>2019-05-03T20:14:29Z</time>
      </trkpt>
      <trkpt lat="51.246328157879" lon="4.503208548229">
        <ele>3.8</ele>
        <time>2019-05-03T20:14:37Z</time>
      </trkpt>
      <trkpt lat="51.246521025398" lon="4.503323212621">
        <ele>4.2</ele>
        <time>2019-05-03T20:14:45Z</time>
      </trkpt>
      <trkpt lat="51.246705762474" lon="4.503358668058">
        <ele>7.2</ele>
        <time>2019-05-03T20:14:52Z</time>
      </trkpt>
      <trkpt lat="51.246893097939" lon="4.503374928944">
        <ele>10.4</ele>
        <time>2019-05-03T20:14:59Z</time>
      </trkpt>
      <trkpt lat="51.247080098128" lon="4.503365960311">
        <ele>11</ele>
        <time>2019-05-03T20:15:06Z</time>
      </trkpt>
      <trkpt lat="51.247278078606" lon="4.503346681941">
        <ele>10.2</ele>
        <time>2019-05-03T20:15:14Z</time>
      </trkpt>
      <trkpt lat="51.247467258089" lon="4.503332348892">
        <ele>11.4</ele>
        <time>2019-05-03T20:15:22Z</time>
      </trkpt>
      <trkpt lat="51.247670351526" lon="4.503325475734">
        <ele>12.4</ele>
        <time>2019-05-03T20:15:30Z</time>
      </trkpt>
      <trkpt lat="51.247853244584" lon="4.503343329181">
        <ele>11</ele>
        <time>2019-05-03T20:15:37Z</time>
      </trkpt>
      <trkpt lat="51.248020714946" lon="4.503429076018">
        <ele>7.4</ele>
        <time>2019-05-03T20:15:46Z</time>
      </trkpt>
      <trkpt lat="51.248200674339" lon="4.503412312218">
        <ele>4.6</ele>
        <time>2019-05-03T20:15:54Z</time>
      </trkpt>
      <trkpt lat="51.248385998148" lon="4.503407785992">
        <ele>3.4</ele>
        <time>2019-05-03T20:16:02Z</time>
      </trkpt>
      <trkpt lat="51.248582386065" lon="4.503404768508">
        <ele>2.4</ele>
        <time>2019-05-03T20:16:10Z</time>
      </trkpt>
      <trkpt lat="51.248782126742" lon="4.503418263367">
        <ele>1</ele>
        <time>2019-05-03T20:16:18Z</time>
      </trkpt>
      <trkpt lat="51.248978347021" lon="4.50342555562">
        <ele>0.2</ele>
        <time>2019-05-03T20:16:26Z</time>
      </trkpt>
      <trkpt lat="51.249170292531" lon="4.503400912834">
        <ele>0.4</ele>
        <time>2019-05-03T20:16:35Z</time>
      </trkpt>
      <trkpt lat="51.249351090114" lon="4.503324302268">
        <ele>4.4</ele>
        <time>2019-05-03T20:16:44Z</time>
      </trkpt>
      <trkpt lat="51.249527193833" lon="4.503402756852">
        <ele>1.4</ele>
        <time>2019-05-03T20:16:51Z</time>
      </trkpt>
      <trkpt lat="51.249699022783" lon="4.503520774004">
        <ele>0</ele>
        <time>2019-05-03T20:16:58Z</time>
      </trkpt>
      <trkpt lat="51.249867331335" lon="4.503643317382">
        <ele>0</ele>
        <time>2019-05-03T20:17:06Z</time>
      </trkpt>
      <trkpt lat="51.249987695419" lon="4.503724957088">
        <ele>0</ele>
        <time>2019-05-03T20:17:11Z</time>
      </trkpt>
      <trkpt lat="51.250098336499" lon="4.503490850621">
        <ele>0.8</ele>
        <time>2019-05-03T20:17:20Z</time>
      </trkpt>
      <trkpt lat="51.25019212996" lon="4.503201842709">
        <ele>3.8</ele>
        <time>2019-05-03T20:17:28Z</time>
      </trkpt>
      <trkpt lat="51.250257005866" lon="4.502945859483">
        <ele>6.6</ele>
        <time>2019-05-03T20:17:35Z</time>
      </trkpt>
      <trkpt lat="51.250372927543" lon="4.502688367515">
        <ele>7.8</ele>
        <time>2019-05-03T20:17:43Z</time>
      </trkpt>
      <trkpt lat="51.250449119014" lon="4.502398940508">
        <ele>7.2</ele>
        <time>2019-05-03T20:17:51Z</time>
      </trkpt>
      <trkpt lat="51.250577445903" lon="4.502198361641">
        <ele>8.2</ele>
        <time>2019-05-03T20:17:59Z</time>
      </trkpt>
      <trkpt lat="51.250754974545" lon="4.502290897817">
        <ele>3.4</ele>
        <time>2019-05-03T20:18:06Z</time>
      </trkpt>
      <trkpt lat="51.250944070209" lon="4.502346385995">
        <ele>0.4</ele>
        <time>2019-05-03T20:18:13Z</time>
      </trkpt>
      <trkpt lat="51.251143894705" lon="4.502416626317">
        <ele>0</ele>
        <time>2019-05-03T20:18:21Z</time>
      </trkpt>
      <trkpt lat="51.251322596813" lon="4.502488207743">
        <ele>0</ele>
        <time>2019-05-03T20:18:28Z</time>
      </trkpt>
      <trkpt lat="51.251508507355" lon="4.502567165241">
        <ele>0</ele>
        <time>2019-05-03T20:18:36Z</time>
      </trkpt>
      <trkpt lat="51.251706906928" lon="4.502647631481">
        <ele>0</ele>
        <time>2019-05-03T20:18:45Z</time>
      </trkpt>
      <trkpt lat="51.251888710339" lon="4.502703706392">
        <ele>0</ele>
        <time>2019-05-03T20:18:53Z</time>
      </trkpt>
      <trkpt lat="51.252083002781" lon="4.502778975854">
        <ele>0</ele>
        <time>2019-05-03T20:19:02Z</time>
      </trkpt>
      <trkpt lat="51.252447028698" lon="4.50295700741">
        <ele>2.8</ele>
        <time>2019-05-03T20:19:17Z</time>
      </trkpt>
      <trkpt lat="51.252630759946" lon="4.503049292129">
        <ele>3</ele>
        <time>2019-05-03T20:19:25Z</time>
      </trkpt>
      <trkpt lat="51.25282488475" lon="4.503124896867">
        <ele>2.4</ele>
        <time>2019-05-03T20:19:34Z</time>
      </trkpt>
      <trkpt lat="51.253013142224" lon="4.503203016175">
        <ele>5.2</ele>
        <time>2019-05-03T20:19:42Z</time>
      </trkpt>
      <trkpt lat="51.253191760513" lon="4.503350034701">
        <ele>3.6</ele>
        <time>2019-05-03T20:19:51Z</time>
      </trkpt>
      <trkpt lat="51.25337306101" lon="4.503431087674">
        <ele>3.6</ele>
        <time>2019-05-03T20:19:59Z</time>
      </trkpt>
      <trkpt lat="51.253553523317" lon="4.50347081788">
        <ele>5.2</ele>
        <time>2019-05-03T20:20:07Z</time>
      </trkpt>
      <trkpt lat="51.253753096356" lon="4.503477774857">
        <ele>7.6</ele>
        <time>2019-05-03T20:20:15Z</time>
      </trkpt>
      <trkpt lat="51.253941605287" lon="4.503445923637">
        <ele>11.4</ele>
        <time>2019-05-03T20:20:24Z</time>
      </trkpt>
      <trkpt lat="51.254142770887" lon="4.50341130639">
        <ele>14.2</ele>
        <time>2019-05-03T20:20:34Z</time>
      </trkpt>
      <trkpt lat="51.254302781358" lon="4.503277950361">
        <ele>13.2</ele>
        <time>2019-05-03T20:20:42Z</time>
      </trkpt>
      <trkpt lat="51.25445348792" lon="4.503216511034">
        <ele>14.4</ele>
        <time>2019-05-03T20:20:49Z</time>
      </trkpt>
      <trkpt lat="51.254626322698" lon="4.503369648347">
        <ele>7</ele>
        <time>2019-05-03T20:20:58Z</time>
      </trkpt>
      <trkpt lat="51.254815921276" lon="4.503430165665">
        <ele>1.8</ele>
        <time>2019-05-03T20:21:05Z</time>
      </trkpt>
      <trkpt lat="51.255006190406" lon="4.503506776231">
        <ele>0</ele>
        <time>2019-05-03T20:21:12Z</time>
      </trkpt>
      <trkpt lat="51.255199728477" lon="4.503601826977">
        <ele>0</ele>
        <time>2019-05-03T20:21:20Z</time>
      </trkpt>
      <trkpt lat="51.255374407273" lon="4.50371389298">
        <ele>0</ele>
        <time>2019-05-03T20:21:28Z</time>
      </trkpt>
      <trkpt lat="51.255559647263" lon="4.503843141878">
        <ele>0</ele>
        <time>2019-05-03T20:21:37Z</time>
      </trkpt>
      <trkpt lat="51.255747737099" lon="4.503953447682">
        <ele>0</ele>
        <time>2019-05-03T20:21:46Z</time>
      </trkpt>
      <trkpt lat="51.255930043424" lon="4.504005834557">
        <ele>0</ele>
        <time>2019-05-03T20:21:53Z</time>
      </trkpt>
      <trkpt lat="51.256113523215" lon="4.504126031003">
        <ele>0</ele>
        <time>2019-05-03T20:22:01Z</time>
      </trkpt>
      <trkpt lat="51.256300942499" lon="4.504247484734">
        <ele>0</ele>
        <time>2019-05-03T20:22:09Z</time>
      </trkpt>
      <trkpt lat="51.256468748137" lon="4.5043660048">
        <ele>0.4</ele>
        <time>2019-05-03T20:22:16Z</time>
      </trkpt>
      <trkpt lat="51.256645438589" lon="4.504486033608">
        <ele>4</ele>
        <time>2019-05-03T20:22:24Z</time>
      </trkpt>
      <trkpt lat="51.256831265312" lon="4.504592064643">
        <ele>3.2</ele>
        <time>2019-05-03T20:22:32Z</time>
      </trkpt>
      <trkpt lat="51.257025473935" lon="4.504697508945">
        <ele>3</ele>
        <time>2019-05-03T20:22:40Z</time>
      </trkpt>
      <trkpt lat="51.257206606794" lon="4.50481611283">
        <ele>1.2</ele>
        <time>2019-05-03T20:22:48Z</time>
      </trkpt>
      <trkpt lat="51.257373071328" lon="4.504968998686">
        <ele>0</ele>
        <time>2019-05-03T20:22:56Z</time>
      </trkpt>
      <trkpt lat="51.25757658386" lon="4.505088943675">
        <ele>0</ele>
        <time>2019-05-03T20:23:04Z</time>
      </trkpt>
      <trkpt lat="51.257750675923" lon="4.505207296103">
        <ele>0</ele>
        <time>2019-05-03T20:23:13Z</time>
      </trkpt>
      <trkpt lat="51.257917811009" lon="4.505332102594">
        <ele>0</ele>
        <time>2019-05-03T20:23:21Z</time>
      </trkpt>
      <trkpt lat="51.258100955524" lon="4.505466212994">
        <ele>0</ele>
        <time>2019-05-03T20:23:30Z</time>
      </trkpt>
      <trkpt lat="51.25828820717" lon="4.505562353387">
        <ele>0</ele>
        <time>2019-05-03T20:23:38Z</time>
      </trkpt>
      <trkpt lat="51.258473279522" lon="4.50563670084">
        <ele>0.8</ele>
        <time>2019-05-03T20:23:46Z</time>
      </trkpt>
      <trkpt lat="51.258646030481" lon="4.505732589776">
        <ele>2.4</ele>
        <time>2019-05-03T20:23:53Z</time>
      </trkpt>
      <trkpt lat="51.258809812807" lon="4.505860749027">
        <ele>3.2</ele>
        <time>2019-05-03T20:24:01Z</time>
      </trkpt>
      <trkpt lat="51.259002261231" lon="4.505963846397">
        <ele>2.4</ele>
        <time>2019-05-03T20:24:09Z</time>
      </trkpt>
      <trkpt lat="51.25918674685" lon="4.506039283497">
        <ele>5.2</ele>
        <time>2019-05-03T20:24:17Z</time>
      </trkpt>
      <trkpt lat="51.259371483926" lon="4.506128466913">
        <ele>3.6</ele>
        <time>2019-05-03T20:24:25Z</time>
      </trkpt>
      <trkpt lat="51.259546833274" lon="4.506296775465">
        <ele>2</ele>
        <time>2019-05-03T20:24:34Z</time>
      </trkpt>
      <trkpt lat="51.259709190677" lon="4.506461815076">
        <ele>0</ele>
        <time>2019-05-03T20:24:42Z</time>
      </trkpt>
      <trkpt lat="51.259901890558" lon="4.506565331541">
        <ele>0</ele>
        <time>2019-05-03T20:24:50Z</time>
      </trkpt>
      <trkpt lat="51.260079670657" lon="4.506664154142">
        <ele>0</ele>
        <time>2019-05-03T20:24:58Z</time>
      </trkpt>
      <trkpt lat="51.260250661417" lon="4.50677077191">
        <ele>0</ele>
        <time>2019-05-03T20:25:06Z</time>
      </trkpt>
      <trkpt lat="51.260431459" lon="4.506884179017">
        <ele>0</ele>
        <time>2019-05-03T20:25:14Z</time>
      </trkpt>
      <trkpt lat="51.260620470845" lon="4.506994987735">
        <ele>0</ele>
        <time>2019-05-03T20:25:22Z</time>
      </trkpt>
      <trkpt lat="51.260878298089" lon="4.507185005408">
        <ele>0</ele>
        <time>2019-05-03T20:25:33Z</time>
      </trkpt>
      <trkpt lat="51.261056581102" lon="4.507304866578">
        <ele>0</ele>
        <time>2019-05-03T20:25:41Z</time>
      </trkpt>
      <trkpt lat="51.261234528839" lon="4.507402431894">
        <ele>0</ele>
        <time>2019-05-03T20:25:49Z</time>
      </trkpt>
      <trkpt lat="51.261411638386" lon="4.50752514291">
        <ele>0</ele>
        <time>2019-05-03T20:25:57Z</time>
      </trkpt>
      <trkpt lat="51.261597465109" lon="4.507641316044">
        <ele>0</ele>
        <time>2019-05-03T20:26:05Z</time>
      </trkpt>
      <trkpt lat="51.261780358167" lon="4.507780371765">
        <ele>0</ele>
        <time>2019-05-03T20:26:13Z</time>
      </trkpt>
      <trkpt lat="51.26196618489" lon="4.507910291215">
        <ele>0</ele>
        <time>2019-05-03T20:26:21Z</time>
      </trkpt>
      <trkpt lat="51.262133236157" lon="4.508024285055">
        <ele>0</ele>
        <time>2019-05-03T20:26:28Z</time>
      </trkpt>
      <trkpt lat="51.262315291025" lon="4.50816049093">
        <ele>0</ele>
        <time>2019-05-03T20:26:37Z</time>
      </trkpt>
      <trkpt lat="51.262498686997" lon="4.508277418435">
        <ele>0</ele>
        <time>2019-05-03T20:26:46Z</time>
      </trkpt>
      <trkpt lat="51.262676299458" lon="4.508379929072">
        <ele>0</ele>
        <time>2019-05-03T20:26:54Z</time>
      </trkpt>
      <trkpt lat="51.262869921348" lon="4.508480763329">
        <ele>0</ele>
        <time>2019-05-03T20:27:02Z</time>
      </trkpt>
      <trkpt lat="51.263052814406" lon="4.508559888465">
        <ele>3.2</ele>
        <time>2019-05-03T20:27:09Z</time>
      </trkpt>
      <trkpt lat="51.263236964749" lon="4.508600205404">
        <ele>4.8</ele>
        <time>2019-05-03T20:27:16Z</time>
      </trkpt>
      <trkpt lat="51.263437292159" lon="4.508593918979">
        <ele>3.4</ele>
        <time>2019-05-03T20:27:24Z</time>
      </trkpt>
      <trkpt lat="51.263622951244" lon="4.508538933715">
        <ele>2.6</ele>
        <time>2019-05-03T20:27:32Z</time>
      </trkpt>
      <trkpt lat="51.263808358872" lon="4.50847565037">
        <ele>0.6</ele>
        <time>2019-05-03T20:27:40Z</time>
      </trkpt>
      <trkpt lat="51.263973733759" lon="4.508528959254">
        <ele>0</ele>
        <time>2019-05-03T20:27:47Z</time>
      </trkpt>
      <trkpt lat="51.264098288793" lon="4.508745631369">
        <ele>0</ele>
        <time>2019-05-03T20:27:54Z</time>
      </trkpt>
      <trkpt lat="51.264220496895" lon="4.508993065057">
        <ele>0</ele>
        <time>2019-05-03T20:28:01Z</time>
      </trkpt>
      <trkpt lat="51.264334490735" lon="4.509240666383">
        <ele>0</ele>
        <time>2019-05-03T20:28:09Z</time>
      </trkpt>
      <trkpt lat="51.264457034113" lon="4.509475191945">
        <ele>0</ele>
        <time>2019-05-03T20:28:17Z</time>
      </trkpt>
      <trkpt lat="51.26458636683" lon="4.509719943425">
        <ele>0</ele>
        <time>2019-05-03T20:28:25Z</time>
      </trkpt>
      <trkpt lat="51.264715867185" lon="4.509936699359">
        <ele>0</ele>
        <time>2019-05-03T20:28:33Z</time>
      </trkpt>
      <trkpt lat="51.264839332572" lon="4.510162004831">
        <ele>0</ele>
        <time>2019-05-03T20:28:41Z</time>
      </trkpt>
      <trkpt lat="51.264976292818" lon="4.51040181099">
        <ele>0</ele>
        <time>2019-05-03T20:28:49Z</time>
      </trkpt>
      <trkpt lat="51.265110319399" lon="4.510632732335">
        <ele>0</ele>
        <time>2019-05-03T20:28:57Z</time>
      </trkpt>
      <trkpt lat="51.265254823355" lon="4.510850075002">
        <ele>0</ele>
        <time>2019-05-03T20:29:05Z</time>
      </trkpt>
      <trkpt lat="51.26540276389" lon="4.511049648041">
        <ele>0</ele>
        <time>2019-05-03T20:29:13Z</time>
      </trkpt>
      <trkpt lat="51.265551794072" lon="4.511237989334">
        <ele>1</ele>
        <time>2019-05-03T20:29:21Z</time>
      </trkpt>
      <trkpt lat="51.265701494806" lon="4.511432365595">
        <ele>0</ele>
        <time>2019-05-03T20:29:29Z</time>
      </trkpt>
      <trkpt lat="51.265847926599" lon="4.511619868698">
        <ele>0</ele>
        <time>2019-05-03T20:29:37Z</time>
      </trkpt>
      <trkpt lat="51.265996370048" lon="4.511824889972">
        <ele>0</ele>
        <time>2019-05-03T20:29:45Z</time>
      </trkpt>
      <trkpt lat="51.266155626148" lon="4.511981128588">
        <ele>0</ele>
        <time>2019-05-03T20:29:52Z</time>
      </trkpt>
      <trkpt lat="51.266305913615" lon="4.512190927545">
        <ele>0</ele>
        <time>2019-05-03T20:30:00Z</time>
      </trkpt>
      <trkpt lat="51.266455111435" lon="4.512356134794">
        <ele>3.6</ele>
        <time>2019-05-03T20:30:07Z</time>
      </trkpt>
      <trkpt lat="51.266604644531" lon="4.512538692576">
        <ele>4.4</ele>
        <time>2019-05-03T20:30:14Z</time>
      </trkpt>
      <trkpt lat="51.266742442967" lon="4.512756370519">
        <ele>2.8</ele>
        <time>2019-05-03T20:30:22Z</time>
      </trkpt>
      <trkpt lat="51.266895328823" lon="4.512955692101">
        <ele>0</ele>
        <time>2019-05-03T20:30:31Z</time>
      </trkpt>
      <trkpt lat="51.267029020128" lon="4.51315610333">
        <ele>0</ele>
        <time>2019-05-03T20:30:39Z</time>
      </trkpt>
      <trkpt lat="51.267160867415" lon="4.513368584495">
        <ele>0</ele>
        <time>2019-05-03T20:30:47Z</time>
      </trkpt>
      <trkpt lat="51.267297660023" lon="4.51355843453">
        <ele>0</ele>
        <time>2019-05-03T20:30:55Z</time>
      </trkpt>
      <trkpt lat="51.267440822875" lon="4.51375876194">
        <ele>0</ele>
        <time>2019-05-03T20:31:03Z</time>
      </trkpt>
      <trkpt lat="51.26758624884" lon="4.513969231449">
        <ele>0</ele>
        <time>2019-05-03T20:31:11Z</time>
      </trkpt>
      <trkpt lat="51.267729327873" lon="4.514151202498">
        <ele>0</ele>
        <time>2019-05-03T20:31:19Z</time>
      </trkpt>
      <trkpt lat="51.267898223158" lon="4.514320181602">
        <ele>0</ele>
        <time>2019-05-03T20:31:27Z</time>
      </trkpt>
      <trkpt lat="51.268146075941" lon="4.514687644098">
        <ele>0</ele>
        <time>2019-05-03T20:31:41Z</time>
      </trkpt>
      <trkpt lat="51.268305499679" lon="4.514842960705">
        <ele>0</ele>
        <time>2019-05-03T20:31:48Z</time>
      </trkpt>
      <trkpt lat="51.268471461299" lon="4.515015292569">
        <ele>0</ele>
        <time>2019-05-03T20:31:56Z</time>
      </trkpt>
      <trkpt lat="51.268611271391" lon="4.515218218368">
        <ele>0</ele>
        <time>2019-05-03T20:32:04Z</time>
      </trkpt>
      <trkpt lat="51.268740687927" lon="4.515434387569">
        <ele>0</ele>
        <time>2019-05-03T20:32:12Z</time>
      </trkpt>
      <trkpt lat="51.268899189656" lon="4.515618537912">
        <ele>0</ele>
        <time>2019-05-03T20:32:20Z</time>
      </trkpt>
      <trkpt lat="51.269039251205" lon="4.51580562192">
        <ele>0</ele>
        <time>2019-05-03T20:32:28Z</time>
      </trkpt>
      <trkpt lat="51.269176211451" lon="4.516011397565">
        <ele>2.8</ele>
        <time>2019-05-03T20:32:36Z</time>
      </trkpt>
      <trkpt lat="51.269328594393" lon="4.51619035113">
        <ele>6.2</ele>
        <time>2019-05-03T20:32:43Z</time>
      </trkpt>
      <trkpt lat="51.269466225191" lon="4.516383302468">
        <ele>9</ele>
        <time>2019-05-03T20:32:51Z</time>
      </trkpt>
      <trkpt lat="51.269600335591" lon="4.516574661245">
        <ele>11</ele>
        <time>2019-05-03T20:32:58Z</time>
      </trkpt>
      <trkpt lat="51.2697688956" lon="4.516755375009">
        <ele>11.4</ele>
        <time>2019-05-03T20:33:06Z</time>
      </trkpt>
      <trkpt lat="51.269923457836" lon="4.516956289152">
        <ele>10.2</ele>
        <time>2019-05-03T20:33:15Z</time>
      </trkpt>
      <trkpt lat="51.27008070228" lon="4.517139266029">
        <ele>8.4</ele>
        <time>2019-05-03T20:33:22Z</time>
      </trkpt>
      <trkpt lat="51.270207939522" lon="4.51734789152">
        <ele>9.6</ele>
        <time>2019-05-03T20:33:29Z</time>
      </trkpt>
      <trkpt lat="51.27032964471" lon="4.517491892562">
        <ele>11</ele>
        <time>2019-05-03T20:33:35Z</time>
      </trkpt>
      <trkpt lat="51.270482279109" lon="4.517658943829">
        <ele>11.6</ele>
        <time>2019-05-03T20:33:42Z</time>
      </trkpt>
      <trkpt lat="51.270632985671" lon="4.517848961502">
        <ele>13.2</ele>
        <time>2019-05-03T20:33:51Z</time>
      </trkpt>
      <trkpt lat="51.27077304722" lon="4.51807208768">
        <ele>8</ele>
        <time>2019-05-03T20:33:58Z</time>
      </trkpt>
      <trkpt lat="51.270907660534" lon="4.518261602439">
        <ele>2.6</ele>
        <time>2019-05-03T20:34:04Z</time>
      </trkpt>
      <trkpt lat="51.271072113412" lon="4.518442651479">
        <ele>0.2</ele>
        <time>2019-05-03T20:34:11Z</time>
      </trkpt>
      <trkpt lat="51.271227430019" lon="4.518612217316">
        <ele>0</ele>
        <time>2019-05-03T20:34:18Z</time>
      </trkpt>
      <trkpt lat="51.271362043333" lon="4.518828470336">
        <ele>0</ele>
        <time>2019-05-03T20:34:26Z</time>
      </trkpt>
      <trkpt lat="51.271512917533" lon="4.519043130795">
        <ele>0</ele>
        <time>2019-05-03T20:34:34Z</time>
      </trkpt>
      <trkpt lat="51.271706371785" lon="4.519308166473">
        <ele>0</ele>
        <time>2019-05-03T20:34:43Z</time>
      </trkpt>
      <trkpt lat="51.271847187705" lon="4.519516456688">
        <ele>0</ele>
        <time>2019-05-03T20:34:53Z</time>
      </trkpt>
      <trkpt lat="51.272005354158" lon="4.519709491845">
        <ele>0.2</ele>
        <time>2019-05-03T20:35:01Z</time>
      </trkpt>
      <trkpt lat="51.272156395996" lon="4.519914094024">
        <ele>1.2</ele>
        <time>2019-05-03T20:35:09Z</time>
      </trkpt>
      <trkpt lat="51.272303665979" lon="4.520112325959">
        <ele>0</ele>
        <time>2019-05-03T20:35:17Z</time>
      </trkpt>
      <trkpt lat="51.272446409736" lon="4.520321705821">
        <ele>0</ele>
        <time>2019-05-03T20:35:25Z</time>
      </trkpt>
      <trkpt lat="51.272558811015" lon="4.520514321883">
        <ele>0</ele>
        <time>2019-05-03T20:35:32Z</time>
      </trkpt>
      <trkpt lat="51.272707003007" lon="4.520708781963">
        <ele>0</ele>
        <time>2019-05-03T20:35:40Z</time>
      </trkpt>
      <trkpt lat="51.272856703741" lon="4.520903409681">
        <ele>0</ele>
        <time>2019-05-03T20:35:48Z</time>
      </trkpt>
      <trkpt lat="51.273003219353" lon="4.521099127046">
        <ele>0</ele>
        <time>2019-05-03T20:35:56Z</time>
      </trkpt>
      <trkpt lat="51.27316188872" lon="4.521292078384">
        <ele>0</ele>
        <time>2019-05-03T20:36:04Z</time>
      </trkpt>
      <trkpt lat="51.273318462612" lon="4.521484107713">
        <ele>0</ele>
        <time>2019-05-03T20:36:13Z</time>
      </trkpt>
      <trkpt lat="51.273459278532" lon="4.52167546649">
        <ele>0</ele>
        <time>2019-05-03T20:36:20Z</time>
      </trkpt>
      <trkpt lat="51.273613505492" lon="4.521857605177">
        <ele>0</ele>
        <time>2019-05-03T20:36:28Z</time>
      </trkpt>
      <trkpt lat="51.27376370914" lon="4.522049047773">
        <ele>0.6</ele>
        <time>2019-05-03T20:36:36Z</time>
      </trkpt>
      <trkpt lat="51.273907207268" lon="4.522254907237">
        <ele>1.4</ele>
        <time>2019-05-03T20:36:44Z</time>
      </trkpt>
      <trkpt lat="51.274055566898" lon="4.522447523299">
        <ele>3</ele>
        <time>2019-05-03T20:36:52Z</time>
      </trkpt>
      <trkpt lat="51.274230497151" lon="4.522591440522">
        <ele>3.4</ele>
        <time>2019-05-03T20:36:59Z</time>
      </trkpt>
      <trkpt lat="51.27437558784" lon="4.522779865634">
        <ele>3</ele>
        <time>2019-05-03T20:37:06Z</time>
      </trkpt>
      <trkpt lat="51.274519337425" lon="4.522959657389">
        <ele>3.2</ele>
        <time>2019-05-03T20:37:14Z</time>
      </trkpt>
      <trkpt lat="51.274658393146" lon="4.523145484112">
        <ele>1.8</ele>
        <time>2019-05-03T20:37:21Z</time>
      </trkpt>
      <trkpt lat="51.274746654553" lon="4.523209102733">
        <ele>0.6</ele>
        <time>2019-05-03T20:37:26Z</time>
      </trkpt>
      <trkpt lat="51.274895517097" lon="4.523392750162">
        <ele>0</ele>
        <time>2019-05-03T20:37:33Z</time>
      </trkpt>
      <trkpt lat="51.275150410676" lon="4.523599196359">
        <ele>0</ele>
        <time>2019-05-03T20:37:44Z</time>
      </trkpt>
      <trkpt lat="51.275306900749" lon="4.523743197401">
        <ele>2.2</ele>
        <time>2019-05-03T20:37:51Z</time>
      </trkpt>
      <trkpt lat="51.27549289511" lon="4.523873116851">
        <ele>4.2</ele>
        <time>2019-05-03T20:37:59Z</time>
      </trkpt>
      <trkpt lat="51.275637985799" lon="4.524044694344">
        <ele>4.4</ele>
        <time>2019-05-03T20:38:06Z</time>
      </trkpt>
      <trkpt lat="51.27579883446" lon="4.524191545232">
        <ele>4.2</ele>
        <time>2019-05-03T20:38:14Z</time>
      </trkpt>
      <trkpt lat="51.275957084732" lon="4.524338228482">
        <ele>3.4</ele>
        <time>2019-05-03T20:38:22Z</time>
      </trkpt>
      <trkpt lat="51.276129165139" lon="4.524507039948">
        <ele>1.4</ele>
        <time>2019-05-03T20:38:30Z</time>
      </trkpt>
      <trkpt lat="51.276296132587" lon="4.524674594129">
        <ele>0</ele>
        <time>2019-05-03T20:38:38Z</time>
      </trkpt>
      <trkpt lat="51.276450359547" lon="4.524823624311">
        <ele>0</ele>
        <time>2019-05-03T20:38:46Z</time>
      </trkpt>
      <trkpt lat="51.276626379447" lon="4.52498044966">
        <ele>0</ele>
        <time>2019-05-03T20:38:54Z</time>
      </trkpt>
      <trkpt lat="51.276806003564" lon="4.525135850086">
        <ele>1.2</ele>
        <time>2019-05-03T20:39:02Z</time>
      </trkpt>
      <trkpt lat="51.276983699844" lon="4.52528135987">
        <ele>0.6</ele>
        <time>2019-05-03T20:39:10Z</time>
      </trkpt>
      <trkpt lat="51.277142536849" lon="4.525417901021">
        <ele>1.4</ele>
        <time>2019-05-03T20:39:17Z</time>
      </trkpt>
      <trkpt lat="51.277320736043" lon="4.525556034733">
        <ele>1.2</ele>
        <time>2019-05-03T20:39:25Z</time>
      </trkpt>
      <trkpt lat="51.277478734858" lon="4.525717302489">
        <ele>0</ele>
        <time>2019-05-03T20:39:33Z</time>
      </trkpt>
      <trkpt lat="51.277651653455" lon="4.525864488653">
        <ele>0</ele>
        <time>2019-05-03T20:39:41Z</time>
      </trkpt>
      <trkpt lat="51.277824907328" lon="4.52601896707">
        <ele>0</ele>
        <time>2019-05-03T20:39:49Z</time>
      </trkpt>
      <trkpt lat="51.277996652459" lon="4.526173026392">
        <ele>0</ele>
        <time>2019-05-03T20:39:57Z</time>
      </trkpt>
      <trkpt lat="51.278130092307" lon="4.526367067377">
        <ele>1.4</ele>
        <time>2019-05-03T20:40:04Z</time>
      </trkpt>
      <trkpt lat="51.278304687284" lon="4.526477289362">
        <ele>4.8</ele>
        <time>2019-05-03T20:40:11Z</time>
      </trkpt>
      <trkpt lat="51.278475007492" lon="4.526577704524">
        <ele>8</ele>
        <time>2019-05-03T20:40:20Z</time>
      </trkpt>
      <trkpt lat="51.278653961057" lon="4.526691614545">
        <ele>8.4</ele>
        <time>2019-05-03T20:40:28Z</time>
      </trkpt>
      <trkpt lat="51.278815899365" lon="4.526851205921">
        <ele>9.2</ele>
        <time>2019-05-03T20:40:36Z</time>
      </trkpt>
      <trkpt lat="51.279001642269" lon="4.526995290782">
        <ele>8</ele>
        <time>2019-05-03T20:40:44Z</time>
      </trkpt>
      <trkpt lat="51.279167939165" lon="4.527139291824">
        <ele>8.6</ele>
        <time>2019-05-03T20:40:52Z</time>
      </trkpt>
      <trkpt lat="51.279344713436" lon="4.527285136884">
        <ele>10</ele>
        <time>2019-05-03T20:41:01Z</time>
      </trkpt>
      <trkpt lat="51.279521906802" lon="4.527420588388">
        <ele>11</ele>
        <time>2019-05-03T20:41:09Z</time>
      </trkpt>
      <trkpt lat="51.279682587825" lon="4.527571043493">
        <ele>9</ele>
        <time>2019-05-03T20:41:17Z</time>
      </trkpt>
      <trkpt lat="51.279850896377" lon="4.527680846383">
        <ele>14.4</ele>
        <time>2019-05-03T20:41:25Z</time>
      </trkpt>
      <trkpt lat="51.280012834685" lon="4.527813699498">
        <ele>13.4</ele>
        <time>2019-05-03T20:41:32Z</time>
      </trkpt>
      <trkpt lat="51.280150297845" lon="4.528008327216">
        <ele>11</ele>
        <time>2019-05-03T20:41:40Z</time>
      </trkpt>
      <trkpt lat="51.28032003132" lon="4.528167331859">
        <ele>9.2</ele>
        <time>2019-05-03T20:41:48Z</time>
      </trkpt>
      <trkpt lat="51.280484987112" lon="4.528310997625">
        <ele>5.6</ele>
        <time>2019-05-03T20:41:56Z</time>
      </trkpt>
      <trkpt lat="51.280650864913" lon="4.528446784405">
        <ele>4.6</ele>
        <time>2019-05-03T20:42:04Z</time>
      </trkpt>
      <trkpt lat="51.28080450514" lon="4.528600759908">
        <ele>6.2</ele>
        <time>2019-05-03T20:42:11Z</time>
      </trkpt>
      <trkpt lat="51.280970047665" lon="4.528719363793">
        <ele>5</ele>
        <time>2019-05-03T20:42:18Z</time>
      </trkpt>
      <trkpt lat="51.281141122244" lon="4.528853390374">
        <ele>2.8</ele>
        <time>2019-05-03T20:42:26Z</time>
      </trkpt>
      <trkpt lat="51.281306748588" lon="4.529003845479">
        <ele>4.6</ele>
        <time>2019-05-03T20:42:34Z</time>
      </trkpt>
      <trkpt lat="51.281474554226" lon="4.529151786014">
        <ele>3</ele>
        <time>2019-05-03T20:42:42Z</time>
      </trkpt>
      <trkpt lat="51.281633307412" lon="4.52933317033">
        <ele>0.8</ele>
        <time>2019-05-03T20:42:50Z</time>
      </trkpt>
      <trkpt lat="51.281802202697" lon="4.529504244909">
        <ele>2.8</ele>
        <time>2019-05-03T20:42:58Z</time>
      </trkpt>
      <trkpt lat="51.281964979195" lon="4.529641121336">
        <ele>3.4</ele>
        <time>2019-05-03T20:43:06Z</time>
      </trkpt>
      <trkpt lat="51.282114512291" lon="4.529816051589">
        <ele>4.2</ele>
        <time>2019-05-03T20:43:12Z</time>
      </trkpt>
      <trkpt lat="51.282276618237" lon="4.530003219416">
        <ele>5.4</ele>
        <time>2019-05-03T20:43:20Z</time>
      </trkpt>
      <trkpt lat="51.282403520203" lon="4.530206480491">
        <ele>6.2</ele>
        <time>2019-05-03T20:43:28Z</time>
      </trkpt>
      <trkpt lat="51.282512233446" lon="4.530470929436">
        <ele>2.6</ele>
        <time>2019-05-03T20:43:35Z</time>
      </trkpt>
      <trkpt lat="51.282719266376" lon="4.530848701669">
        <ele>0</ele>
        <time>2019-05-03T20:43:47Z</time>
      </trkpt>
      <trkpt lat="51.282806019041" lon="4.531139553599">
        <ele>0</ele>
        <time>2019-05-03T20:43:55Z</time>
      </trkpt>
      <trkpt lat="51.282905428375" lon="4.531411797711">
        <ele>0</ele>
        <time>2019-05-03T20:44:04Z</time>
      </trkpt>
      <trkpt lat="51.283004921528" lon="4.531656884467">
        <ele>0</ele>
        <time>2019-05-03T20:44:11Z</time>
      </trkpt>
      <trkpt lat="51.283128051639" lon="4.531907084182">
        <ele>0</ele>
        <time>2019-05-03T20:44:18Z</time>
      </trkpt>
      <trkpt lat="51.283234501769" lon="4.532149656368">
        <ele>0</ele>
        <time>2019-05-03T20:44:25Z</time>
      </trkpt>
      <trkpt lat="51.283362493382" lon="4.532404801404">
        <ele>0</ele>
        <time>2019-05-03T20:44:33Z</time>
      </trkpt>
      <trkpt lat="51.283523425862" lon="4.53259959676">
        <ele>0</ele>
        <time>2019-05-03T20:44:40Z</time>
      </trkpt>
      <trkpt lat="51.283683184876" lon="4.532762624715">
        <ele>0</ele>
        <time>2019-05-03T20:44:47Z</time>
      </trkpt>
      <trkpt lat="51.283832717972" lon="4.532940488633">
        <ele>0</ele>
        <time>2019-05-03T20:44:54Z</time>
      </trkpt>
      <trkpt lat="51.283972360426" lon="4.533156741653">
        <ele>0</ele>
        <time>2019-05-03T20:45:03Z</time>
      </trkpt>
      <trkpt lat="51.284124827187" lon="4.533349525353">
        <ele>0</ele>
        <time>2019-05-03T20:45:11Z</time>
      </trkpt>
      <trkpt lat="51.284268157677" lon="4.533555300998">
        <ele>0</ele>
        <time>2019-05-03T20:45:20Z</time>
      </trkpt>
      <trkpt lat="51.284416014393" lon="4.533743558472">
        <ele>0</ele>
        <time>2019-05-03T20:45:28Z</time>
      </trkpt>
      <trkpt lat="51.284570325172" lon="4.533914968327">
        <ele>0</ele>
        <time>2019-05-03T20:45:36Z</time>
      </trkpt>
      <trkpt lat="51.284728407806" lon="4.534077409549">
        <ele>0</ele>
        <time>2019-05-03T20:45:43Z</time>
      </trkpt>
      <trkpt lat="51.284902583688" lon="4.534232307061">
        <ele>0</ele>
        <time>2019-05-03T20:45:50Z</time>
      </trkpt>
      <trkpt lat="51.285064773453" lon="4.534406399124">
        <ele>0</ele>
        <time>2019-05-03T20:45:58Z</time>
      </trkpt>
      <trkpt lat="51.285216904938" lon="4.534594908055">
        <ele>0</ele>
        <time>2019-05-03T20:46:08Z</time>
      </trkpt>
      <trkpt lat="51.285374149382" lon="4.534789871049">
        <ele>0</ele>
        <time>2019-05-03T20:46:17Z</time>
      </trkpt>
      <trkpt lat="51.285534495129" lon="4.53494736695">
        <ele>0</ele>
        <time>2019-05-03T20:46:25Z</time>
      </trkpt>
      <trkpt lat="51.285693499772" lon="4.535117268063">
        <ele>0</ele>
        <time>2019-05-03T20:46:33Z</time>
      </trkpt>
      <trkpt lat="51.285873794441" lon="4.535269567186">
        <ele>0</ele>
        <time>2019-05-03T20:46:42Z</time>
      </trkpt>
      <trkpt lat="51.28605241273" lon="4.535393703125">
        <ele>0</ele>
        <time>2019-05-03T20:46:51Z</time>
      </trkpt>
      <trkpt lat="51.286242765679" lon="4.535466709474">
        <ele>0</ele>
        <time>2019-05-03T20:46:59Z</time>
      </trkpt>
      <trkpt lat="51.286408811118" lon="4.535570812672">
        <ele>0</ele>
        <time>2019-05-03T20:47:07Z</time>
      </trkpt>
      <trkpt lat="51.286587932321" lon="4.535658654984">
        <ele>0</ele>
        <time>2019-05-03T20:47:15Z</time>
      </trkpt>
      <trkpt lat="51.286777614718" lon="4.535737612482">
        <ele>0</ele>
        <time>2019-05-03T20:47:22Z</time>
      </trkpt>
      <trkpt lat="51.286967548572" lon="4.535814474505">
        <ele>1.2</ele>
        <time>2019-05-03T20:47:30Z</time>
      </trkpt>
      <trkpt lat="51.287159996996" lon="4.535902484455">
        <ele>1.4</ele>
        <time>2019-05-03T20:47:38Z</time>
      </trkpt>
      <trkpt lat="51.28734154895" lon="4.535997786658">
        <ele>0</ele>
        <time>2019-05-03T20:47:46Z</time>
      </trkpt>
      <trkpt lat="51.287526118388" lon="4.53608898173">
        <ele>0</ele>
        <time>2019-05-03T20:47:55Z</time>
      </trkpt>
      <trkpt lat="51.287692666741" lon="4.536211273651">
        <ele>0</ele>
        <time>2019-05-03T20:48:03Z</time>
      </trkpt>
      <trkpt lat="51.287852677212" lon="4.536342785662">
        <ele>0</ele>
        <time>2019-05-03T20:48:10Z</time>
      </trkpt>
      <trkpt lat="51.288034229166" lon="4.536491899663">
        <ele>0</ele>
        <time>2019-05-03T20:48:18Z</time>
      </trkpt>
      <trkpt lat="51.288183259348" lon="4.536682671707">
        <ele>0</ele>
        <time>2019-05-03T20:48:26Z</time>
      </trkpt>
      <trkpt lat="51.288205639021" lon="4.53670588957">
        <ele>0</ele>
        <time>2019-05-03T20:48:27Z</time>
      </trkpt>
      <trkpt lat="51.288350059158" lon="4.536897248347">
        <ele>0</ele>
        <time>2019-05-03T20:48:34Z</time>
      </trkpt>
      <trkpt lat="51.28848903106" lon="4.537099084499">
        <ele>2.2</ele>
        <time>2019-05-03T20:48:41Z</time>
      </trkpt>
      <trkpt lat="51.288615765388" lon="4.537339645029">
        <ele>6</ele>
        <time>2019-05-03T20:48:49Z</time>
      </trkpt>
      <trkpt lat="51.288735710377" lon="4.537556987696">
        <ele>6.2</ele>
        <time>2019-05-03T20:48:56Z</time>
      </trkpt>
      <trkpt lat="51.288876023383" lon="4.537790088335">
        <ele>7</ele>
        <time>2019-05-03T20:49:04Z</time>
      </trkpt>
      <trkpt lat="51.288991777422" lon="4.538010867581">
        <ele>8.6</ele>
        <time>2019-05-03T20:49:11Z</time>
      </trkpt>
      <trkpt lat="51.289119182302" lon="4.538216056493">
        <ele>8.4</ele>
        <time>2019-05-03T20:49:18Z</time>
      </trkpt>
      <trkpt lat="51.289182633285" lon="4.538318064216">
        <ele>9.8</ele>
        <time>2019-05-03T20:49:22Z</time>
      </trkpt>
      <trkpt lat="51.289309702889" lon="4.538551248674">
        <ele>9.6</ele>
        <time>2019-05-03T20:49:30Z</time>
      </trkpt>
      <trkpt lat="51.289422020349" lon="4.538811339031">
        <ele>9.4</ele>
        <time>2019-05-03T20:49:39Z</time>
      </trkpt>
      <trkpt lat="51.289542552071" lon="4.539039326711">
        <ele>7.2</ele>
        <time>2019-05-03T20:49:47Z</time>
      </trkpt>
      <trkpt lat="51.289718152876" lon="4.539405196646">
        <ele>5.4</ele>
        <time>2019-05-03T20:50:00Z</time>
      </trkpt>
      <trkpt lat="51.289855783674" lon="4.539638464923">
        <ele>5.4</ele>
        <time>2019-05-03T20:50:09Z</time>
      </trkpt>
      <trkpt lat="51.289981428355" lon="4.539863099843">
        <ele>5.4</ele>
        <time>2019-05-03T20:50:17Z</time>
      </trkpt>
      <trkpt lat="51.290096763299" lon="4.540087315668">
        <ele>6.2</ele>
        <time>2019-05-03T20:50:25Z</time>
      </trkpt>
      <trkpt lat="51.290227101844" lon="4.540309771294">
        <ele>5.8</ele>
        <time>2019-05-03T20:50:33Z</time>
      </trkpt>
      <trkpt lat="51.290370851429" lon="4.540527616875">
        <ele>5.2</ele>
        <time>2019-05-03T20:50:41Z</time>
      </trkpt>
      <trkpt lat="51.290479061758" lon="4.540787120499">
        <ele>6.4</ele>
        <time>2019-05-03T20:50:50Z</time>
      </trkpt>
      <trkpt lat="51.290623481895" lon="4.540992896144">
        <ele>8.2</ele>
        <time>2019-05-03T20:50:58Z</time>
      </trkpt>
      <trkpt lat="51.290744013617" lon="4.541211579915">
        <ele>9.2</ele>
        <time>2019-05-03T20:51:06Z</time>
      </trkpt>
      <trkpt lat="51.290853062136" lon="4.541462785458">
        <ele>9.2</ele>
        <time>2019-05-03T20:51:15Z</time>
      </trkpt>
      <trkpt lat="51.290963451759" lon="4.541689599672">
        <ele>6.8</ele>
        <time>2019-05-03T20:51:23Z</time>
      </trkpt>
      <trkpt lat="51.291080211626" lon="4.54194876802">
        <ele>5.4</ele>
        <time>2019-05-03T20:51:32Z</time>
      </trkpt>
      <trkpt lat="51.291186997032" lon="4.542183125944">
        <ele>1.8</ele>
        <time>2019-05-03T20:51:41Z</time>
      </trkpt>
      <trkpt lat="51.291321945622" lon="4.542411867995">
        <ele>0.8</ele>
        <time>2019-05-03T20:51:49Z</time>
      </trkpt>
      <trkpt lat="51.291449937235" lon="4.542614374699">
        <ele>1</ele>
        <time>2019-05-03T20:51:56Z</time>
      </trkpt>
      <trkpt lat="51.291554459528" lon="4.542870357925">
        <ele>1.2</ele>
        <time>2019-05-03T20:52:04Z</time>
      </trkpt>
      <trkpt lat="51.291692677059" lon="4.543110666998">
        <ele>3.8</ele>
        <time>2019-05-03T20:52:12Z</time>
      </trkpt>
      <trkpt lat="51.291825111079" lon="4.543326920018">
        <ele>6.2</ele>
        <time>2019-05-03T20:52:20Z</time>
      </trkpt>
      <trkpt lat="51.291963160972" lon="4.54352707979">
        <ele>6</ele>
        <time>2019-05-03T20:52:28Z</time>
      </trkpt>
      <trkpt lat="51.292092074594" lon="4.543744673914">
        <ele>6.2</ele>
        <time>2019-05-03T20:52:36Z</time>
      </trkpt>
      <trkpt lat="51.292209169737" lon="4.543962184219">
        <ele>2.6</ele>
        <time>2019-05-03T20:52:43Z</time>
      </trkpt>
      <trkpt lat="51.292331796934" lon="4.544190004261">
        <ele>3.6</ele>
        <time>2019-05-03T20:52:51Z</time>
      </trkpt>
      <trkpt lat="51.292417795228" lon="4.544392678603">
        <ele>6.8</ele>
        <time>2019-05-03T20:52:59Z</time>
      </trkpt>
      <trkpt lat="51.292534638914" lon="4.544632149486">
        <ele>5.4</ele>
        <time>2019-05-03T20:53:07Z</time>
      </trkpt>
      <trkpt lat="51.292640921406" lon="4.544888551807">
        <ele>4.8</ele>
        <time>2019-05-03T20:53:15Z</time>
      </trkpt>
      <trkpt lat="51.292773774521" lon="4.545099188954">
        <ele>3.4</ele>
        <time>2019-05-03T20:53:22Z</time>
      </trkpt>
      <trkpt lat="51.292905035075" lon="4.545314017051">
        <ele>3.6</ele>
        <time>2019-05-03T20:53:30Z</time>
      </trkpt>
      <trkpt lat="51.293013496861" lon="4.5455714252">
        <ele>3</ele>
        <time>2019-05-03T20:53:39Z</time>
      </trkpt>
      <trkpt lat="51.293043671701" lon="4.545650298879">
        <ele>2.4</ele>
        <time>2019-05-03T20:53:42Z</time>
      </trkpt>
      <trkpt lat="51.293180212852" lon="4.545853392316">
        <ele>1.8</ele>
        <time>2019-05-03T20:53:50Z</time>
      </trkpt>
      <trkpt lat="51.293318933297" lon="4.546058329771">
        <ele>3.8</ele>
        <time>2019-05-03T20:53:58Z</time>
      </trkpt>
      <trkpt lat="51.293454217163" lon="4.546281958863">
        <ele>3.4</ele>
        <time>2019-05-03T20:54:06Z</time>
      </trkpt>
      <trkpt lat="51.293569552107" lon="4.546504665946">
        <ele>5.2</ele>
        <time>2019-05-03T20:54:14Z</time>
      </trkpt>
      <trkpt lat="51.29368664725" lon="4.546721589518">
        <ele>5</ele>
        <time>2019-05-03T20:54:22Z</time>
      </trkpt>
      <trkpt lat="51.293811956655" lon="4.546973968527">
        <ele>3.6</ele>
        <time>2019-05-03T20:54:31Z</time>
      </trkpt>
      <trkpt lat="51.293935338223" lon="4.547203800225">
        <ele>5.4</ele>
        <time>2019-05-03T20:54:39Z</time>
      </trkpt>
      <trkpt lat="51.294063413655" lon="4.547426591127">
        <ele>6.2</ele>
        <time>2019-05-03T20:54:47Z</time>
      </trkpt>
      <trkpt lat="51.294186292309" lon="4.54763923993">
        <ele>6.4</ele>
        <time>2019-05-03T20:54:55Z</time>
      </trkpt>
      <trkpt lat="51.294312942818" lon="4.547879884279">
        <ele>6.4</ele>
        <time>2019-05-03T20:55:03Z</time>
      </trkpt>
      <trkpt lat="51.294425511735" lon="4.548113320194">
        <ele>8.4</ele>
        <time>2019-05-03T20:55:11Z</time>
      </trkpt>
      <trkpt lat="51.294540427584" lon="4.548365866841">
        <ele>9.2</ele>
        <time>2019-05-03T20:55:20Z</time>
      </trkpt>
      <trkpt lat="51.294639836918" lon="4.54862411318">
        <ele>7.4</ele>
        <time>2019-05-03T20:55:28Z</time>
      </trkpt>
      <trkpt lat="51.294760117183" lon="4.548854950706">
        <ele>7.6</ele>
        <time>2019-05-03T20:55:36Z</time>
      </trkpt>
      <trkpt lat="51.294881738552" lon="4.549084614766">
        <ele>7.8</ele>
        <time>2019-05-03T20:55:44Z</time>
      </trkpt>
      <trkpt lat="51.295000677713" lon="4.549311093704">
        <ele>7.8</ele>
        <time>2019-05-03T20:55:52Z</time>
      </trkpt>
      <trkpt lat="51.295057506995" lon="4.549393487781">
        <ele>7.8</ele>
        <time>2019-05-03T20:55:56Z</time>
      </trkpt>
      <trkpt lat="51.295194886336" lon="4.549611165724">
        <ele>6.2</ele>
        <time>2019-05-03T20:56:04Z</time>
      </trkpt>
      <trkpt lat="51.295308125805" lon="4.549854827557">
        <ele>3.2</ele>
        <time>2019-05-03T20:56:12Z</time>
      </trkpt>
      <trkpt lat="51.295527563947" lon="4.550221284225">
        <ele>3</ele>
        <time>2019-05-03T20:56:25Z</time>
      </trkpt>
      <trkpt lat="51.295651280791" lon="4.550462850583">
        <ele>1.8</ele>
        <time>2019-05-03T20:56:33Z</time>
      </trkpt>
      <trkpt lat="51.295772231608" lon="4.550672900997">
        <ele>2</ele>
        <time>2019-05-03T20:56:40Z</time>
      </trkpt>
      <trkpt lat="51.295904246533" lon="4.550876664986">
        <ele>4.2</ele>
        <time>2019-05-03T20:56:47Z</time>
      </trkpt>
      <trkpt lat="51.296011702491" lon="4.551120243">
        <ele>5.6</ele>
        <time>2019-05-03T20:56:55Z</time>
      </trkpt>
      <trkpt lat="51.296037854019" lon="4.551176485549">
        <ele>6.2</ele>
        <time>2019-05-03T20:56:57Z</time>
      </trkpt>
      <trkpt lat="51.296166935279" lon="4.551411262568">
        <ele>10.2</ele>
        <time>2019-05-03T20:57:05Z</time>
      </trkpt>
      <trkpt lat="51.296294004883" lon="4.55161561329">
        <ele>12.2</ele>
        <time>2019-05-03T20:57:12Z</time>
      </trkpt>
      <trkpt lat="51.296412692587" lon="4.551860867684">
        <ele>11.8</ele>
        <time>2019-05-03T20:57:21Z</time>
      </trkpt>
      <trkpt lat="51.29653146411" lon="4.552080641102">
        <ele>13.4</ele>
        <time>2019-05-03T20:57:29Z</time>
      </trkpt>
      <trkpt lat="51.296655767687" lon="4.552332433378">
        <ele>11.4</ele>
        <time>2019-05-03T20:57:38Z</time>
      </trkpt>
      <trkpt lat="51.296781831463" lon="4.552561426886">
        <ele>11.6</ele>
        <time>2019-05-03T20:57:46Z</time>
      </trkpt>
      <trkpt lat="51.296921976831" lon="4.552776674078">
        <ele>10.2</ele>
        <time>2019-05-03T20:57:54Z</time>
      </trkpt>
      <trkpt lat="51.297050471358" lon="4.552990161071">
        <ele>10.2</ele>
        <time>2019-05-03T20:58:02Z</time>
      </trkpt>
      <trkpt lat="51.297169410519" lon="4.55322912904">
        <ele>10.4</ele>
        <time>2019-05-03T20:58:11Z</time>
      </trkpt>
      <trkpt lat="51.297289523146" lon="4.553482430058">
        <ele>9.6</ele>
        <time>2019-05-03T20:58:20Z</time>
      </trkpt>
      <trkpt lat="51.297403349348" lon="4.553730534298">
        <ele>8.8</ele>
        <time>2019-05-03T20:58:29Z</time>
      </trkpt>
      <trkpt lat="51.297535699549" lon="4.553940836169">
        <ele>10.6</ele>
        <time>2019-05-03T20:58:37Z</time>
      </trkpt>
      <trkpt lat="51.297676180193" lon="4.554177373387">
        <ele>12.2</ele>
        <time>2019-05-03T20:58:45Z</time>
      </trkpt>
      <trkpt lat="51.297803668892" lon="4.554422376324">
        <ele>11.6</ele>
        <time>2019-05-03T20:58:53Z</time>
      </trkpt>
      <trkpt lat="51.297925793175" lon="4.554666876347">
        <ele>10.4</ele>
        <time>2019-05-03T20:59:01Z</time>
      </trkpt>
      <trkpt lat="51.298029561097" lon="4.554936186794">
        <ele>7.8</ele>
        <time>2019-05-03T20:59:10Z</time>
      </trkpt>
      <trkpt lat="51.298146069507" lon="4.555173646021">
        <ele>7.6</ele>
        <time>2019-05-03T20:59:18Z</time>
      </trkpt>
      <trkpt lat="51.298276910966" lon="4.555410267058">
        <ele>8</ele>
        <time>2019-05-03T20:59:26Z</time>
      </trkpt>
      <trkpt lat="51.298410183176" lon="4.555620401291">
        <ele>10</ele>
        <time>2019-05-03T20:59:33Z</time>
      </trkpt>
      <trkpt lat="51.298549071259" lon="4.555828272411">
        <ele>11.6</ele>
        <time>2019-05-03T20:59:40Z</time>
      </trkpt>
      <trkpt lat="51.298685528591" lon="4.556032539314">
        <ele>11.6</ele>
        <time>2019-05-03T20:59:47Z</time>
      </trkpt>
      <trkpt lat="51.298789967065" lon="4.556270501455">
        <ele>11.4</ele>
        <time>2019-05-03T20:59:55Z</time>
      </trkpt>
      <trkpt lat="51.298900272869" lon="4.556511900175">
        <ele>13</ele>
        <time>2019-05-03T21:00:03Z</time>
      </trkpt>
      <trkpt lat="51.299035892011" lon="4.556751371058">
        <ele>13.4</ele>
        <time>2019-05-03T21:00:11Z</time>
      </trkpt>
      <trkpt lat="51.299149382937" lon="4.556997128366">
        <ele>13.6</ele>
        <time>2019-05-03T21:00:19Z</time>
      </trkpt>
      <trkpt lat="51.29927402179" lon="4.557233917041">
        <ele>14.8</ele>
        <time>2019-05-03T21:00:27Z</time>
      </trkpt>
      <trkpt lat="51.299348033967" lon="4.557409350208">
        <ele>13.4</ele>
        <time>2019-05-03T21:00:33Z</time>
      </trkpt>
      <trkpt lat="51.299476612313" lon="4.557642953761">
        <ele>14.4</ele>
        <time>2019-05-03T21:00:41Z</time>
      </trkpt>
      <trkpt lat="51.299576189285" lon="4.557882676101">
        <ele>12.8</ele>
        <time>2019-05-03T21:00:49Z</time>
      </trkpt>
      <trkpt lat="51.299683393786" lon="4.558123236631">
        <ele>12.2</ele>
        <time>2019-05-03T21:00:57Z</time>
      </trkpt>
      <trkpt lat="51.299806188621" lon="4.55837561564">
        <ele>12.4</ele>
        <time>2019-05-03T21:01:05Z</time>
      </trkpt>
      <trkpt lat="51.299916745882" lon="4.558604944424">
        <ele>11</ele>
        <time>2019-05-03T21:01:13Z</time>
      </trkpt>
      <trkpt lat="51.30003426012" lon="4.55884919299">
        <ele>10</ele>
        <time>2019-05-03T21:01:21Z</time>
      </trkpt>
      <trkpt lat="51.300149175969" lon="4.559113306659">
        <ele>11</ele>
        <time>2019-05-03T21:01:30Z</time>
      </trkpt>
      <trkpt lat="51.300265265284" lon="4.559365015116">
        <ele>11.8</ele>
        <time>2019-05-03T21:01:38Z</time>
      </trkpt>
      <trkpt lat="51.3003879763" lon="4.559608257854">
        <ele>12.4</ele>
        <time>2019-05-03T21:01:46Z</time>
      </trkpt>
      <trkpt lat="51.300488642919" lon="4.55985921194">
        <ele>14.2</ele>
        <time>2019-05-03T21:01:54Z</time>
      </trkpt>
      <trkpt lat="51.300609090822" lon="4.560089462733">
        <ele>16</ele>
        <time>2019-05-03T21:02:02Z</time>
      </trkpt>
      <trkpt lat="51.300717552608" lon="4.560334549489">
        <ele>16</ele>
        <time>2019-05-03T21:02:10Z</time>
      </trkpt>
      <trkpt lat="51.300827942231" lon="4.560568907413">
        <ele>16.8</ele>
        <time>2019-05-03T21:02:18Z</time>
      </trkpt>
      <trkpt lat="51.300901367675" lon="4.560748028616">
        <ele>16.2</ele>
        <time>2019-05-03T21:02:24Z</time>
      </trkpt>
      <trkpt lat="51.300870103188" lon="4.560863615017">
        <ele>16</ele>
        <time>2019-05-03T21:02:31Z</time>
      </trkpt>
      <trkpt lat="51.301116866324" lon="4.561156981517">
        <ele>15.4</ele>
        <time>2019-05-03T21:02:45Z</time>
      </trkpt>
      <trkpt lat="51.301231027802" lon="4.561407181232">
        <ele>14</ele>
        <time>2019-05-03T21:02:53Z</time>
      </trkpt>
      <trkpt lat="51.301331359145" lon="4.561674228566">
        <ele>13.4</ele>
        <time>2019-05-03T21:03:01Z</time>
      </trkpt>
      <trkpt lat="51.301427499538" lon="4.561920488788">
        <ele>13</ele>
        <time>2019-05-03T21:03:09Z</time>
      </trkpt>
      <trkpt lat="51.301537470066" lon="4.562175047091">
        <ele>12</ele>
        <time>2019-05-03T21:03:17Z</time>
      </trkpt>
      <trkpt lat="51.301671329009" lon="4.562391886844">
        <ele>12.8</ele>
        <time>2019-05-03T21:03:25Z</time>
      </trkpt>
      <trkpt lat="51.301788088876" lon="4.562627334415">
        <ele>11</ele>
        <time>2019-05-03T21:03:33Z</time>
      </trkpt>
      <trkpt lat="51.301885654192" lon="4.562873510818">
        <ele>9</ele>
        <time>2019-05-03T21:03:41Z</time>
      </trkpt>
      <trkpt lat="51.301904010553" lon="4.562929418091">
        <ele>8.4</ele>
        <time>2019-05-03T21:03:43Z</time>
      </trkpt>
      <trkpt lat="51.302027978854" lon="4.563181126548">
        <ele>7.6</ele>
        <time>2019-05-03T21:03:52Z</time>
      </trkpt>
      <trkpt lat="51.302141805056" lon="4.563426045666">
        <ele>8.8</ele>
        <time>2019-05-03T21:04:00Z</time>
      </trkpt>
      <trkpt lat="51.302238029268" lon="4.563691500439">
        <ele>10.2</ele>
        <time>2019-05-03T21:04:08Z</time>
      </trkpt>
      <trkpt lat="51.302350598185" lon="4.563931558055">
        <ele>12.2</ele>
        <time>2019-05-03T21:04:16Z</time>
      </trkpt>
      <trkpt lat="51.302466771319" lon="4.564171783309">
        <ele>13</ele>
        <time>2019-05-03T21:04:24Z</time>
      </trkpt>
      <trkpt lat="51.302581854806" lon="4.564424413775">
        <ele>13.8</ele>
        <time>2019-05-03T21:04:32Z</time>
      </trkpt>
      <trkpt lat="51.302704901098" lon="4.564680061725">
        <ele>15.8</ele>
        <time>2019-05-03T21:04:40Z</time>
      </trkpt>
      <trkpt lat="51.302794922704" lon="4.564948198706">
        <ele>14.4</ele>
        <time>2019-05-03T21:04:48Z</time>
      </trkpt>
      <trkpt lat="51.302891901287" lon="4.565214910764">
        <ele>12</ele>
        <time>2019-05-03T21:04:56Z</time>
      </trkpt>
      <trkpt lat="51.302944791076" lon="4.565506600884">
        <ele>11.2</ele>
        <time>2019-05-03T21:05:04Z</time>
      </trkpt>
      <trkpt lat="51.303103041348" lon="4.565676501997">
        <ele>9.6</ele>
        <time>2019-05-03T21:05:13Z</time>
      </trkpt>
      <trkpt lat="51.303230949142" lon="4.565916727251">
        <ele>9</ele>
        <time>2019-05-03T21:05:21Z</time>
      </trkpt>
      <trkpt lat="51.303342260774" lon="4.566172961934">
        <ele>8.8</ele>
        <time>2019-05-03T21:05:29Z</time>
      </trkpt>
      <trkpt lat="51.303425073946" lon="4.566435818318">
        <ele>9.2</ele>
        <time>2019-05-03T21:05:37Z</time>
      </trkpt>
      <trkpt lat="51.303549042247" lon="4.566673193726">
        <ele>12</ele>
        <time>2019-05-03T21:05:45Z</time>
      </trkpt>
      <trkpt lat="51.303670076883" lon="4.566910401496">
        <ele>11.2</ele>
        <time>2019-05-03T21:05:53Z</time>
      </trkpt>
      <trkpt lat="51.30377845485" lon="4.567160768849">
        <ele>9</ele>
        <time>2019-05-03T21:06:01Z</time>
      </trkpt>
      <trkpt lat="51.303902004056" lon="4.567409124546">
        <ele>9.6</ele>
        <time>2019-05-03T21:06:09Z</time>
      </trkpt>
      <trkpt lat="51.304005185245" lon="4.567654295121">
        <ele>10.6</ele>
        <time>2019-05-03T21:06:17Z</time>
      </trkpt>
      <trkpt lat="51.304040389225" lon="4.56787901386">
        <ele>11</ele>
        <time>2019-05-03T21:06:24Z</time>
      </trkpt>
      <trkpt lat="51.30390334516" lon="4.568053944113">
        <ele>9.4</ele>
        <time>2019-05-03T21:06:32Z</time>
      </trkpt>
      <trkpt lat="51.303747022725" lon="4.56824614108">
        <ele>14.2</ele>
        <time>2019-05-03T21:06:41Z</time>
      </trkpt>
      <trkpt lat="51.303592795765" lon="4.568450575621">
        <ele>20.6</ele>
        <time>2019-05-03T21:06:49Z</time>
      </trkpt>
      <trkpt lat="51.30341803315" lon="4.568606814237">
        <ele>23</ele>
        <time>2019-05-03T21:06:58Z</time>
      </trkpt>
      <trkpt lat="51.303249054046" lon="4.568752491659">
        <ele>22.6</ele>
        <time>2019-05-03T21:07:06Z</time>
      </trkpt>
      <trkpt lat="51.303078817657" lon="4.56889573833">
        <ele>20.8</ele>
        <time>2019-05-03T21:07:13Z</time>
      </trkpt>
      <trkpt lat="51.302881004817" lon="4.568991040533">
        <ele>14.6</ele>
        <time>2019-05-03T21:07:21Z</time>
      </trkpt>
      <trkpt lat="51.302700374872" lon="4.56910360945">
        <ele>9.6</ele>
        <time>2019-05-03T21:07:30Z</time>
      </trkpt>
      <trkpt lat="51.302526953361" lon="4.569270660717">
        <ele>10.4</ele>
        <time>2019-05-03T21:07:39Z</time>
      </trkpt>
      <trkpt lat="51.302368032537" lon="4.569463695874">
        <ele>16.4</ele>
        <time>2019-05-03T21:07:47Z</time>
      </trkpt>
      <trkpt lat="51.302190587714" lon="4.56958808327">
        <ele>16.2</ele>
        <time>2019-05-03T21:07:55Z</time>
      </trkpt>
      <trkpt lat="51.302014232538" lon="4.569734263606">
        <ele>14.6</ele>
        <time>2019-05-03T21:08:04Z</time>
      </trkpt>
      <trkpt lat="51.301856233723" lon="4.569887903833">
        <ele>14.2</ele>
        <time>2019-05-03T21:08:12Z</time>
      </trkpt>
      <trkpt lat="51.301694211596" lon="4.570058224041">
        <ele>14.6</ele>
        <time>2019-05-03T21:08:20Z</time>
      </trkpt>
      <trkpt lat="51.30153545841" lon="4.570200045789">
        <ele>15.4</ele>
        <time>2019-05-03T21:08:27Z</time>
      </trkpt>
      <trkpt lat="51.301364635288" lon="4.570344633564">
        <ele>16.4</ele>
        <time>2019-05-03T21:08:35Z</time>
      </trkpt>
      <trkpt lat="51.301185011171" lon="4.570480839439">
        <ele>17.2</ele>
        <time>2019-05-03T21:08:44Z</time>
      </trkpt>
      <trkpt lat="51.3010082369" lon="4.570608914871">
        <ele>14.8</ele>
        <time>2019-05-03T21:08:53Z</time>
      </trkpt>
      <trkpt lat="51.300747140715" lon="4.570817037448">
        <ele>7.8</ele>
        <time>2019-05-03T21:09:06Z</time>
      </trkpt>
      <trkpt lat="51.300581514371" lon="4.570988195846">
        <ele>9.8</ele>
        <time>2019-05-03T21:09:14Z</time>
      </trkpt>
      <trkpt lat="51.30041396019" lon="4.57112616192">
        <ele>11.6</ele>
        <time>2019-05-03T21:09:21Z</time>
      </trkpt>
      <trkpt lat="51.300250764597" lon="4.571287764952">
        <ele>13.2</ele>
        <time>2019-05-03T21:09:29Z</time>
      </trkpt>
      <trkpt lat="51.300081701674" lon="4.571420282791">
        <ele>11.4</ele>
        <time>2019-05-03T21:09:37Z</time>
      </trkpt>
      <trkpt lat="51.299905933231" lon="4.571565457299">
        <ele>11.2</ele>
        <time>2019-05-03T21:09:45Z</time>
      </trkpt>
      <trkpt lat="51.299731505892" lon="4.571688419772">
        <ele>10.6</ele>
        <time>2019-05-03T21:09:53Z</time>
      </trkpt>
      <trkpt lat="51.29956068277" lon="4.571793696436">
        <ele>9.4</ele>
        <time>2019-05-03T21:10:01Z</time>
      </trkpt>
      <trkpt lat="51.299393296227" lon="4.571906097715">
        <ele>8.4</ele>
        <time>2019-05-03T21:10:09Z</time>
      </trkpt>
      <trkpt lat="51.299224400942" lon="4.572011206741">
        <ele>7.4</ele>
        <time>2019-05-03T21:10:17Z</time>
      </trkpt>
      <trkpt lat="51.299043184264" lon="4.572154872507">
        <ele>6.6</ele>
        <time>2019-05-03T21:10:26Z</time>
      </trkpt>
      <trkpt lat="51.298883509069" lon="4.572330138036">
        <ele>6.8</ele>
        <time>2019-05-03T21:10:34Z</time>
      </trkpt>
      <trkpt lat="51.298706399522" lon="4.572434660329">
        <ele>4</ele>
        <time>2019-05-03T21:10:42Z</time>
      </trkpt>
      <trkpt lat="51.298535827857" lon="4.572563154856">
        <ele>0.2</ele>
        <time>2019-05-03T21:10:50Z</time>
      </trkpt>
      <trkpt lat="51.298371877893" lon="4.572720315481">
        <ele>2.2</ele>
        <time>2019-05-03T21:10:57Z</time>
      </trkpt>
      <trkpt lat="51.298201054771" lon="4.572907399489">
        <ele>4.6</ele>
        <time>2019-05-03T21:11:05Z</time>
      </trkpt>
      <trkpt lat="51.298031237477" lon="4.573075372765">
        <ele>7.6</ele>
        <time>2019-05-03T21:11:13Z</time>
      </trkpt>
      <trkpt lat="51.297859408527" lon="4.57321996054">
        <ele>8.6</ele>
        <time>2019-05-03T21:11:21Z</time>
      </trkpt>
      <trkpt lat="51.297700906798" lon="4.573363710125">
        <ele>10.4</ele>
        <time>2019-05-03T21:11:28Z</time>
      </trkpt>
      <trkpt lat="51.297536537739" lon="4.5735502074">
        <ele>14.2</ele>
        <time>2019-05-03T21:11:36Z</time>
      </trkpt>
      <trkpt lat="51.297355153423" lon="4.573699740496">
        <ele>14.2</ele>
        <time>2019-05-03T21:11:44Z</time>
      </trkpt>
      <trkpt lat="51.297172930917" lon="4.573832425973">
        <ele>14</ele>
        <time>2019-05-03T21:11:52Z</time>
      </trkpt>
      <trkpt lat="51.29699498318" lon="4.57397349335">
        <ele>13.6</ele>
        <time>2019-05-03T21:12:00Z</time>
      </trkpt>
      <trkpt lat="51.296829440655" lon="4.574116656202">
        <ele>12.2</ele>
        <time>2019-05-03T21:12:08Z</time>
      </trkpt>
      <trkpt lat="51.296651241461" lon="4.574255879561">
        <ele>13.4</ele>
        <time>2019-05-03T21:12:16Z</time>
      </trkpt>
      <trkpt lat="51.296471784982" lon="4.574384541726">
        <ele>12.8</ele>
        <time>2019-05-03T21:12:24Z</time>
      </trkpt>
      <trkpt lat="51.296298028195" lon="4.574500295765">
        <ele>12</ele>
        <time>2019-05-03T21:12:32Z</time>
      </trkpt>
      <trkpt lat="51.296125863969" lon="4.574647146653">
        <ele>12</ele>
        <time>2019-05-03T21:12:41Z</time>
      </trkpt>
      <trkpt lat="51.295948167689" lon="4.574823753286">
        <ele>14.6</ele>
        <time>2019-05-03T21:12:49Z</time>
      </trkpt>
      <trkpt lat="51.295767956839" lon="4.574969849803">
        <ele>15.4</ele>
        <time>2019-05-03T21:12:57Z</time>
      </trkpt>
      <trkpt lat="51.295585063781" lon="4.57508828605">
        <ele>14</ele>
        <time>2019-05-03T21:13:05Z</time>
      </trkpt>
      <trkpt lat="51.295416587591" lon="4.575190293773">
        <ele>10.8</ele>
        <time>2019-05-03T21:13:13Z</time>
      </trkpt>
      <trkpt lat="51.295241741157" lon="4.575306886002">
        <ele>9.6</ele>
        <time>2019-05-03T21:13:21Z</time>
      </trkpt>
      <trkpt lat="51.295087765654" lon="4.575461448238">
        <ele>10.2</ele>
        <time>2019-05-03T21:13:28Z</time>
      </trkpt>
      <trkpt lat="51.294916942532" lon="4.57555767245">
        <ele>10</ele>
        <time>2019-05-03T21:13:35Z</time>
      </trkpt>
      <trkpt lat="51.294733965655" lon="4.575695470886">
        <ele>9</ele>
        <time>2019-05-03T21:13:43Z</time>
      </trkpt>
      <trkpt lat="51.29455752666" lon="4.575841735041">
        <ele>11.6</ele>
        <time>2019-05-03T21:13:51Z</time>
      </trkpt>
      <trkpt lat="51.294375807068" lon="4.575971486853">
        <ele>13.8</ele>
        <time>2019-05-03T21:13:59Z</time>
      </trkpt>
      <trkpt lat="51.2941937522" lon="4.576086151245">
        <ele>15.4</ele>
        <time>2019-05-03T21:14:07Z</time>
      </trkpt>
      <trkpt lat="51.294012535522" lon="4.576194026298">
        <ele>15.6</ele>
        <time>2019-05-03T21:14:15Z</time>
      </trkpt>
      <trkpt lat="51.293840538934" lon="4.576293267994">
        <ele>15</ele>
        <time>2019-05-03T21:14:23Z</time>
      </trkpt>
      <trkpt lat="51.293652868193" lon="4.576383121962">
        <ele>14</ele>
        <time>2019-05-03T21:14:31Z</time>
      </trkpt>
      <trkpt lat="51.293473244076" lon="4.576523602606">
        <ele>15.8</ele>
        <time>2019-05-03T21:14:39Z</time>
      </trkpt>
      <trkpt lat="51.293282388213" lon="4.576634662781">
        <ele>17.4</ele>
        <time>2019-05-03T21:14:47Z</time>
      </trkpt>
      <trkpt lat="51.293092789635" lon="4.57672108017">
        <ele>17</ele>
        <time>2019-05-03T21:14:55Z</time>
      </trkpt>
      <trkpt lat="51.292895898804" lon="4.576705657474">
        <ele>18</ele>
        <time>2019-05-03T21:15:03Z</time>
      </trkpt>
      <trkpt lat="51.292617200629" lon="4.576887460885">
        <ele>17.2</ele>
        <time>2019-05-03T21:15:15Z</time>
      </trkpt>
      <trkpt lat="51.292446293688" lon="4.577046549347">
        <ele>14.8</ele>
        <time>2019-05-03T21:15:24Z</time>
      </trkpt>
      <trkpt lat="51.29230950108" lon="4.577275375217">
        <ele>12.2</ele>
        <time>2019-05-03T21:15:32Z</time>
      </trkpt>
      <trkpt lat="51.292233896342" lon="4.577567400613">
        <ele>11.4</ele>
        <time>2019-05-03T21:15:40Z</time>
      </trkpt>
      <trkpt lat="51.292223754243" lon="4.577854564507">
        <ele>12.4</ele>
        <time>2019-05-03T21:15:47Z</time>
      </trkpt>
      <trkpt lat="51.292265579924" lon="4.578150948491">
        <ele>13.2</ele>
        <time>2019-05-03T21:15:55Z</time>
      </trkpt>
      <trkpt lat="51.292307154148" lon="4.578457977488">
        <ele>16.8</ele>
        <time>2019-05-03T21:16:03Z</time>
      </trkpt>
      <trkpt lat="51.292326935432" lon="4.578765257942">
        <ele>18.2</ele>
        <time>2019-05-03T21:16:11Z</time>
      </trkpt>
      <trkpt lat="51.292331964572" lon="4.579090727119">
        <ele>18.2</ele>
        <time>2019-05-03T21:16:19Z</time>
      </trkpt>
      <trkpt lat="51.292325678147" lon="4.579406557111">
        <ele>17.6</ele>
        <time>2019-05-03T21:16:27Z</time>
      </trkpt>
      <trkpt lat="51.29228435538" lon="4.579692379901">
        <ele>15.8</ele>
        <time>2019-05-03T21:16:34Z</time>
      </trkpt>
      <trkpt lat="51.292288713968" lon="4.57999253574">
        <ele>14.4</ele>
        <time>2019-05-03T21:16:42Z</time>
      </trkpt>
      <trkpt lat="51.292314194944" lon="4.580297553081">
        <ele>14.4</ele>
        <time>2019-05-03T21:16:50Z</time>
      </trkpt>
      <trkpt lat="51.292362726145" lon="4.580579771654">
        <ele>15.4</ele>
        <time>2019-05-03T21:16:58Z</time>
      </trkpt>
      <trkpt lat="51.292398600677" lon="4.580887303565">
        <ele>14.8</ele>
        <time>2019-05-03T21:17:06Z</time>
      </trkpt>
      <trkpt lat="51.292440174901" lon="4.581187207947">
        <ele>15</ele>
        <time>2019-05-03T21:17:14Z</time>
      </trkpt>
      <trkpt lat="51.292502452418" lon="4.581462888638">
        <ele>15.4</ele>
        <time>2019-05-03T21:17:22Z</time>
      </trkpt>
      <trkpt lat="51.292567244505" lon="4.581742508822">
        <ele>16</ele>
        <time>2019-05-03T21:17:30Z</time>
      </trkpt>
      <trkpt lat="51.292571183998" lon="4.581821550139">
        <ele>16</ele>
        <time>2019-05-03T21:17:32Z</time>
      </trkpt>
      <trkpt lat="51.292615021335" lon="4.582131848077">
        <ele>17.2</ele>
        <time>2019-05-03T21:17:40Z</time>
      </trkpt>
      <trkpt lat="51.292656092645" lon="4.582418844333">
        <ele>19.4</ele>
        <time>2019-05-03T21:17:48Z</time>
      </trkpt>
      <trkpt lat="51.292702025457" lon="4.582708187521">
        <ele>20.4</ele>
        <time>2019-05-03T21:17:56Z</time>
      </trkpt>
      <trkpt lat="51.292753909418" lon="4.583004739143">
        <ele>21.2</ele>
        <time>2019-05-03T21:18:04Z</time>
      </trkpt>
      <trkpt lat="51.292796740927" lon="4.583303302421">
        <ele>22.8</ele>
        <time>2019-05-03T21:18:12Z</time>
      </trkpt>
      <trkpt lat="51.29283336983" lon="4.583603122984">
        <ele>23.6</ele>
        <time>2019-05-03T21:18:20Z</time>
      </trkpt>
      <trkpt lat="51.292894138605" lon="4.583905458117">
        <ele>22.4</ele>
        <time>2019-05-03T21:18:28Z</time>
      </trkpt>
      <trkpt lat="51.292938730313" lon="4.584199327531">
        <ele>21.8</ele>
        <time>2019-05-03T21:18:36Z</time>
      </trkpt>
      <trkpt lat="51.292959852701" lon="4.58449110147">
        <ele>19.8</ele>
        <time>2019-05-03T21:18:44Z</time>
      </trkpt>
      <trkpt lat="51.292976113587" lon="4.5847819534">
        <ele>16.8</ele>
        <time>2019-05-03T21:18:52Z</time>
      </trkpt>
      <trkpt lat="51.293019950924" lon="4.585084204714">
        <ele>13.8</ele>
        <time>2019-05-03T21:19:00Z</time>
      </trkpt>
      <trkpt lat="51.29305716656" lon="4.585383690001">
        <ele>13.6</ele>
        <time>2019-05-03T21:19:08Z</time>
      </trkpt>
      <trkpt lat="51.2931041052" lon="4.585698178889">
        <ele>15.6</ele>
        <time>2019-05-03T21:19:16Z</time>
      </trkpt>
      <trkpt lat="51.293162527043" lon="4.586002944773">
        <ele>19.8</ele>
        <time>2019-05-03T21:19:24Z</time>
      </trkpt>
      <trkpt lat="51.293235365754" lon="4.586265382062">
        <ele>21.6</ele>
        <time>2019-05-03T21:19:31Z</time>
      </trkpt>
      <trkpt lat="51.293340307142" lon="4.586506361687">
        <ele>20.4</ele>
        <time>2019-05-03T21:19:39Z</time>
      </trkpt>
      <trkpt lat="51.293452959878" lon="4.586732589168">
        <ele>19.8</ele>
        <time>2019-05-03T21:19:47Z</time>
      </trkpt>
      <trkpt lat="51.293563768596" lon="4.586987315109">
        <ele>19</ele>
        <time>2019-05-03T21:19:56Z</time>
      </trkpt>
      <trkpt lat="51.29370257286" lon="4.587203987224">
        <ele>18</ele>
        <time>2019-05-03T21:20:04Z</time>
      </trkpt>
      <trkpt lat="51.293848585558" lon="4.587386545006">
        <ele>16</ele>
        <time>2019-05-03T21:20:13Z</time>
      </trkpt>
      <trkpt lat="51.294060312352" lon="4.587616125247">
        <ele>17.6</ele>
        <time>2019-05-03T21:20:25Z</time>
      </trkpt>
      <trkpt lat="51.294227028343" lon="4.587792983337">
        <ele>21.6</ele>
        <time>2019-05-03T21:20:34Z</time>
      </trkpt>
      <trkpt lat="51.294399192569" lon="4.587981827544">
        <ele>23.6</ele>
        <time>2019-05-03T21:20:42Z</time>
      </trkpt>
      <trkpt lat="51.294540092308" lon="4.588196990917">
        <ele>22.6</ele>
        <time>2019-05-03T21:20:49Z</time>
      </trkpt>
      <trkpt lat="51.294656181623" lon="4.588417351068">
        <ele>21</ele>
        <time>2019-05-03T21:20:56Z</time>
      </trkpt>
      <trkpt lat="51.294764811047" lon="4.588673585751">
        <ele>21.4</ele>
        <time>2019-05-03T21:21:04Z</time>
      </trkpt>
      <trkpt lat="51.294930102115" lon="4.588836613706">
        <ele>23.2</ele>
        <time>2019-05-03T21:21:13Z</time>
      </trkpt>
      <trkpt lat="51.295098326848" lon="4.588980111834">
        <ele>22.4</ele>
        <time>2019-05-03T21:21:21Z</time>
      </trkpt>
      <trkpt lat="51.295347856011" lon="4.589187899135">
        <ele>22.6</ele>
        <time>2019-05-03T21:21:33Z</time>
      </trkpt>
      <trkpt lat="51.295520271694" lon="4.589325613752">
        <ele>21.8</ele>
        <time>2019-05-03T21:21:42Z</time>
      </trkpt>
      <trkpt lat="51.295682796735" lon="4.589450001148">
        <ele>23.2</ele>
        <time>2019-05-03T21:21:50Z</time>
      </trkpt>
      <trkpt lat="51.295718252172" lon="4.589429884588">
        <ele>21.4</ele>
        <time>2019-05-03T21:21:53Z</time>
      </trkpt>
      <trkpt lat="51.295534353286" lon="4.589318992051">
        <ele>19.4</ele>
        <time>2019-05-03T21:22:04Z</time>
      </trkpt>
      <trkpt lat="51.295338552102" lon="4.589232993757">
        <ele>19.4</ele>
        <time>2019-05-03T21:22:13Z</time>
      </trkpt>
      <trkpt lat="51.295159179442" lon="4.589143558884">
        <ele>21.6</ele>
        <time>2019-05-03T21:22:21Z</time>
      </trkpt>
      <trkpt lat="51.294994894202" lon="4.589018333298">
        <ele>24.6</ele>
        <time>2019-05-03T21:22:30Z</time>
      </trkpt>
      <trkpt lat="51.294834213179" lon="4.588867123822">
        <ele>28</ele>
        <time>2019-05-03T21:22:38Z</time>
      </trkpt>
      <trkpt lat="51.294730948171" lon="4.588626563292">
        <ele>25.6</ele>
        <time>2019-05-03T21:22:45Z</time>
      </trkpt>
      <trkpt lat="51.294629611" lon="4.588371418256">
        <ele>21</ele>
        <time>2019-05-03T21:22:52Z</time>
      </trkpt>
      <trkpt lat="51.294483430664" lon="4.588165223516">
        <ele>20.6</ele>
        <time>2019-05-03T21:22:59Z</time>
      </trkpt>
      <trkpt lat="51.294324342202" lon="4.588003201389">
        <ele>17.4</ele>
        <time>2019-05-03T21:23:06Z</time>
      </trkpt>
      <trkpt lat="51.294159721686" lon="4.587823325815">
        <ele>15.6</ele>
        <time>2019-05-03T21:23:15Z</time>
      </trkpt>
      <trkpt lat="51.293986803089" lon="4.587651664503">
        <ele>16.2</ele>
        <time>2019-05-03T21:23:24Z</time>
      </trkpt>
      <trkpt lat="51.293824194229" lon="4.587502047588">
        <ele>17.2</ele>
        <time>2019-05-03T21:23:32Z</time>
      </trkpt>
      <trkpt lat="51.293676672789" lon="4.58733591833">
        <ele>19.8</ele>
        <time>2019-05-03T21:23:40Z</time>
      </trkpt>
      <trkpt lat="51.293534851041" lon="4.587108517383">
        <ele>21.2</ele>
        <time>2019-05-03T21:23:49Z</time>
      </trkpt>
      <trkpt lat="51.293388586886" lon="4.586906848869">
        <ele>23</ele>
        <time>2019-05-03T21:23:58Z</time>
      </trkpt>
      <trkpt lat="51.293261852558" lon="4.586673999687">
        <ele>21.2</ele>
        <time>2019-05-03T21:24:05Z</time>
      </trkpt>
      <trkpt lat="51.293166382717" lon="4.586406281801">
        <ele>18</ele>
        <time>2019-05-03T21:24:13Z</time>
      </trkpt>
      <trkpt lat="51.293092705816" lon="4.586117357708">
        <ele>16.2</ele>
        <time>2019-05-03T21:24:21Z</time>
      </trkpt>
      <trkpt lat="51.293057501836" lon="4.585832540746">
        <ele>13.8</ele>
        <time>2019-05-03T21:24:28Z</time>
      </trkpt>
      <trkpt lat="51.292996062509" lon="4.585529451242">
        <ele>13.4</ele>
        <time>2019-05-03T21:24:35Z</time>
      </trkpt>
      <trkpt lat="51.292953063362" lon="4.585247651764">
        <ele>12</ele>
        <time>2019-05-03T21:24:42Z</time>
      </trkpt>
      <trkpt lat="51.292931354241" lon="4.584933581971">
        <ele>13.6</ele>
        <time>2019-05-03T21:24:50Z</time>
      </trkpt>
      <trkpt lat="51.292917356468" lon="4.584628480811">
        <ele>12.2</ele>
        <time>2019-05-03T21:24:58Z</time>
      </trkpt>
      <trkpt lat="51.292850468906" lon="4.584335114311">
        <ele>9</ele>
        <time>2019-05-03T21:25:07Z</time>
      </trkpt>
      <trkpt lat="51.29279481309" lon="4.584034036463">
        <ele>8.6</ele>
        <time>2019-05-03T21:25:15Z</time>
      </trkpt>
      <trkpt lat="51.292717783429" lon="4.583758607229">
        <ele>8.8</ele>
        <time>2019-05-03T21:25:22Z</time>
      </trkpt>
      <trkpt lat="51.292694397928" lon="4.583461301236">
        <ele>12.6</ele>
        <time>2019-05-03T21:25:29Z</time>
      </trkpt>
      <trkpt lat="51.29269003934" lon="4.583146057977">
        <ele>13.2</ele>
        <time>2019-05-03T21:25:37Z</time>
      </trkpt>
      <trkpt lat="51.29262717509" lon="4.582851518011">
        <ele>10.6</ele>
        <time>2019-05-03T21:25:45Z</time>
      </trkpt>
      <trkpt lat="51.292583002477" lon="4.582568377429">
        <ele>9</ele>
        <time>2019-05-03T21:25:53Z</time>
      </trkpt>
      <trkpt lat="51.292525083548" lon="4.582283979562">
        <ele>8</ele>
        <time>2019-05-03T21:26:01Z</time>
      </trkpt>
      <trkpt lat="51.292471439388" lon="4.581968820122">
        <ele>8.2</ele>
        <time>2019-05-03T21:26:09Z</time>
      </trkpt>
      <trkpt lat="51.292434307571" lon="4.581671095034">
        <ele>8.8</ele>
        <time>2019-05-03T21:26:17Z</time>
      </trkpt>
      <trkpt lat="51.292369264027" lon="4.581362222019">
        <ele>8.4</ele>
        <time>2019-05-03T21:26:25Z</time>
      </trkpt>
      <trkpt lat="51.292380076678" lon="4.581043877457">
        <ele>9.2</ele>
        <time>2019-05-03T21:26:33Z</time>
      </trkpt>
      <trkpt lat="51.29233632316" lon="4.580739782125">
        <ele>9.8</ele>
        <time>2019-05-03T21:26:41Z</time>
      </trkpt>
      <trkpt lat="51.292293072556" lon="4.580429651825">
        <ele>10.6</ele>
        <time>2019-05-03T21:26:49Z</time>
      </trkpt>
      <trkpt lat="51.292255102549" lon="4.580125305036">
        <ele>11.4</ele>
        <time>2019-05-03T21:26:57Z</time>
      </trkpt>
      <trkpt lat="51.292239344577" lon="4.579813246899">
        <ele>12.4</ele>
        <time>2019-05-03T21:27:05Z</time>
      </trkpt>
      <trkpt lat="51.292269519417" lon="4.579520215675">
        <ele>12.8</ele>
        <time>2019-05-03T21:27:13Z</time>
      </trkpt>
      <trkpt lat="51.29228854633" lon="4.579233219419">
        <ele>11.2</ele>
        <time>2019-05-03T21:27:21Z</time>
      </trkpt>
      <trkpt lat="51.29227932624" lon="4.578919987816">
        <ele>10.8</ele>
        <time>2019-05-03T21:27:29Z</time>
      </trkpt>
      <trkpt lat="51.292261808069" lon="4.578599380141">
        <ele>12.2</ele>
        <time>2019-05-03T21:27:37Z</time>
      </trkpt>
      <trkpt lat="51.292228951021" lon="4.578179866046">
        <ele>11.6</ele>
        <time>2019-05-03T21:27:48Z</time>
      </trkpt>
      <trkpt lat="51.29220808009" lon="4.577884655528">
        <ele>10.4</ele>
        <time>2019-05-03T21:27:56Z</time>
      </trkpt>
      <trkpt lat="51.292213863601" lon="4.577586511345">
        <ele>10.4</ele>
        <time>2019-05-03T21:28:04Z</time>
      </trkpt>
      <trkpt lat="51.292291647633" lon="4.577315273061">
        <ele>12.6</ele>
        <time>2019-05-03T21:28:11Z</time>
      </trkpt>
      <trkpt lat="51.292416873219" lon="4.577083848802">
        <ele>14</ele>
        <time>2019-05-03T21:28:19Z</time>
      </trkpt>
      <trkpt lat="51.292559365519" lon="4.5768694398">
        <ele>14</ele>
        <time>2019-05-03T21:28:28Z</time>
      </trkpt>
      <trkpt lat="51.292736391247" lon="4.576739101255">
        <ele>11.6</ele>
        <time>2019-05-03T21:28:37Z</time>
      </trkpt>
      <trkpt lat="51.292917524106" lon="4.576599458801">
        <ele>12.8</ele>
        <time>2019-05-03T21:28:46Z</time>
      </trkpt>
      <trkpt lat="51.293118186792" lon="4.576552855437">
        <ele>15</ele>
        <time>2019-05-03T21:28:54Z</time>
      </trkpt>
      <trkpt lat="51.293310048483" lon="4.57652410552">
        <ele>14.4</ele>
        <time>2019-05-03T21:29:02Z</time>
      </trkpt>
      <trkpt lat="51.293494450283" lon="4.576392090595">
        <ele>13.8</ele>
        <time>2019-05-03T21:29:11Z</time>
      </trkpt>
      <trkpt lat="51.293679019721" lon="4.576289915234">
        <ele>12.4</ele>
        <time>2019-05-03T21:29:19Z</time>
      </trkpt>
      <trkpt lat="51.293857805648" lon="4.576174328833">
        <ele>14.2</ele>
        <time>2019-05-03T21:29:27Z</time>
      </trkpt>
      <trkpt lat="51.294048493873" lon="4.576082044114">
        <ele>16.6</ele>
        <time>2019-05-03T21:29:35Z</time>
      </trkpt>
      <trkpt lat="51.294238008632" lon="4.575980036391">
        <ele>18.8</ele>
        <time>2019-05-03T21:29:43Z</time>
      </trkpt>
      <trkpt lat="51.294416291645" lon="4.575871909881">
        <ele>17.2</ele>
        <time>2019-05-03T21:29:51Z</time>
      </trkpt>
      <trkpt lat="51.29459273064" lon="4.57576973452">
        <ele>18.2</ele>
        <time>2019-05-03T21:29:59Z</time>
      </trkpt>
      <trkpt lat="51.294767828531" lon="4.575626906944">
        <ele>19</ele>
        <time>2019-05-03T21:30:07Z</time>
      </trkpt>
      <trkpt lat="51.294942172051" lon="4.575480139875">
        <ele>21.2</ele>
        <time>2019-05-03T21:30:15Z</time>
      </trkpt>
      <trkpt lat="51.295123640186" lon="4.575330355322">
        <ele>23</ele>
        <time>2019-05-03T21:30:24Z</time>
      </trkpt>
      <trkpt lat="51.295295301498" lon="4.575238908793">
        <ele>23.4</ele>
        <time>2019-05-03T21:30:32Z</time>
      </trkpt>
      <trkpt lat="51.29547702109" lon="4.575145366789">
        <ele>22.4</ele>
        <time>2019-05-03T21:30:41Z</time>
      </trkpt>
      <trkpt lat="51.29564885004" lon="4.574987535612">
        <ele>22</ele>
        <time>2019-05-03T21:30:49Z</time>
      </trkpt>
      <trkpt lat="51.295819756981" lon="4.574847557882">
        <ele>21</ele>
        <time>2019-05-03T21:30:57Z</time>
      </trkpt>
      <trkpt lat="51.295982784936" lon="4.574696432225">
        <ele>18.6</ele>
        <time>2019-05-03T21:31:05Z</time>
      </trkpt>
      <trkpt lat="51.296159056293" lon="4.57454932988">
        <ele>20</ele>
        <time>2019-05-03T21:31:14Z</time>
      </trkpt>
      <trkpt lat="51.296324095904" lon="4.574428379063">
        <ele>21.2</ele>
        <time>2019-05-03T21:31:21Z</time>
      </trkpt>
      <trkpt lat="51.296489638429" lon="4.574282953098">
        <ele>19.2</ele>
        <time>2019-05-03T21:31:29Z</time>
      </trkpt>
      <trkpt lat="51.296655432411" lon="4.574140544617">
        <ele>16.8</ele>
        <time>2019-05-03T21:31:37Z</time>
      </trkpt>
      <trkpt lat="51.296824327696" lon="4.574023281836">
        <ele>16.8</ele>
        <time>2019-05-03T21:31:44Z</time>
      </trkpt>
      <trkpt lat="51.296989786402" lon="4.573896212232">
        <ele>17.4</ele>
        <time>2019-05-03T21:31:52Z</time>
      </trkpt>
      <trkpt lat="51.297168907605" lon="4.573788337179">
        <ele>20.8</ele>
        <time>2019-05-03T21:32:01Z</time>
      </trkpt>
      <trkpt lat="51.297342915849" lon="4.573697309745">
        <ele>22.6</ele>
        <time>2019-05-03T21:32:11Z</time>
      </trkpt>
      <trkpt lat="51.297533604074" lon="4.573594128556">
        <ele>23</ele>
        <time>2019-05-03T21:32:20Z</time>
      </trkpt>
      <trkpt lat="51.297708953422" lon="4.573465466391">
        <ele>25.6</ele>
        <time>2019-05-03T21:32:29Z</time>
      </trkpt>
      <trkpt lat="51.297878770716" lon="4.573337055683">
        <ele>26.6</ele>
        <time>2019-05-03T21:32:37Z</time>
      </trkpt>
      <trkpt lat="51.298044480879" lon="4.573199173428">
        <ele>18.4</ele>
        <time>2019-05-03T21:32:44Z</time>
      </trkpt>
      <trkpt lat="51.298210023404" lon="4.573049724151">
        <ele>12.2</ele>
        <time>2019-05-03T21:32:50Z</time>
      </trkpt>
      <trkpt lat="51.298368692771" lon="4.572899436684">
        <ele>12.2</ele>
        <time>2019-05-03T21:32:58Z</time>
      </trkpt>
      <trkpt lat="51.298538007151" lon="4.572752501977">
        <ele>14.2</ele>
        <time>2019-05-03T21:33:06Z</time>
      </trkpt>
      <trkpt lat="51.298608834206" lon="4.572695840333">
        <ele>18</ele>
        <time>2019-05-03T21:33:09Z</time>
      </trkpt>
      <trkpt lat="51.298700783649" lon="4.572670778452">
        <ele>21.8</ele>
        <time>2019-05-03T21:33:50Z</time>
      </trkpt>
      <trkpt lat="51.298684438944" lon="4.572643621096">
        <ele>19.8</ele>
        <time>2019-05-03T21:33:52Z</time>
      </trkpt>
      <trkpt lat="51.298829613452" lon="4.572442204039">
        <ele>11.6</ele>
        <time>2019-05-03T21:33:59Z</time>
      </trkpt>
      <trkpt lat="51.298996748538" lon="4.572328880751">
        <ele>16.8</ele>
        <time>2019-05-03T21:34:06Z</time>
      </trkpt>
      <trkpt lat="51.299175534465" lon="4.57222167625">
        <ele>21</ele>
        <time>2019-05-03T21:34:15Z</time>
      </trkpt>
      <trkpt lat="51.299353063107" lon="4.572057055734">
        <ele>25</ele>
        <time>2019-05-03T21:34:23Z</time>
      </trkpt>
      <trkpt lat="51.29952715517" lon="4.571907187362">
        <ele>27.2</ele>
        <time>2019-05-03T21:34:31Z</time>
      </trkpt>
      <trkpt lat="51.299692697695" lon="4.571762515768">
        <ele>27.2</ele>
        <time>2019-05-03T21:34:38Z</time>
      </trkpt>
      <trkpt lat="51.299925714515" lon="4.57154609511">
        <ele>23.4</ele>
        <time>2019-05-03T21:34:48Z</time>
      </trkpt>
      <trkpt lat="51.30007952238" lon="4.571377786558">
        <ele>23.6</ele>
        <time>2019-05-03T21:34:55Z</time>
      </trkpt>
      <trkpt lat="51.300252692434" lon="4.571229007833">
        <ele>22.2</ele>
        <time>2019-05-03T21:35:03Z</time>
      </trkpt>
      <trkpt lat="51.300430472533" lon="4.571089700655">
        <ele>22.4</ele>
        <time>2019-05-03T21:35:11Z</time>
      </trkpt>
      <trkpt lat="51.300607079166" lon="4.570932959125">
        <ele>20.2</ele>
        <time>2019-05-03T21:35:19Z</time>
      </trkpt>
      <trkpt lat="51.300773124605" lon="4.570770936998">
        <ele>18.6</ele>
        <time>2019-05-03T21:35:27Z</time>
      </trkpt>
      <trkpt lat="51.300941516976" lon="4.570667001438">
        <ele>17.8</ele>
        <time>2019-05-03T21:35:35Z</time>
      </trkpt>
      <trkpt lat="51.30108283581" lon="4.570460136146">
        <ele>10.6</ele>
        <time>2019-05-03T21:35:42Z</time>
      </trkpt>
      <trkpt lat="51.301237817141" lon="4.570287888101">
        <ele>8.4</ele>
        <time>2019-05-03T21:35:49Z</time>
      </trkpt>
      <trkpt lat="51.301401850924" lon="4.57013374496">
        <ele>8.4</ele>
        <time>2019-05-03T21:35:57Z</time>
      </trkpt>
      <trkpt lat="51.301574685702" lon="4.570009022288">
        <ele>7.8</ele>
        <time>2019-05-03T21:36:05Z</time>
      </trkpt>
      <trkpt lat="51.301764116642" lon="4.569917827216">
        <ele>7.6</ele>
        <time>2019-05-03T21:36:14Z</time>
      </trkpt>
      <trkpt lat="51.301930664995" lon="4.569793858915">
        <ele>12.6</ele>
        <time>2019-05-03T21:36:21Z</time>
      </trkpt>
      <trkpt lat="51.302083383213" lon="4.569608618925">
        <ele>15.6</ele>
        <time>2019-05-03T21:36:30Z</time>
      </trkpt>
      <trkpt lat="51.302237191078" lon="4.569441735296">
        <ele>17.2</ele>
        <time>2019-05-03T21:36:38Z</time>
      </trkpt>
      <trkpt lat="51.302407930381" lon="4.569311815846">
        <ele>18</ele>
        <time>2019-05-03T21:36:46Z</time>
      </trkpt>
      <trkpt lat="51.302564504273" lon="4.569149374624">
        <ele>23</ele>
        <time>2019-05-03T21:36:55Z</time>
      </trkpt>
      <trkpt lat="51.302743876933" lon="4.569038985001">
        <ele>25</ele>
        <time>2019-05-03T21:37:03Z</time>
      </trkpt>
      <trkpt lat="51.302918555729" lon="4.568933959794">
        <ele>24</ele>
        <time>2019-05-03T21:37:11Z</time>
      </trkpt>
      <trkpt lat="51.303087199557" lon="4.568761125016">
        <ele>22</ele>
        <time>2019-05-03T21:37:19Z</time>
      </trkpt>
      <trkpt lat="51.303256011023" lon="4.568634977421">
        <ele>20.8</ele>
        <time>2019-05-03T21:37:27Z</time>
      </trkpt>
      <trkpt lat="51.303431947104" lon="4.568519810115">
        <ele>21.2</ele>
        <time>2019-05-03T21:37:34Z</time>
      </trkpt>
      <trkpt lat="51.303593717774" lon="4.568386202629">
        <ele>24.2</ele>
        <time>2019-05-03T21:37:42Z</time>
      </trkpt>
      <trkpt lat="51.303788596949" lon="4.568278914309">
        <ele>25.8</ele>
        <time>2019-05-03T21:37:50Z</time>
      </trkpt>
      <trkpt lat="51.303947098678" lon="4.568130638498">
        <ele>25</ele>
        <time>2019-05-03T21:37:56Z</time>
      </trkpt>
      <trkpt lat="51.304019183018" lon="4.567867111562">
        <ele>24.6</ele>
        <time>2019-05-03T21:38:06Z</time>
      </trkpt>
      <trkpt lat="51.303925557195" lon="4.567580702039">
        <ele>21</ele>
        <time>2019-05-03T21:38:13Z</time>
      </trkpt>
      <trkpt lat="51.303804606378" lon="4.567338465129">
        <ele>18</ele>
        <time>2019-05-03T21:38:20Z</time>
      </trkpt>
      <trkpt lat="51.303697066601" lon="4.567103352834">
        <ele>18.6</ele>
        <time>2019-05-03T21:38:27Z</time>
      </trkpt>
      <trkpt lat="51.303584330046" lon="4.566831192541">
        <ele>19.6</ele>
        <time>2019-05-03T21:38:35Z</time>
      </trkpt>
      <trkpt lat="51.303494140802" lon="4.566566492139">
        <ele>21.4</ele>
        <time>2019-05-03T21:38:43Z</time>
      </trkpt>
      <trkpt lat="51.303385427559" lon="4.566336073708">
        <ele>19.8</ele>
        <time>2019-05-03T21:38:50Z</time>
      </trkpt>
      <trkpt lat="51.303272942461" lon="4.566075648075">
        <ele>15.4</ele>
        <time>2019-05-03T21:38:57Z</time>
      </trkpt>
      <trkpt lat="51.303156182594" lon="4.565819832487">
        <ele>12.8</ele>
        <time>2019-05-03T21:39:05Z</time>
      </trkpt>
      <trkpt lat="51.3030450386" lon="4.565548258927">
        <ele>12.4</ele>
        <time>2019-05-03T21:39:13Z</time>
      </trkpt>
      <trkpt lat="51.30292182467" lon="4.565299232678">
        <ele>11.6</ele>
        <time>2019-05-03T21:39:21Z</time>
      </trkpt>
      <trkpt lat="51.302812105599" lon="4.565039058502">
        <ele>13.2</ele>
        <time>2019-05-03T21:39:29Z</time>
      </trkpt>
      <trkpt lat="51.302698698492" lon="4.564773436091">
        <ele>13.6</ele>
        <time>2019-05-03T21:39:37Z</time>
      </trkpt>
      <trkpt lat="51.30258151953" lon="4.564511585535">
        <ele>13.8</ele>
        <time>2019-05-03T21:39:45Z</time>
      </trkpt>
      <trkpt lat="51.302452941184" lon="4.564256775775">
        <ele>13.8</ele>
        <time>2019-05-03T21:39:53Z</time>
      </trkpt>
      <trkpt lat="51.302338695887" lon="4.564002552748">
        <ele>14</ele>
        <time>2019-05-03T21:40:01Z</time>
      </trkpt>
      <trkpt lat="51.302218667079" lon="4.563750592834">
        <ele>13.2</ele>
        <time>2019-05-03T21:40:09Z</time>
      </trkpt>
      <trkpt lat="51.302099811737" lon="4.56350198568">
        <ele>13.2</ele>
        <time>2019-05-03T21:40:17Z</time>
      </trkpt>
      <trkpt lat="51.301985650259" lon="4.563268549765">
        <ele>13.6</ele>
        <time>2019-05-03T21:40:25Z</time>
      </trkpt>
      <trkpt lat="51.301863106881" lon="4.563011393073">
        <ele>14.2</ele>
        <time>2019-05-03T21:40:33Z</time>
      </trkpt>
      <trkpt lat="51.301750705602" lon="4.56275012925">
        <ele>14.2</ele>
        <time>2019-05-03T21:40:41Z</time>
      </trkpt>
      <trkpt lat="51.30160670456" lon="4.562418792743">
        <ele>14.2</ele>
        <time>2019-05-03T21:40:52Z</time>
      </trkpt>
      <trkpt lat="51.301479215861" lon="4.562164904992">
        <ele>10.6</ele>
        <time>2019-05-03T21:41:00Z</time>
      </trkpt>
      <trkpt lat="51.301372430455" lon="4.561931888172">
        <ele>11</ele>
        <time>2019-05-03T21:41:07Z</time>
      </trkpt>
      <trkpt lat="51.301255754407" lon="4.561664337924">
        <ele>11</ele>
        <time>2019-05-03T21:41:15Z</time>
      </trkpt>
      <trkpt lat="51.301151483571" lon="4.561402655006">
        <ele>12</ele>
        <time>2019-05-03T21:41:23Z</time>
      </trkpt>
      <trkpt lat="51.301031790039" lon="4.561145665952">
        <ele>12.4</ele>
        <time>2019-05-03T21:41:31Z</time>
      </trkpt>
      <trkpt lat="51.300908576109" lon="4.560905943612">
        <ele>10.6</ele>
        <time>2019-05-03T21:41:39Z</time>
      </trkpt>
      <trkpt lat="51.300759881203" lon="4.560729001703">
        <ele>10</ele>
        <time>2019-05-03T21:41:47Z</time>
      </trkpt>
      <trkpt lat="51.300659968955" lon="4.560462122007">
        <ele>12.4</ele>
        <time>2019-05-03T21:41:56Z</time>
      </trkpt>
      <trkpt lat="51.300590985918" lon="4.56016347491">
        <ele>12.6</ele>
        <time>2019-05-03T21:42:04Z</time>
      </trkpt>
      <trkpt lat="51.300475567155" lon="4.559911347358">
        <ele>13.4</ele>
        <time>2019-05-03T21:42:12Z</time>
      </trkpt>
      <trkpt lat="51.300342378764" lon="4.55966726643">
        <ele>13</ele>
        <time>2019-05-03T21:42:20Z</time>
      </trkpt>
      <trkpt lat="51.30022117649" lon="4.559403320399">
        <ele>13</ele>
        <time>2019-05-03T21:42:28Z</time>
      </trkpt>
      <trkpt lat="51.300113804351" lon="4.559170722674">
        <ele>12.6</ele>
        <time>2019-05-03T21:42:35Z</time>
      </trkpt>
      <trkpt lat="51.299995451923" lon="4.558933095809">
        <ele>11.4</ele>
        <time>2019-05-03T21:42:43Z</time>
      </trkpt>
      <trkpt lat="51.29988841506" lon="4.558686835587">
        <ele>10.6</ele>
        <time>2019-05-03T21:42:50Z</time>
      </trkpt>
      <trkpt lat="51.299777187247" lon="4.558422219004">
        <ele>10.4</ele>
        <time>2019-05-03T21:42:58Z</time>
      </trkpt>
      <trkpt lat="51.299664031597" lon="4.558172438384">
        <ele>10.4</ele>
        <time>2019-05-03T21:43:06Z</time>
      </trkpt>
      <trkpt lat="51.299549870119" lon="4.557930033836">
        <ele>10.2</ele>
        <time>2019-05-03T21:43:14Z</time>
      </trkpt>
      <trkpt lat="51.299428667845" lon="4.557684360347">
        <ele>9.8</ele>
        <time>2019-05-03T21:43:22Z</time>
      </trkpt>
      <trkpt lat="51.29935951717" lon="4.557575814742">
        <ele>8.4</ele>
        <time>2019-05-03T21:43:26Z</time>
      </trkpt>
      <trkpt lat="51.299220042354" lon="4.5576329793">
        <ele>8.8</ele>
        <time>2019-05-03T21:43:33Z</time>
      </trkpt>
      <trkpt lat="51.299203362373" lon="4.55758184971">
        <ele>8.8</ele>
        <time>2019-05-03T21:43:35Z</time>
      </trkpt>
      <trkpt lat="51.299236051783" lon="4.557487720973">
        <ele>8</ele>
        <time>2019-05-03T21:43:38Z</time>
      </trkpt>
      <trkpt lat="51.299302687888" lon="4.557357550066">
        <ele>10.6</ele>
        <time>2019-05-03T21:43:43Z</time>
      </trkpt>
      <trkpt lat="51.299172433162" lon="4.557124365608">
        <ele>10.8</ele>
        <time>2019-05-03T21:43:51Z</time>
      </trkpt>
      <trkpt lat="51.29904603411" lon="4.55690459219">
        <ele>9.4</ele>
        <time>2019-05-03T21:43:58Z</time>
      </trkpt>
      <trkpt lat="51.298923993646" lon="4.556680711641">
        <ele>9</ele>
        <time>2019-05-03T21:44:05Z</time>
      </trkpt>
      <trkpt lat="51.298795582938" lon="4.556436295437">
        <ele>7.4</ele>
        <time>2019-05-03T21:44:13Z</time>
      </trkpt>
      <trkpt lat="51.298660382891" lon="4.556199925857">
        <ele>6.8</ele>
        <time>2019-05-03T21:44:21Z</time>
      </trkpt>
      <trkpt lat="51.298527529776" lon="4.555949223228">
        <ele>7</ele>
        <time>2019-05-03T21:44:29Z</time>
      </trkpt>
      <trkpt lat="51.298395263394" lon="4.555705226119">
        <ele>7.6</ele>
        <time>2019-05-03T21:44:37Z</time>
      </trkpt>
      <trkpt lat="51.298261991184" lon="4.555472544575">
        <ele>5.6</ele>
        <time>2019-05-03T21:44:45Z</time>
      </trkpt>
      <trkpt lat="51.298140872729" lon="4.555238605746">
        <ele>7.8</ele>
        <time>2019-05-03T21:44:53Z</time>
      </trkpt>
      <trkpt lat="51.29801254584" lon="4.554995111551">
        <ele>6.4</ele>
        <time>2019-05-03T21:45:01Z</time>
      </trkpt>
      <trkpt lat="51.297884218951" lon="4.554741307619">
        <ele>9</ele>
        <time>2019-05-03T21:45:09Z</time>
      </trkpt>
      <trkpt lat="51.297753209854" lon="4.554492197551">
        <ele>8.4</ele>
        <time>2019-05-03T21:45:17Z</time>
      </trkpt>
      <trkpt lat="51.297646089172" lon="4.554246775519">
        <ele>4.6</ele>
        <time>2019-05-03T21:45:25Z</time>
      </trkpt>
      <trkpt lat="51.297519606301" lon="4.554006214989">
        <ele>4.6</ele>
        <time>2019-05-03T21:45:33Z</time>
      </trkpt>
      <trkpt lat="51.297396560009" lon="4.553777808214">
        <ele>5.4</ele>
        <time>2019-05-03T21:45:40Z</time>
      </trkpt>
      <trkpt lat="51.297267646387" lon="4.553534397838">
        <ele>5.6</ele>
        <time>2019-05-03T21:45:48Z</time>
      </trkpt>
      <trkpt lat="51.2971357991" lon="4.553301716294">
        <ele>4.6</ele>
        <time>2019-05-03T21:45:56Z</time>
      </trkpt>
      <trkpt lat="51.297020799432" lon="4.553076913736">
        <ele>4.4</ele>
        <time>2019-05-03T21:46:03Z</time>
      </trkpt>
      <trkpt lat="51.296889035964" lon="4.55284775259">
        <ele>11</ele>
        <time>2019-05-03T21:46:11Z</time>
      </trkpt>
      <trkpt lat="51.296769258613" lon="4.552607862612">
        <ele>13.6</ele>
        <time>2019-05-03T21:46:19Z</time>
      </trkpt>
      <trkpt lat="51.296648307796" lon="4.552388340651">
        <ele>15</ele>
        <time>2019-05-03T21:46:26Z</time>
      </trkpt>
      <trkpt lat="51.296522830753" lon="4.55214534937">
        <ele>14.2</ele>
        <time>2019-05-03T21:46:34Z</time>
      </trkpt>
      <trkpt lat="51.296387211611" lon="4.551923983391">
        <ele>14.8</ele>
        <time>2019-05-03T21:46:42Z</time>
      </trkpt>
      <trkpt lat="51.296160481216" lon="4.551512348282">
        <ele>15.4</ele>
        <time>2019-05-03T21:46:56Z</time>
      </trkpt>
      <trkpt lat="51.296033495431" lon="4.551275811064">
        <ele>14.6</ele>
        <time>2019-05-03T21:47:04Z</time>
      </trkpt>
      <trkpt lat="51.295909024216" lon="4.551034496163">
        <ele>13.6</ele>
        <time>2019-05-03T21:47:12Z</time>
      </trkpt>
      <trkpt lat="51.295798802231" lon="4.550807262854">
        <ele>13</ele>
        <time>2019-05-03T21:47:19Z</time>
      </trkpt>
      <trkpt lat="51.295670223885" lon="4.550583466124">
        <ele>13.6</ele>
        <time>2019-05-03T21:47:27Z</time>
      </trkpt>
      <trkpt lat="51.295549608344" lon="4.550329578373">
        <ele>14.6</ele>
        <time>2019-05-03T21:47:35Z</time>
      </trkpt>
      <trkpt lat="51.295422035826" lon="4.550077618459">
        <ele>15</ele>
        <time>2019-05-03T21:47:43Z</time>
      </trkpt>
      <trkpt lat="51.295301420285" lon="4.549827586382">
        <ele>13.4</ele>
        <time>2019-05-03T21:47:51Z</time>
      </trkpt>
      <trkpt lat="51.295175859423" lon="4.549621056366">
        <ele>10.2</ele>
        <time>2019-05-03T21:47:58Z</time>
      </trkpt>
      <trkpt lat="51.295048873638" lon="4.549366498063">
        <ele>10.4</ele>
        <time>2019-05-03T21:48:06Z</time>
      </trkpt>
      <trkpt lat="51.294929599201" lon="4.549143455704">
        <ele>9.6</ele>
        <time>2019-05-03T21:48:14Z</time>
      </trkpt>
      <trkpt lat="51.294807223461" lon="4.548930974539">
        <ele>11.4</ele>
        <time>2019-05-03T21:48:22Z</time>
      </trkpt>
      <trkpt lat="51.294686188825" lon="4.54869619752">
        <ele>12.2</ele>
        <time>2019-05-03T21:48:30Z</time>
      </trkpt>
      <trkpt lat="51.294564399818" lon="4.548466030546">
        <ele>9.6</ele>
        <time>2019-05-03T21:48:38Z</time>
      </trkpt>
      <trkpt lat="51.294429618866" lon="4.548235863572">
        <ele>10.8</ele>
        <time>2019-05-03T21:48:46Z</time>
      </trkpt>
      <trkpt lat="51.294313278094" lon="4.548017095982">
        <ele>9.6</ele>
        <time>2019-05-03T21:48:53Z</time>
      </trkpt>
      <trkpt lat="51.294175898753" lon="4.54777418852">
        <ele>9.8</ele>
        <time>2019-05-03T21:49:01Z</time>
      </trkpt>
      <trkpt lat="51.294064335664" lon="4.547543434813">
        <ele>9.8</ele>
        <time>2019-05-03T21:49:08Z</time>
      </trkpt>
      <trkpt lat="51.293943552485" lon="4.547295162935">
        <ele>9</ele>
        <time>2019-05-03T21:49:16Z</time>
      </trkpt>
      <trkpt lat="51.293813297759" lon="4.547049573265">
        <ele>8.4</ele>
        <time>2019-05-03T21:49:24Z</time>
      </trkpt>
      <trkpt lat="51.293682372481" lon="4.546824100155">
        <ele>9.8</ele>
        <time>2019-05-03T21:49:32Z</time>
      </trkpt>
      <trkpt lat="51.293562092216" lon="4.546608433868">
        <ele>10</ele>
        <time>2019-05-03T21:49:39Z</time>
      </trkpt>
      <trkpt lat="51.293433849146" lon="4.546395198332">
        <ele>8.4</ele>
        <time>2019-05-03T21:49:46Z</time>
      </trkpt>
      <trkpt lat="51.293313485062" lon="4.546159499304">
        <ele>8.4</ele>
        <time>2019-05-03T21:49:54Z</time>
      </trkpt>
      <trkpt lat="51.293185493449" lon="4.545927153036">
        <ele>8</ele>
        <time>2019-05-03T21:50:02Z</time>
      </trkpt>
      <trkpt lat="51.293059262035" lon="4.545673432923">
        <ele>8.2</ele>
        <time>2019-05-03T21:50:10Z</time>
      </trkpt>
      <trkpt lat="51.292934371725" lon="4.545426334511">
        <ele>7.6</ele>
        <time>2019-05-03T21:50:18Z</time>
      </trkpt>
      <trkpt lat="51.292808391768" lon="4.545197760098">
        <ele>8.2</ele>
        <time>2019-05-03T21:50:26Z</time>
      </trkpt>
      <trkpt lat="51.292694146471" lon="4.544965078554">
        <ele>8.6</ele>
        <time>2019-05-03T21:50:34Z</time>
      </trkpt>
      <trkpt lat="51.292561880089" lon="4.544756620701">
        <ele>7.4</ele>
        <time>2019-05-03T21:50:42Z</time>
      </trkpt>
      <trkpt lat="51.292437827969" lon="4.544523855338">
        <ele>8.4</ele>
        <time>2019-05-03T21:50:50Z</time>
      </trkpt>
      <trkpt lat="51.292325678147" lon="4.544295532382">
        <ele>10.6</ele>
        <time>2019-05-03T21:50:58Z</time>
      </trkpt>
      <trkpt lat="51.292198943819" lon="4.544084559959">
        <ele>10.8</ele>
        <time>2019-05-03T21:51:06Z</time>
      </trkpt>
      <trkpt lat="51.292080926667" lon="4.543858583935">
        <ele>12.6</ele>
        <time>2019-05-03T21:51:14Z</time>
      </trkpt>
      <trkpt lat="51.291940781299" lon="4.54362850078">
        <ele>10.8</ele>
        <time>2019-05-03T21:51:23Z</time>
      </trkpt>
      <trkpt lat="51.291835001721" lon="4.543385341861">
        <ele>9.8</ele>
        <time>2019-05-03T21:51:31Z</time>
      </trkpt>
      <trkpt lat="51.291713045076" lon="4.54317336361">
        <ele>5.8</ele>
        <time>2019-05-03T21:51:37Z</time>
      </trkpt>
      <trkpt lat="51.29159452501" lon="4.54295208145">
        <ele>8.2</ele>
        <time>2019-05-03T21:51:43Z</time>
      </trkpt>
      <trkpt lat="51.291468545053" lon="4.542714706042">
        <ele>9.2</ele>
        <time>2019-05-03T21:51:50Z</time>
      </trkpt>
      <trkpt lat="51.291357484878" lon="4.542487808009">
        <ele>9.4</ele>
        <time>2019-05-03T21:51:57Z</time>
      </trkpt>
      <trkpt lat="51.291248436359" lon="4.542259987967">
        <ele>9.2</ele>
        <time>2019-05-03T21:52:04Z</time>
      </trkpt>
      <trkpt lat="51.291125054791" lon="4.542028563708">
        <ele>7.2</ele>
        <time>2019-05-03T21:52:12Z</time>
      </trkpt>
      <trkpt lat="51.29099689554" lon="4.541779118364">
        <ele>7.2</ele>
        <time>2019-05-03T21:52:21Z</time>
      </trkpt>
      <trkpt lat="51.290886003003" lon="4.541552555607">
        <ele>6.2</ele>
        <time>2019-05-03T21:52:29Z</time>
      </trkpt>
      <trkpt lat="51.290764800729" lon="4.54132683104">
        <ele>6.8</ele>
        <time>2019-05-03T21:52:37Z</time>
      </trkpt>
      <trkpt lat="51.290641251523" lon="4.541099010998">
        <ele>8.8</ele>
        <time>2019-05-03T21:52:45Z</time>
      </trkpt>
      <trkpt lat="51.29051242172" lon="4.540866329454">
        <ele>10.4</ele>
        <time>2019-05-03T21:52:53Z</time>
      </trkpt>
      <trkpt lat="51.29034729829" lon="4.540583859424">
        <ele>11</ele>
        <time>2019-05-03T21:53:03Z</time>
      </trkpt>
      <trkpt lat="51.290228526767" lon="4.540355620287">
        <ele>10.8</ele>
        <time>2019-05-03T21:53:11Z</time>
      </trkpt>
      <trkpt lat="51.290111515443" lon="4.54012738115">
        <ele>10.6</ele>
        <time>2019-05-03T21:53:19Z</time>
      </trkpt>
      <trkpt lat="51.289987547142" lon="4.539911547225">
        <ele>10.4</ele>
        <time>2019-05-03T21:53:26Z</time>
      </trkpt>
      <trkpt lat="51.289867266877" lon="4.539694456015">
        <ele>10.4</ele>
        <time>2019-05-03T21:53:33Z</time>
      </trkpt>
      <trkpt lat="51.289739275264" lon="4.539491111121">
        <ele>10.2</ele>
        <time>2019-05-03T21:53:40Z</time>
      </trkpt>
      <trkpt lat="51.289599465172" lon="4.539257088473">
        <ele>10</ele>
        <time>2019-05-03T21:53:48Z</time>
      </trkpt>
      <trkpt lat="51.289463259297" lon="4.539020299798">
        <ele>10.4</ele>
        <time>2019-05-03T21:53:56Z</time>
      </trkpt>
      <trkpt lat="51.289340045367" lon="4.538807818633">
        <ele>9.4</ele>
        <time>2019-05-03T21:54:03Z</time>
      </trkpt>
      <trkpt lat="51.289225716251" lon="4.538586033559">
        <ele>8</ele>
        <time>2019-05-03T21:54:10Z</time>
      </trkpt>
      <trkpt lat="51.289105771262" lon="4.538352681463">
        <ele>7.2</ele>
        <time>2019-05-03T21:54:18Z</time>
      </trkpt>
      <trkpt lat="51.288984149893" lon="4.538095021857">
        <ele>8.4</ele>
        <time>2019-05-03T21:54:27Z</time>
      </trkpt>
      <trkpt lat="51.28886621656" lon="4.537858903734">
        <ele>7.6</ele>
        <time>2019-05-03T21:54:35Z</time>
      </trkpt>
      <trkpt lat="51.288746103933" lon="4.537617337376">
        <ele>7</ele>
        <time>2019-05-03T21:54:43Z</time>
      </trkpt>
      <trkpt lat="51.288625069297" lon="4.537370155145">
        <ele>5</ele>
        <time>2019-05-03T21:54:51Z</time>
      </trkpt>
      <trkpt lat="51.288482493178" lon="4.537143843845">
        <ele>4.4</ele>
        <time>2019-05-03T21:54:59Z</time>
      </trkpt>
      <trkpt lat="51.288335809928" lon="4.536922729323">
        <ele>4.2</ele>
        <time>2019-05-03T21:55:07Z</time>
      </trkpt>
      <trkpt lat="51.288191138334" lon="4.536710667253">
        <ele>4</ele>
        <time>2019-05-03T21:55:15Z</time>
      </trkpt>
      <trkpt lat="51.288035151175" lon="4.536536910466">
        <ele>4.4</ele>
        <time>2019-05-03T21:55:23Z</time>
      </trkpt>
      <trkpt lat="51.287868016089" lon="4.536370948846">
        <ele>4.2</ele>
        <time>2019-05-03T21:55:31Z</time>
      </trkpt>
      <trkpt lat="51.287694594578" lon="4.536221164293">
        <ele>4.8</ele>
        <time>2019-05-03T21:55:40Z</time>
      </trkpt>
      <trkpt lat="51.287526537483" lon="4.53611077467">
        <ele>5.8</ele>
        <time>2019-05-03T21:55:48Z</time>
      </trkpt>
      <trkpt lat="51.287351858687" lon="4.536027374765">
        <ele>6</ele>
        <time>2019-05-03T21:55:56Z</time>
      </trkpt>
      <trkpt lat="51.287169300905" lon="4.53594565124">
        <ele>7.4</ele>
        <time>2019-05-03T21:56:05Z</time>
      </trkpt>
      <trkpt lat="51.286992610453" lon="4.535860491136">
        <ele>7.4</ele>
        <time>2019-05-03T21:56:14Z</time>
      </trkpt>
      <trkpt lat="51.286804604436" lon="4.535769212245">
        <ele>6.6</ele>
        <time>2019-05-03T21:56:23Z</time>
      </trkpt>
      <trkpt lat="51.286614419125" lon="4.535669383816">
        <ele>6.6</ele>
        <time>2019-05-03T21:56:32Z</time>
      </trkpt>
      <trkpt lat="51.286439069777" lon="4.535584642807">
        <ele>6</ele>
        <time>2019-05-03T21:56:40Z</time>
      </trkpt>
      <trkpt lat="51.286258942746" lon="4.53549386683">
        <ele>6.6</ele>
        <time>2019-05-03T21:56:48Z</time>
      </trkpt>
      <trkpt lat="51.286087449072" lon="4.535386410872">
        <ele>7.2</ele>
        <time>2019-05-03T21:56:56Z</time>
      </trkpt>
      <trkpt lat="51.285910004249" lon="4.535264454227">
        <ele>7.6</ele>
        <time>2019-05-03T21:57:04Z</time>
      </trkpt>
      <trkpt lat="51.285726021544" lon="4.535140905021">
        <ele>8.4</ele>
        <time>2019-05-03T21:57:12Z</time>
      </trkpt>
      <trkpt lat="51.28556626253" lon="4.535006375526">
        <ele>8.4</ele>
        <time>2019-05-03T21:57:19Z</time>
      </trkpt>
      <trkpt lat="51.285407425525" lon="4.534840497725">
        <ele>8.4</ele>
        <time>2019-05-03T21:57:27Z</time>
      </trkpt>
      <trkpt lat="51.285249845805" lon="4.534691383724">
        <ele>11</ele>
        <time>2019-05-03T21:57:35Z</time>
      </trkpt>
      <trkpt lat="51.285089164782" lon="4.534512933073">
        <ele>9.6</ele>
        <time>2019-05-03T21:57:44Z</time>
      </trkpt>
      <trkpt lat="51.28492672356" lon="4.534320149373">
        <ele>8</ele>
        <time>2019-05-03T21:57:53Z</time>
      </trkpt>
      <trkpt lat="51.284775094989" lon="4.534151170269">
        <ele>9</ele>
        <time>2019-05-03T21:58:01Z</time>
      </trkpt>
      <trkpt lat="51.284618102002" lon="4.533949585574">
        <ele>9</ele>
        <time>2019-05-03T21:58:10Z</time>
      </trkpt>
      <trkpt lat="51.284463120671" lon="4.533796029166">
        <ele>9.8</ele>
        <time>2019-05-03T21:58:18Z</time>
      </trkpt>
      <trkpt lat="51.28430897753" lon="4.533633336487">
        <ele>11</ele>
        <time>2019-05-03T21:58:28Z</time>
      </trkpt>
      <trkpt lat="51.284143435005" lon="4.533438122036">
        <ele>13.4</ele>
        <time>2019-05-03T21:58:37Z</time>
      </trkpt>
      <trkpt lat="51.283991974072" lon="4.533243913413">
        <ele>16.2</ele>
        <time>2019-05-03T21:58:46Z</time>
      </trkpt>
      <trkpt lat="51.283837830931" lon="4.533072755015">
        <ele>15.2</ele>
        <time>2019-05-03T21:58:54Z</time>
      </trkpt>
      <trkpt lat="51.283685028894" lon="4.532889107586">
        <ele>14.8</ele>
        <time>2019-05-03T21:59:02Z</time>
      </trkpt>
      <trkpt lat="51.283553349245" lon="4.532668579797">
        <ele>11.6</ele>
        <time>2019-05-03T21:59:10Z</time>
      </trkpt>
      <trkpt lat="51.283429632401" lon="4.532458697021">
        <ele>10</ele>
        <time>2019-05-03T21:59:17Z</time>
      </trkpt>
      <trkpt lat="51.283285044626" lon="4.532197852293">
        <ele>10.4</ele>
        <time>2019-05-03T21:59:26Z</time>
      </trkpt>
      <trkpt lat="51.283167698026" lon="4.531947401121">
        <ele>9.2</ele>
        <time>2019-05-03T21:59:34Z</time>
      </trkpt>
      <trkpt lat="51.283042891535" lon="4.531720586907">
        <ele>9</ele>
        <time>2019-05-03T21:59:42Z</time>
      </trkpt>
      <trkpt lat="51.282935100301" lon="4.531489162648">
        <ele>10.2</ele>
        <time>2019-05-03T21:59:50Z</time>
      </trkpt>
      <trkpt lat="51.282827728162" lon="4.531240555494">
        <ele>9.4</ele>
        <time>2019-05-03T21:59:59Z</time>
      </trkpt>
      <trkpt lat="51.282728821742" lon="4.530987589752">
        <ele>14.4</ele>
        <time>2019-05-03T22:00:09Z</time>
      </trkpt>
      <trkpt lat="51.282617258653" lon="4.530728002309">
        <ele>17.8</ele>
        <time>2019-05-03T22:00:17Z</time>
      </trkpt>
      <trkpt lat="51.282505444107" lon="4.530476964404">
        <ele>18.2</ele>
        <time>2019-05-03T22:00:25Z</time>
      </trkpt>
      <trkpt lat="51.282392288457" lon="4.530227016146">
        <ele>14</ele>
        <time>2019-05-03T22:00:33Z</time>
      </trkpt>
      <trkpt lat="51.282243761189" lon="4.530021408139">
        <ele>11.8</ele>
        <time>2019-05-03T22:00:40Z</time>
      </trkpt>
      <trkpt lat="51.282097077939" lon="4.529814039933">
        <ele>11.4</ele>
        <time>2019-05-03T22:00:48Z</time>
      </trkpt>
      <trkpt lat="51.281935810183" lon="4.529633745264">
        <ele>11</ele>
        <time>2019-05-03T22:00:56Z</time>
      </trkpt>
      <trkpt lat="51.28177596735" lon="4.529493013163">
        <ele>11.2</ele>
        <time>2019-05-03T22:01:04Z</time>
      </trkpt>
      <trkpt lat="51.281613693766" lon="4.529320932756">
        <ele>9.4</ele>
        <time>2019-05-03T22:01:13Z</time>
      </trkpt>
      <trkpt lat="51.281434321106" lon="4.529168717452">
        <ele>8.4</ele>
        <time>2019-05-03T22:01:22Z</time>
      </trkpt>
      <trkpt lat="51.281270119685" lon="4.529029577912">
        <ele>8.4</ele>
        <time>2019-05-03T22:01:30Z</time>
      </trkpt>
      <trkpt lat="51.281098458373" lon="4.528895048417">
        <ele>7.4</ele>
        <time>2019-05-03T22:01:38Z</time>
      </trkpt>
      <trkpt lat="51.280946326888" lon="4.528737301059">
        <ele>6.8</ele>
        <time>2019-05-03T22:01:46Z</time>
      </trkpt>
      <trkpt lat="51.280775839042" lon="4.528580727167">
        <ele>7.6</ele>
        <time>2019-05-03T22:01:55Z</time>
      </trkpt>
      <trkpt lat="51.280612056716" lon="4.528413843538">
        <ele>7.8</ele>
        <time>2019-05-03T22:02:04Z</time>
      </trkpt>
      <trkpt lat="51.280448022933" lon="4.528289791418">
        <ele>8.6</ele>
        <time>2019-05-03T22:02:12Z</time>
      </trkpt>
      <trkpt lat="51.280272003033" lon="4.528141683245">
        <ele>9.4</ele>
        <time>2019-05-03T22:02:21Z</time>
      </trkpt>
      <trkpt lat="51.280100844635" lon="4.52798955176">
        <ele>7</ele>
        <time>2019-05-03T22:02:29Z</time>
      </trkpt>
      <trkpt lat="51.279929853875" lon="4.527834821886">
        <ele>6</ele>
        <time>2019-05-03T22:02:38Z</time>
      </trkpt>
      <trkpt lat="51.279757019097" lon="4.527677325985">
        <ele>6.2</ele>
        <time>2019-05-03T22:02:46Z</time>
      </trkpt>
      <trkpt lat="51.279585609242" lon="4.527523937215">
        <ele>5.8</ele>
        <time>2019-05-03T22:02:54Z</time>
      </trkpt>
      <trkpt lat="51.279411265722" lon="4.527380690544">
        <ele>8</ele>
        <time>2019-05-03T22:03:01Z</time>
      </trkpt>
      <trkpt lat="51.279245807016" lon="4.52723937171">
        <ele>9.2</ele>
        <time>2019-05-03T22:03:09Z</time>
      </trkpt>
      <trkpt lat="51.279077079369" lon="4.527091263537">
        <ele>10</ele>
        <time>2019-05-03T22:03:17Z</time>
      </trkpt>
      <trkpt lat="51.278909441369" lon="4.526956817861">
        <ele>10.4</ele>
        <time>2019-05-03T22:03:25Z</time>
      </trkpt>
      <trkpt lat="51.278735936039" lon="4.52680518929">
        <ele>8.8</ele>
        <time>2019-05-03T22:03:33Z</time>
      </trkpt>
      <trkpt lat="51.278560083777" lon="4.526665965931">
        <ele>8.6</ele>
        <time>2019-05-03T22:03:41Z</time>
      </trkpt>
      <trkpt lat="51.278391188492" lon="4.52653948306">
        <ele>8.4</ele>
        <time>2019-05-03T22:03:49Z</time>
      </trkpt>
      <trkpt lat="51.278216761153" lon="4.526447449798">
        <ele>7.8</ele>
        <time>2019-05-03T22:03:57Z</time>
      </trkpt>
      <trkpt lat="51.278094050137" lon="4.526227927837">
        <ele>6.2</ele>
        <time>2019-05-03T22:04:05Z</time>
      </trkpt>
      <trkpt lat="51.277934961675" lon="4.526074790524">
        <ele>6.4</ele>
        <time>2019-05-03T22:04:13Z</time>
      </trkpt>
      <trkpt lat="51.277763468001" lon="4.525935483346">
        <ele>6.8</ele>
        <time>2019-05-03T22:04:21Z</time>
      </trkpt>
      <trkpt lat="51.277601110598" lon="4.525795757073">
        <ele>7.8</ele>
        <time>2019-05-03T22:04:29Z</time>
      </trkpt>
      <trkpt lat="51.277438669376" lon="4.52566273632">
        <ele>9.8</ele>
        <time>2019-05-03T22:04:37Z</time>
      </trkpt>
      <trkpt lat="51.277267678616" lon="4.525554525991">
        <ele>9.6</ele>
        <time>2019-05-03T22:04:45Z</time>
      </trkpt>
      <trkpt lat="51.27709719077" lon="4.525434161907">
        <ele>9</ele>
        <time>2019-05-03T22:04:53Z</time>
      </trkpt>
      <trkpt lat="51.276950172244" lon="4.525244395691">
        <ele>10.6</ele>
        <time>2019-05-03T22:05:01Z</time>
      </trkpt>
      <trkpt lat="51.276786138461" lon="4.525093102396">
        <ele>9.8</ele>
        <time>2019-05-03T22:05:09Z</time>
      </trkpt>
      <trkpt lat="51.276626630904" lon="4.524953962856">
        <ele>10.2</ele>
        <time>2019-05-03T22:05:17Z</time>
      </trkpt>
      <trkpt lat="51.276448180253" lon="4.524809039805">
        <ele>10.2</ele>
        <time>2019-05-03T22:05:25Z</time>
      </trkpt>
      <trkpt lat="51.276280542253" lon="4.524683395124">
        <ele>9.8</ele>
        <time>2019-05-03T22:05:33Z</time>
      </trkpt>
      <trkpt lat="51.27595222323" lon="4.524388519882">
        <ele>8.6</ele>
        <time>2019-05-03T22:05:49Z</time>
      </trkpt>
      <trkpt lat="51.27578626161" lon="4.52426882635">
        <ele>8.2</ele>
        <time>2019-05-03T22:05:57Z</time>
      </trkpt>
      <trkpt lat="51.275620048533" lon="4.524129519172">
        <ele>7</ele>
        <time>2019-05-03T22:06:05Z</time>
      </trkpt>
      <trkpt lat="51.275452745809" lon="4.523974370203">
        <ele>6.6</ele>
        <time>2019-05-03T22:06:13Z</time>
      </trkpt>
      <trkpt lat="51.275296674831" lon="4.523784939263">
        <ele>7.6</ele>
        <time>2019-05-03T22:06:21Z</time>
      </trkpt>
      <trkpt lat="51.27512995884" lon="4.523654516899">
        <ele>7.4</ele>
        <time>2019-05-03T22:06:29Z</time>
      </trkpt>
      <trkpt lat="51.274951927284" lon="4.523547228579">
        <ele>7.8</ele>
        <time>2019-05-03T22:06:37Z</time>
      </trkpt>
      <trkpt lat="51.274791665356" lon="4.523386296099">
        <ele>5.8</ele>
        <time>2019-05-03T22:06:45Z</time>
      </trkpt>
      <trkpt lat="51.274625452279" lon="4.523206169068">
        <ele>6.6</ele>
        <time>2019-05-03T22:06:54Z</time>
      </trkpt>
      <trkpt lat="51.274467369645" lon="4.523024198019">
        <ele>5.2</ele>
        <time>2019-05-03T22:07:02Z</time>
      </trkpt>
      <trkpt lat="51.274318507101" lon="4.52282378679">
        <ele>4</ele>
        <time>2019-05-03T22:07:10Z</time>
      </trkpt>
      <trkpt lat="51.27416520215" lon="4.522635361678">
        <ele>6.8</ele>
        <time>2019-05-03T22:07:18Z</time>
      </trkpt>
      <trkpt lat="51.274002090376" lon="4.522444421996">
        <ele>7.6</ele>
        <time>2019-05-03T22:07:27Z</time>
      </trkpt>
      <trkpt lat="51.273840403525" lon="4.522251805934">
        <ele>8.6</ele>
        <time>2019-05-03T22:07:35Z</time>
      </trkpt>
      <trkpt lat="51.273797488197" lon="4.522143092691">
        <ele>8</ele>
        <time>2019-05-03T22:07:40Z</time>
      </trkpt>
      <trkpt lat="51.273767145719" lon="4.522137979732">
        <ele>7.8</ele>
        <time>2019-05-03T22:07:42Z</time>
      </trkpt>
      <trkpt lat="51.273622138849" lon="4.521941927091">
        <ele>7.8</ele>
        <time>2019-05-03T22:07:50Z</time>
      </trkpt>
      <trkpt lat="51.273482496395" lon="4.521755848911">
        <ele>4.4</ele>
        <time>2019-05-03T22:07:58Z</time>
      </trkpt>
      <trkpt lat="51.273332125109" lon="4.521565076867">
        <ele>0.8</ele>
        <time>2019-05-03T22:08:07Z</time>
      </trkpt>
      <trkpt lat="51.273181921461" lon="4.521360055593">
        <ele>3.4</ele>
        <time>2019-05-03T22:08:15Z</time>
      </trkpt>
      <trkpt lat="51.273039848256" lon="4.521169115911">
        <ele>0</ele>
        <time>2019-05-03T22:08:23Z</time>
      </trkpt>
      <trkpt lat="51.272895092843" lon="4.520972979451">
        <ele>1.8</ele>
        <time>2019-05-03T22:08:31Z</time>
      </trkpt>
      <trkpt lat="51.272758803149" lon="4.520784135244">
        <ele>4.8</ele>
        <time>2019-05-03T22:08:38Z</time>
      </trkpt>
      <trkpt lat="51.272606420207" lon="4.520591016268">
        <ele>7.4</ele>
        <time>2019-05-03T22:08:46Z</time>
      </trkpt>
      <trkpt lat="51.272450935962" lon="4.520398567844">
        <ele>9</ele>
        <time>2019-05-03T22:08:54Z</time>
      </trkpt>
      <trkpt lat="51.272289835844" lon="4.520209136904">
        <ele>10.6</ele>
        <time>2019-05-03T22:09:02Z</time>
      </trkpt>
      <trkpt lat="51.272149522838" lon="4.52001585029">
        <ele>9.8</ele>
        <time>2019-05-03T22:09:10Z</time>
      </trkpt>
      <trkpt lat="51.271991859299" lon="4.519804542591">
        <ele>8.2</ele>
        <time>2019-05-03T22:09:19Z</time>
      </trkpt>
      <trkpt lat="51.271857413623" lon="4.519595581824">
        <ele>8.2</ele>
        <time>2019-05-03T22:09:27Z</time>
      </trkpt>
      <trkpt lat="51.271716346246" lon="4.51941486806">
        <ele>7.8</ele>
        <time>2019-05-03T22:09:34Z</time>
      </trkpt>
      <trkpt lat="51.271560191449" lon="4.519214708288">
        <ele>6.8</ele>
        <time>2019-05-03T22:09:42Z</time>
      </trkpt>
      <trkpt lat="51.271403030824" lon="4.519008010634">
        <ele>6</ele>
        <time>2019-05-03T22:09:51Z</time>
      </trkpt>
      <trkpt lat="51.271267830777" lon="4.518817741504">
        <ele>6.4</ele>
        <time>2019-05-03T22:09:59Z</time>
      </trkpt>
      <trkpt lat="51.271121063708" lon="4.518642308337">
        <ele>9.2</ele>
        <time>2019-05-03T22:10:07Z</time>
      </trkpt>
      <trkpt lat="51.270972955535" lon="4.518453631768">
        <ele>8</ele>
        <time>2019-05-03T22:10:15Z</time>
      </trkpt>
      <trkpt lat="51.270831469063" lon="4.518264536104">
        <ele>8</ele>
        <time>2019-05-03T22:10:23Z</time>
      </trkpt>
      <trkpt lat="51.270683193252" lon="4.518069070196">
        <ele>7.6</ele>
        <time>2019-05-03T22:10:31Z</time>
      </trkpt>
      <trkpt lat="51.27053332488" lon="4.517889529898">
        <ele>5.4</ele>
        <time>2019-05-03T22:10:40Z</time>
      </trkpt>
      <trkpt lat="51.2703975381" lon="4.517676210543">
        <ele>5.4</ele>
        <time>2019-05-03T22:10:48Z</time>
      </trkpt>
      <trkpt lat="51.270249513746" lon="4.51747781097">
        <ele>5</ele>
        <time>2019-05-03T22:10:56Z</time>
      </trkpt>
      <trkpt lat="51.27008656961" lon="4.517297683939">
        <ele>8.8</ele>
        <time>2019-05-03T22:11:04Z</time>
      </trkpt>
      <trkpt lat="51.26993569541" lon="4.517104564963">
        <ele>10</ele>
        <time>2019-05-03T22:11:12Z</time>
      </trkpt>
      <trkpt lat="51.269788844522" lon="4.516913625281">
        <ele>9.4</ele>
        <time>2019-05-03T22:11:20Z</time>
      </trkpt>
      <trkpt lat="51.269644424385" lon="4.516721679771">
        <ele>8.6</ele>
        <time>2019-05-03T22:11:28Z</time>
      </trkpt>
      <trkpt lat="51.269500004248" lon="4.51654155274">
        <ele>7.4</ele>
        <time>2019-05-03T22:11:36Z</time>
      </trkpt>
      <trkpt lat="51.269360361794" lon="4.516337956389">
        <ele>5.8</ele>
        <time>2019-05-03T22:11:44Z</time>
      </trkpt>
      <trkpt lat="51.269220216426" lon="4.516115584582">
        <ele>8</ele>
        <time>2019-05-03T22:11:53Z</time>
      </trkpt>
      <trkpt lat="51.269071437701" lon="4.515939480863">
        <ele>9.2</ele>
        <time>2019-05-03T22:12:01Z</time>
      </trkpt>
      <trkpt lat="51.268864907685" lon="4.515672014434">
        <ele>8.4</ele>
        <time>2019-05-03T22:12:12Z</time>
      </trkpt>
      <trkpt lat="51.268712273286" lon="4.515462886029">
        <ele>7.4</ele>
        <time>2019-05-03T22:12:20Z</time>
      </trkpt>
      <trkpt lat="51.268551676082" lon="4.515258116212">
        <ele>7.2</ele>
        <time>2019-05-03T22:12:28Z</time>
      </trkpt>
      <trkpt lat="51.268403400271" lon="4.515075642249">
        <ele>7.8</ele>
        <time>2019-05-03T22:12:36Z</time>
      </trkpt>
      <trkpt lat="51.268250179139" lon="4.514907333697">
        <ele>8</ele>
        <time>2019-05-03T22:12:44Z</time>
      </trkpt>
      <trkpt lat="51.268107686839" lon="4.514712789798">
        <ele>7.4</ele>
        <time>2019-05-03T22:12:52Z</time>
      </trkpt>
      <trkpt lat="51.267963182883" lon="4.514500224814">
        <ele>8.8</ele>
        <time>2019-05-03T22:13:00Z</time>
      </trkpt>
      <trkpt lat="51.267815326167" lon="4.514310207141">
        <ele>8.4</ele>
        <time>2019-05-03T22:13:08Z</time>
      </trkpt>
      <trkpt lat="51.267665373976" lon="4.51410241984">
        <ele>7.6</ele>
        <time>2019-05-03T22:13:17Z</time>
      </trkpt>
      <trkpt lat="51.267519528916" lon="4.513908211217">
        <ele>7.8</ele>
        <time>2019-05-03T22:13:25Z</time>
      </trkpt>
      <trkpt lat="51.267377790987" lon="4.513726491625">
        <ele>9.2</ele>
        <time>2019-05-03T22:13:33Z</time>
      </trkpt>
      <trkpt lat="51.267207051684" lon="4.513574946873">
        <ele>8.4</ele>
        <time>2019-05-03T22:13:42Z</time>
      </trkpt>
      <trkpt lat="51.267107893807" lon="4.513317790181">
        <ele>9.6</ele>
        <time>2019-05-03T22:13:50Z</time>
      </trkpt>
      <trkpt lat="51.266967832258" lon="4.513127269594">
        <ele>8.6</ele>
        <time>2019-05-03T22:13:58Z</time>
      </trkpt>
      <trkpt lat="51.266821568103" lon="4.512930881677">
        <ele>8.6</ele>
        <time>2019-05-03T22:14:06Z</time>
      </trkpt>
      <trkpt lat="51.266669604256" lon="4.512743546212">
        <ele>9.6</ele>
        <time>2019-05-03T22:14:14Z</time>
      </trkpt>
      <trkpt lat="51.266518562418" lon="4.512561742801">
        <ele>9.6</ele>
        <time>2019-05-03T22:14:22Z</time>
      </trkpt>
      <trkpt lat="51.266373639367" lon="4.512383543607">
        <ele>8.6</ele>
        <time>2019-05-03T22:14:30Z</time>
      </trkpt>
      <trkpt lat="51.266239361329" lon="4.512168547872">
        <ele>7.2</ele>
        <time>2019-05-03T22:14:38Z</time>
      </trkpt>
      <trkpt lat="51.26610097616" lon="4.511981212407">
        <ele>7</ele>
        <time>2019-05-03T22:14:46Z</time>
      </trkpt>
      <trkpt lat="51.265947922666" lon="4.511781136454">
        <ele>6.4</ele>
        <time>2019-05-03T22:14:55Z</time>
      </trkpt>
      <trkpt lat="51.265804927452" lon="4.511603188717">
        <ele>5.2</ele>
        <time>2019-05-03T22:15:03Z</time>
      </trkpt>
      <trkpt lat="51.265648018284" lon="4.511410656474">
        <ele>6.6</ele>
        <time>2019-05-03T22:15:12Z</time>
      </trkpt>
      <trkpt lat="51.265503849604" lon="4.511237654058">
        <ele>7.4</ele>
        <time>2019-05-03T22:15:20Z</time>
      </trkpt>
      <trkpt lat="51.265348616816" lon="4.511047971661">
        <ele>6.4</ele>
        <time>2019-05-03T22:15:29Z</time>
      </trkpt>
      <trkpt lat="51.265214506416" lon="4.51085443359">
        <ele>6.4</ele>
        <time>2019-05-03T22:15:37Z</time>
      </trkpt>
      <trkpt lat="51.265081066568" lon="4.510639102579">
        <ele>5.6</ele>
        <time>2019-05-03T22:15:45Z</time>
      </trkpt>
      <trkpt lat="51.264946453254" lon="4.51042863307">
        <ele>9.2</ele>
        <time>2019-05-03T22:15:53Z</time>
      </trkpt>
      <trkpt lat="51.264810415017" lon="4.510195951526">
        <ele>11.8</ele>
        <time>2019-05-03T22:16:02Z</time>
      </trkpt>
      <trkpt lat="51.26468778782" lon="4.50996679038">
        <ele>11.4</ele>
        <time>2019-05-03T22:16:10Z</time>
      </trkpt>
      <trkpt lat="51.264556778723" lon="4.509749447713">
        <ele>10.4</ele>
        <time>2019-05-03T22:16:18Z</time>
      </trkpt>
      <trkpt lat="51.264426021083" lon="4.509506372613">
        <ele>9.2</ele>
        <time>2019-05-03T22:16:26Z</time>
      </trkpt>
      <trkpt lat="51.264300711678" lon="4.50929120924">
        <ele>9.4</ele>
        <time>2019-05-03T22:16:33Z</time>
      </trkpt>
      <trkpt lat="51.264172636246" lon="4.509060539352">
        <ele>9.6</ele>
        <time>2019-05-03T22:16:41Z</time>
      </trkpt>
      <trkpt lat="51.264041208054" lon="4.508824756505">
        <ele>9.6</ele>
        <time>2019-05-03T22:16:49Z</time>
      </trkpt>
      <trkpt lat="51.263879856479" lon="4.508680923101">
        <ele>7.8</ele>
        <time>2019-05-03T22:16:58Z</time>
      </trkpt>
      <trkpt lat="51.263706015873" lon="4.508815368777">
        <ele>7</ele>
        <time>2019-05-03T22:17:07Z</time>
      </trkpt>
      <trkpt lat="51.263517171666" lon="4.508892649895">
        <ele>7.8</ele>
        <time>2019-05-03T22:17:16Z</time>
      </trkpt>
      <trkpt lat="51.263329333287" lon="4.508942773657">
        <ele>8.4</ele>
        <time>2019-05-03T22:17:24Z</time>
      </trkpt>
      <trkpt lat="51.263144847668" lon="4.508982671501">
        <ele>9.6</ele>
        <time>2019-05-03T22:17:32Z</time>
      </trkpt>
      <trkpt lat="51.262960194411" lon="4.508894242456">
        <ele>8</ele>
        <time>2019-05-03T22:17:40Z</time>
      </trkpt>
      <trkpt lat="51.262799429569" lon="4.50874303298">
        <ele>5.4</ele>
        <time>2019-05-03T22:17:48Z</time>
      </trkpt>
      <trkpt lat="51.262639838193" lon="4.508607916752">
        <ele>2.8</ele>
        <time>2019-05-03T22:17:57Z</time>
      </trkpt>
      <trkpt lat="51.262467338691" lon="4.508483361718">
        <ele>2.6</ele>
        <time>2019-05-03T22:18:06Z</time>
      </trkpt>
      <trkpt lat="51.262295342103" lon="4.508349502775">
        <ele>1.4</ele>
        <time>2019-05-03T22:18:16Z</time>
      </trkpt>
      <trkpt lat="51.262107671362" lon="4.508238191143">
        <ele>3.6</ele>
        <time>2019-05-03T22:18:25Z</time>
      </trkpt>
      <trkpt lat="51.261763762005" lon="4.508006850703">
        <ele>1.2</ele>
        <time>2019-05-03T22:18:41Z</time>
      </trkpt>
      <trkpt lat="51.261573660513" lon="4.507898724193">
        <ele>0.8</ele>
        <time>2019-05-03T22:18:49Z</time>
      </trkpt>
      <trkpt lat="51.261404346133" lon="4.507787747837">
        <ele>0</ele>
        <time>2019-05-03T22:18:57Z</time>
      </trkpt>
      <trkpt lat="51.261236456676" lon="4.507682471173">
        <ele>0</ele>
        <time>2019-05-03T22:19:05Z</time>
      </trkpt>
      <trkpt lat="51.261066555563" lon="4.50757208155">
        <ele>1.4</ele>
        <time>2019-05-03T22:19:13Z</time>
      </trkpt>
      <trkpt lat="51.260885506523" lon="4.507441826824">
        <ele>1.6</ele>
        <time>2019-05-03T22:19:22Z</time>
      </trkpt>
      <trkpt lat="51.260703954569" lon="4.507309057528">
        <ele>3</ele>
        <time>2019-05-03T22:19:30Z</time>
      </trkpt>
      <trkpt lat="51.260534640189" lon="4.507210402565">
        <ele>4.2</ele>
        <time>2019-05-03T22:19:38Z</time>
      </trkpt>
      <trkpt lat="51.26034177267" lon="4.507113256344">
        <ele>3.6</ele>
        <time>2019-05-03T22:19:46Z</time>
      </trkpt>
      <trkpt lat="51.260163573476" lon="4.507040585271">
        <ele>3.4</ele>
        <time>2019-05-03T22:19:54Z</time>
      </trkpt>
      <trkpt lat="51.259967269378" lon="4.50698283398">
        <ele>4</ele>
        <time>2019-05-03T22:20:03Z</time>
      </trkpt>
      <trkpt lat="51.259789824555" lon="4.506907983613">
        <ele>8.2</ele>
        <time>2019-05-03T22:20:10Z</time>
      </trkpt>
      <trkpt lat="51.259602908185" lon="4.506813016686">
        <ele>9.8</ele>
        <time>2019-05-03T22:20:18Z</time>
      </trkpt>
      <trkpt lat="51.259426553009" lon="4.506720061415">
        <ele>9</ele>
        <time>2019-05-03T22:20:26Z</time>
      </trkpt>
      <trkpt lat="51.259242486485" lon="4.506643534668">
        <ele>8.6</ele>
        <time>2019-05-03T22:20:34Z</time>
      </trkpt>
      <trkpt lat="51.259075183761" lon="4.5065369169">
        <ele>10.2</ele>
        <time>2019-05-03T22:20:41Z</time>
      </trkpt>
      <trkpt lat="51.258906120838" lon="4.50640783564">
        <ele>11.6</ele>
        <time>2019-05-03T22:20:48Z</time>
      </trkpt>
      <trkpt lat="51.258732112594" lon="4.506283532063">
        <ele>10.2</ele>
        <time>2019-05-03T22:20:56Z</time>
      </trkpt>
      <trkpt lat="51.258550895916" lon="4.506165179635">
        <ele>9.6</ele>
        <time>2019-05-03T22:21:05Z</time>
      </trkpt>
      <trkpt lat="51.258367080849" lon="4.506037690936">
        <ele>7.4</ele>
        <time>2019-05-03T22:21:14Z</time>
      </trkpt>
      <trkpt lat="51.258179996841" lon="4.505933755376">
        <ele>7</ele>
        <time>2019-05-03T22:21:22Z</time>
      </trkpt>
      <trkpt lat="51.258000037448" lon="4.505814564758">
        <ele>7.4</ele>
        <time>2019-05-03T22:21:30Z</time>
      </trkpt>
      <trkpt lat="51.257817647304" lon="4.505705013325">
        <ele>7.2</ele>
        <time>2019-05-03T22:21:39Z</time>
      </trkpt>
      <trkpt lat="51.257653613521" lon="4.505573752771">
        <ele>6.2</ele>
        <time>2019-05-03T22:21:47Z</time>
      </trkpt>
      <trkpt lat="51.257483125675" lon="4.505459423655">
        <ele>6.4</ele>
        <time>2019-05-03T22:21:55Z</time>
      </trkpt>
      <trkpt lat="51.257299059151" lon="4.505337047915">
        <ele>5.6</ele>
        <time>2019-05-03T22:22:04Z</time>
      </trkpt>
      <trkpt lat="51.257125386183" lon="4.505230849242">
        <ele>6.2</ele>
        <time>2019-05-03T22:22:12Z</time>
      </trkpt>
      <trkpt lat="51.256959173106" lon="4.505071928418">
        <ele>9</ele>
        <time>2019-05-03T22:22:20Z</time>
      </trkpt>
      <trkpt lat="51.256798994997" lon="4.504937147466">
        <ele>9.6</ele>
        <time>2019-05-03T22:22:28Z</time>
      </trkpt>
      <trkpt lat="51.256630099712" lon="4.504835977933">
        <ele>11.2</ele>
        <time>2019-05-03T22:22:36Z</time>
      </trkpt>
      <trkpt lat="51.256462461712" lon="4.504728521975">
        <ele>11.4</ele>
        <time>2019-05-03T22:22:44Z</time>
      </trkpt>
      <trkpt lat="51.256276802627" lon="4.504608828443">
        <ele>11.8</ele>
        <time>2019-05-03T22:22:53Z</time>
      </trkpt>
      <trkpt lat="51.256125174056" lon="4.504436999493">
        <ele>16</ele>
        <time>2019-05-03T22:23:02Z</time>
      </trkpt>
      <trkpt lat="51.255979328996" lon="4.50425955467">
        <ele>18.6</ele>
        <time>2019-05-03T22:23:10Z</time>
      </trkpt>
      <trkpt lat="51.255962732834" lon="4.50426039286">
        <ele>18.2</ele>
        <time>2019-05-03T22:23:11Z</time>
      </trkpt>
      <trkpt lat="51.255791658255" lon="4.504182860285">
        <ele>17.6</ele>
        <time>2019-05-03T22:23:20Z</time>
      </trkpt>
      <trkpt lat="51.255617901468" lon="4.504065178409">
        <ele>17</ele>
        <time>2019-05-03T22:23:28Z</time>
      </trkpt>
      <trkpt lat="51.255439450817" lon="4.503967361636">
        <ele>15.4</ele>
        <time>2019-05-03T22:23:37Z</time>
      </trkpt>
      <trkpt lat="51.25525060661" lon="4.503859905678">
        <ele>12</ele>
        <time>2019-05-03T22:23:46Z</time>
      </trkpt>
      <trkpt lat="51.255073664701" lon="4.503736775567">
        <ele>8</ele>
        <time>2019-05-03T22:23:55Z</time>
      </trkpt>
      <trkpt lat="51.254892112747" lon="4.503639210251">
        <ele>7.2</ele>
        <time>2019-05-03T22:24:03Z</time>
      </trkpt>
      <trkpt lat="51.254728330421" lon="4.503513146475">
        <ele>8</ele>
        <time>2019-05-03T22:24:11Z</time>
      </trkpt>
      <trkpt lat="51.254575947479" lon="4.50352949118">
        <ele>12</ele>
        <time>2019-05-03T22:24:19Z</time>
      </trkpt>
      <trkpt lat="51.254532613056" lon="4.503388591441">
        <ele>10.2</ele>
        <time>2019-05-03T22:24:24Z</time>
      </trkpt>
      <trkpt lat="51.254344104125" lon="4.503388172346">
        <ele>13</ele>
        <time>2019-05-03T22:24:32Z</time>
      </trkpt>
      <trkpt lat="51.254170263519" lon="4.503456903926">
        <ele>17</ele>
        <time>2019-05-03T22:24:40Z</time>
      </trkpt>
      <trkpt lat="51.253990304126" lon="4.503552625224">
        <ele>17.2</ele>
        <time>2019-05-03T22:24:47Z</time>
      </trkpt>
      <trkpt lat="51.253809003629" lon="4.503620602433">
        <ele>18</ele>
        <time>2019-05-03T22:24:54Z</time>
      </trkpt>
      <trkpt lat="51.253444893893" lon="4.503580956046">
        <ele>16</ele>
        <time>2019-05-03T22:25:09Z</time>
      </trkpt>
      <trkpt lat="51.253260324455" lon="4.503455814279">
        <ele>15</ele>
        <time>2019-05-03T22:25:18Z</time>
      </trkpt>
      <trkpt lat="51.253074833008" lon="4.503366127949">
        <ele>12.6</ele>
        <time>2019-05-03T22:25:26Z</time>
      </trkpt>
      <trkpt lat="51.252889760656" lon="4.503278704732">
        <ele>11.8</ele>
        <time>2019-05-03T22:25:34Z</time>
      </trkpt>
      <trkpt lat="51.252705107399" lon="4.503205027831">
        <ele>10.2</ele>
        <time>2019-05-03T22:25:42Z</time>
      </trkpt>
      <trkpt lat="51.252515844097" lon="4.503174685353">
        <ele>10</ele>
        <time>2019-05-03T22:25:51Z</time>
      </trkpt>
      <trkpt lat="51.252326329338" lon="4.503118275166">
        <ele>10</ele>
        <time>2019-05-03T22:25:59Z</time>
      </trkpt>
      <trkpt lat="51.252138658597" lon="4.503023811153">
        <ele>9.4</ele>
        <time>2019-05-03T22:26:07Z</time>
      </trkpt>
      <trkpt lat="51.251954256797" lon="4.50296203655">
        <ele>8</ele>
        <time>2019-05-03T22:26:16Z</time>
      </trkpt>
      <trkpt lat="51.251768430074" lon="4.502909146761">
        <ele>10</ele>
        <time>2019-05-03T22:26:25Z</time>
      </trkpt>
      <trkpt lat="51.251586961939" lon="4.502816442947">
        <ele>11.6</ele>
        <time>2019-05-03T22:26:34Z</time>
      </trkpt>
      <trkpt lat="51.251400632302" lon="4.502719548183">
        <ele>12.6</ele>
        <time>2019-05-03T22:26:43Z</time>
      </trkpt>
      <trkpt lat="51.251205250213" lon="4.502642434703">
        <ele>13.4</ele>
        <time>2019-05-03T22:26:51Z</time>
      </trkpt>
      <trkpt lat="51.25103451091" lon="4.502534056736">
        <ele>13.6</ele>
        <time>2019-05-03T22:26:59Z</time>
      </trkpt>
      <trkpt lat="51.250859161562" lon="4.502449734822">
        <ele>11.8</ele>
        <time>2019-05-03T22:27:07Z</time>
      </trkpt>
      <trkpt lat="51.250671490821" lon="4.502380751785">
        <ele>11</ele>
        <time>2019-05-03T22:27:15Z</time>
      </trkpt>
      <trkpt lat="51.250504691011" lon="4.502450908288">
        <ele>10</ele>
        <time>2019-05-03T22:27:24Z</time>
      </trkpt>
      <trkpt lat="51.250406371324" lon="4.50269884489">
        <ele>12.8</ele>
        <time>2019-05-03T22:27:32Z</time>
      </trkpt>
      <trkpt lat="51.250317607003" lon="4.502950972442">
        <ele>16.6</ele>
        <time>2019-05-03T22:27:40Z</time>
      </trkpt>
      <trkpt lat="51.250133791936" lon="4.502934711556">
        <ele>20.6</ele>
        <time>2019-05-03T22:27:48Z</time>
      </trkpt>
      <trkpt lat="51.249966908307" lon="4.502794482369">
        <ele>20.6</ele>
        <time>2019-05-03T22:27:55Z</time>
      </trkpt>
      <trkpt lat="51.24979063695" lon="4.502663221815">
        <ele>20</ele>
        <time>2019-05-03T22:28:03Z</time>
      </trkpt>
      <trkpt lat="51.249614281774" lon="4.502576888245">
        <ele>18.2</ele>
        <time>2019-05-03T22:28:11Z</time>
      </trkpt>
      <trkpt lat="51.249419234961" lon="4.502588958181">
        <ele>14</ele>
        <time>2019-05-03T22:28:21Z</time>
      </trkpt>
      <trkpt lat="51.24922821146" lon="4.502673447733">
        <ele>14.2</ele>
        <time>2019-05-03T22:28:30Z</time>
      </trkpt>
      <trkpt lat="51.249174232024" lon="4.502947871139">
        <ele>14.4</ele>
        <time>2019-05-03T22:28:38Z</time>
      </trkpt>
      <trkpt lat="51.24915947988" lon="4.503235873223">
        <ele>12.4</ele>
        <time>2019-05-03T22:28:47Z</time>
      </trkpt>
      <trkpt lat="51.249054370854" lon="4.503441816506">
        <ele>11.4</ele>
        <time>2019-05-03T22:28:56Z</time>
      </trkpt>
      <trkpt lat="51.248865861923" lon="4.50346327417">
        <ele>11</ele>
        <time>2019-05-03T22:29:05Z</time>
      </trkpt>
      <trkpt lat="51.248680202838" lon="4.503485570024">
        <ele>10.4</ele>
        <time>2019-05-03T22:29:13Z</time>
      </trkpt>
      <trkpt lat="51.248482725274" lon="4.50348003797">
        <ele>10.2</ele>
        <time>2019-05-03T22:29:21Z</time>
      </trkpt>
      <trkpt lat="51.2482944678" lon="4.503468638586">
        <ele>10.6</ele>
        <time>2019-05-03T22:29:29Z</time>
      </trkpt>
      <trkpt lat="51.24809581677" lon="4.503467297482">
        <ele>10.4</ele>
        <time>2019-05-03T22:29:38Z</time>
      </trkpt>
      <trkpt lat="51.247914600092" lon="4.503477020486">
        <ele>11.4</ele>
        <time>2019-05-03T22:29:46Z</time>
      </trkpt>
      <trkpt lat="51.247725169152" lon="4.503477020486">
        <ele>11.2</ele>
        <time>2019-05-03T22:29:55Z</time>
      </trkpt>
      <trkpt lat="51.24754428775" lon="4.503478696866">
        <ele>10.4</ele>
        <time>2019-05-03T22:30:03Z</time>
      </trkpt>
      <trkpt lat="51.247354940629" lon="4.503488168413">
        <ele>10.6</ele>
        <time>2019-05-03T22:30:11Z</time>
      </trkpt>
      <trkpt lat="51.247159893816" lon="4.503510296629">
        <ele>8.8</ele>
        <time>2019-05-03T22:30:20Z</time>
      </trkpt>
      <trkpt lat="51.246967696849" lon="4.503507614421">
        <ele>8.2</ele>
        <time>2019-05-03T22:30:28Z</time>
      </trkpt>
      <trkpt lat="51.246772147122" lon="4.503472661898">
        <ele>9.6</ele>
        <time>2019-05-03T22:30:36Z</time>
      </trkpt>
      <trkpt lat="51.246578106137" lon="4.503475427925">
        <ele>10.6</ele>
        <time>2019-05-03T22:30:44Z</time>
      </trkpt>
      <trkpt lat="51.246380125659" lon="4.503415078245">
        <ele>13.6</ele>
        <time>2019-05-03T22:30:51Z</time>
      </trkpt>
      <trkpt lat="51.246228077993" lon="4.503256660335">
        <ele>14.2</ele>
        <time>2019-05-03T22:30:59Z</time>
      </trkpt>
      <trkpt lat="51.246083154942" lon="4.503019536384">
        <ele>9</ele>
        <time>2019-05-03T22:31:08Z</time>
      </trkpt>
      <trkpt lat="51.245954995691" lon="4.502769504307">
        <ele>10</ele>
        <time>2019-05-03T22:31:17Z</time>
      </trkpt>
      <trkpt lat="51.245818538359" lon="4.502564399214">
        <ele>13.2</ele>
        <time>2019-05-03T22:31:25Z</time>
      </trkpt>
      <trkpt lat="51.245675878421" lon="4.502374968274">
        <ele>14.8</ele>
        <time>2019-05-03T22:31:33Z</time>
      </trkpt>
      <trkpt lat="51.245548641179" lon="4.502127031672">
        <ele>13.8</ele>
        <time>2019-05-03T22:31:42Z</time>
      </trkpt>
      <trkpt lat="51.245407322345" lon="4.501911952118">
        <ele>10.6</ele>
        <time>2019-05-03T22:31:51Z</time>
      </trkpt>
      <trkpt lat="51.245252089557" lon="4.501703326627">
        <ele>11.8</ele>
        <time>2019-05-03T22:31:59Z</time>
      </trkpt>
      <trkpt lat="51.245123762668" lon="4.50150023319">
        <ele>13.2</ele>
        <time>2019-05-03T22:32:07Z</time>
      </trkpt>
      <trkpt lat="51.244955705573" lon="4.5012395561">
        <ele>20</ele>
        <time>2019-05-03T22:32:15Z</time>
      </trkpt>
      <trkpt lat="51.244783373709" lon="4.501141404051">
        <ele>21.8</ele>
        <time>2019-05-03T22:32:23Z</time>
      </trkpt>
      <trkpt lat="51.244621938315" lon="4.501029002772">
        <ele>15.8</ele>
        <time>2019-05-03T22:32:33Z</time>
      </trkpt>
      <trkpt lat="51.244447008062" lon="4.501048867875">
        <ele>13</ele>
        <time>2019-05-03T22:32:41Z</time>
      </trkpt>
      <trkpt lat="51.244385652554" lon="4.501053980834">
        <ele>12.4</ele>
        <time>2019-05-03T22:32:44Z</time>
      </trkpt>
      <trkpt lat="51.244375761912" lon="4.501010897868">
        <ele>10.6</ele>
        <time>2019-05-03T22:32:46Z</time>
      </trkpt>
      <trkpt lat="51.244343659235" lon="4.500724823621">
        <ele>7.4</ele>
        <time>2019-05-03T22:32:55Z</time>
      </trkpt>
      <trkpt lat="51.244304012848" lon="4.500457776287">
        <ele>7.6</ele>
        <time>2019-05-03T22:33:03Z</time>
      </trkpt>
      <trkpt lat="51.244203765324" lon="4.500186454184">
        <ele>7.2</ele>
        <time>2019-05-03T22:33:12Z</time>
      </trkpt>
      <trkpt lat="51.244087256914" lon="4.499932063519">
        <ele>7</ele>
        <time>2019-05-03T22:33:22Z</time>
      </trkpt>
      <trkpt lat="51.244000755706" lon="4.499667698393">
        <ele>6.2</ele>
        <time>2019-05-03T22:33:30Z</time>
      </trkpt>
      <trkpt lat="51.243897574517" lon="4.499420851438">
        <ele>7.2</ele>
        <time>2019-05-03T22:33:37Z</time>
      </trkpt>
      <trkpt lat="51.243781904297" lon="4.499159587615">
        <ele>9.2</ele>
        <time>2019-05-03T22:33:45Z</time>
      </trkpt>
      <trkpt lat="51.243663551869" lon="4.498898910525">
        <ele>10.8</ele>
        <time>2019-05-03T22:33:53Z</time>
      </trkpt>
      <trkpt lat="51.24353103403" lon="4.498667821542">
        <ele>12.6</ele>
        <time>2019-05-03T22:34:02Z</time>
      </trkpt>
      <trkpt lat="51.243409161204" lon="4.498444443907">
        <ele>16.2</ele>
        <time>2019-05-03T22:34:10Z</time>
      </trkpt>
      <trkpt lat="51.243284354713" lon="4.498208325784">
        <ele>15.2</ele>
        <time>2019-05-03T22:34:18Z</time>
      </trkpt>
      <trkpt lat="51.243175306194" lon="4.497957958431">
        <ele>15.6</ele>
        <time>2019-05-03T22:34:26Z</time>
      </trkpt>
      <trkpt lat="51.243076064498" lon="4.497693341848">
        <ele>14.4</ele>
        <time>2019-05-03T22:34:34Z</time>
      </trkpt>
      <trkpt lat="51.242988222186" lon="4.497441801029">
        <ele>11.4</ele>
        <time>2019-05-03T22:34:42Z</time>
      </trkpt>
      <trkpt lat="51.242898703494" lon="4.49718774564">
        <ele>9.2</ele>
        <time>2019-05-03T22:34:50Z</time>
      </trkpt>
      <trkpt lat="51.242786386034" lon="4.496946682196">
        <ele>9.2</ele>
        <time>2019-05-03T22:34:58Z</time>
      </trkpt>
      <trkpt lat="51.242677924248" lon="4.496704445286">
        <ele>10.2</ele>
        <time>2019-05-03T22:35:06Z</time>
      </trkpt>
      <trkpt lat="51.242581532398" lon="4.49645935853">
        <ele>11.6</ele>
        <time>2019-05-03T22:35:14Z</time>
      </trkpt>
      <trkpt lat="51.242494612095" lon="4.496199184354">
        <ele>13</ele>
        <time>2019-05-03T22:35:22Z</time>
      </trkpt>
      <trkpt lat="51.242442309039" lon="4.495923587482">
        <ele>12</ele>
        <time>2019-05-03T22:35:30Z</time>
      </trkpt>
      <trkpt lat="51.242391682363" lon="4.495647403877">
        <ele>10</ele>
        <time>2019-05-03T22:35:38Z</time>
      </trkpt>
      <trkpt lat="51.242334517805" lon="4.495363173648">
        <ele>9.6</ele>
        <time>2019-05-03T22:35:46Z</time>
      </trkpt>
      <trkpt lat="51.24228632188" lon="4.495070226243">
        <ele>11.6</ele>
        <time>2019-05-03T22:35:54Z</time>
      </trkpt>
      <trkpt lat="51.242225888381" lon="4.494764622169">
        <ele>10.8</ele>
        <time>2019-05-03T22:36:03Z</time>
      </trkpt>
      <trkpt lat="51.242176435171" lon="4.494467735271">
        <ele>8.8</ele>
        <time>2019-05-03T22:36:12Z</time>
      </trkpt>
      <trkpt lat="51.242141482648" lon="4.49415349784">
        <ele>6.2</ele>
        <time>2019-05-03T22:36:21Z</time>
      </trkpt>
      <trkpt lat="51.242085659194" lon="4.493844457187">
        <ele>6.4</ele>
        <time>2019-05-03T22:36:30Z</time>
      </trkpt>
      <trkpt lat="51.242021956754" lon="4.493556203646">
        <ele>8</ele>
        <time>2019-05-03T22:36:38Z</time>
      </trkpt>
      <trkpt lat="51.241992536285" lon="4.493246324803">
        <ele>9.4</ele>
        <time>2019-05-03T22:36:47Z</time>
      </trkpt>
      <trkpt lat="51.241934868813" lon="4.492958993271">
        <ele>10.4</ele>
        <time>2019-05-03T22:36:56Z</time>
      </trkpt>
      <trkpt lat="51.241908465828" lon="4.492645929306">
        <ele>10.6</ele>
        <time>2019-05-03T22:37:05Z</time>
      </trkpt>
      <trkpt lat="51.24188482887" lon="4.492351640797">
        <ele>10.4</ele>
        <time>2019-05-03T22:37:13Z</time>
      </trkpt>
      <trkpt lat="51.241808888856" lon="4.492079480504">
        <ele>11</ele>
        <time>2019-05-03T22:37:22Z</time>
      </trkpt>
      <trkpt lat="51.241708389875" lon="4.491839003793">
        <ele>12</ele>
        <time>2019-05-03T22:37:31Z</time>
      </trkpt>
      <trkpt lat="51.241567741593" lon="4.491615207063">
        <ele>12.4</ele>
        <time>2019-05-03T22:37:41Z</time>
      </trkpt>
      <trkpt lat="51.241414855737" lon="4.491452346746">
        <ele>13.2</ele>
        <time>2019-05-03T22:37:50Z</time>
      </trkpt>
      <trkpt lat="51.241241266588" lon="4.491304825306">
        <ele>12.2</ele>
        <time>2019-05-03T22:38:00Z</time>
      </trkpt>
      <trkpt lat="51.241069856733" lon="4.49121061275">
        <ele>13.8</ele>
        <time>2019-05-03T22:38:09Z</time>
      </trkpt>
      <trkpt lat="51.240766348134" lon="4.491087650277">
        <ele>15.2</ele>
        <time>2019-05-03T22:38:24Z</time>
      </trkpt>
      <trkpt lat="51.240590412053" lon="4.491001484345">
        <ele>14.4</ele>
        <time>2019-05-03T22:38:33Z</time>
      </trkpt>
      <trkpt lat="51.240417912551" lon="4.490911965653">
        <ele>13.6</ele>
        <time>2019-05-03T22:38:41Z</time>
      </trkpt>
      <trkpt lat="51.240224206842" lon="4.490834349259">
        <ele>15.8</ele>
        <time>2019-05-03T22:38:50Z</time>
      </trkpt>
      <trkpt lat="51.240032177513" lon="4.490753044829">
        <ele>16.4</ele>
        <time>2019-05-03T22:38:59Z</time>
      </trkpt>
      <trkpt lat="51.239847356618" lon="4.490663023223">
        <ele>15.2</ele>
        <time>2019-05-03T22:39:08Z</time>
      </trkpt>
      <trkpt lat="51.239661194619" lon="4.490568643029">
        <ele>14.4</ele>
        <time>2019-05-03T22:39:17Z</time>
      </trkpt>
      <trkpt lat="51.239477211914" lon="4.490465713297">
        <ele>11.4</ele>
        <time>2019-05-03T22:39:26Z</time>
      </trkpt>
      <trkpt lat="51.239300186186" lon="4.490384827962">
        <ele>11.4</ele>
        <time>2019-05-03T22:39:34Z</time>
      </trkpt>
      <trkpt lat="51.239120142974" lon="4.49029363289">
        <ele>11.6</ele>
        <time>2019-05-03T22:39:42Z</time>
      </trkpt>
      <trkpt lat="51.238932472233" lon="4.490207718415">
        <ele>13.6</ele>
        <time>2019-05-03T22:39:50Z</time>
      </trkpt>
      <trkpt lat="51.238743879483" lon="4.490148793658">
        <ele>13.6</ele>
        <time>2019-05-03T22:39:58Z</time>
      </trkpt>
      <trkpt lat="51.23855386181" lon="4.490089282168">
        <ele>11.8</ele>
        <time>2019-05-03T22:40:06Z</time>
      </trkpt>
      <trkpt lat="51.238365688155" lon="4.490068746513">
        <ele>11.8</ele>
        <time>2019-05-03T22:40:14Z</time>
      </trkpt>
      <trkpt lat="51.238178185052" lon="4.490069752341">
        <ele>10.2</ele>
        <time>2019-05-03T22:40:22Z</time>
      </trkpt>
      <trkpt lat="51.237991939234" lon="4.490091880557">
        <ele>7.8</ele>
        <time>2019-05-03T22:40:30Z</time>
      </trkpt>
      <trkpt lat="51.237808207986" lon="4.490150721495">
        <ele>5.6</ele>
        <time>2019-05-03T22:40:38Z</time>
      </trkpt>
      <trkpt lat="51.237620537245" lon="4.490230852459">
        <ele>5</ele>
        <time>2019-05-03T22:40:46Z</time>
      </trkpt>
      <trkpt lat="51.237448624476" lon="4.490336464399">
        <ele>3.6</ele>
        <time>2019-05-03T22:40:54Z</time>
      </trkpt>
      <trkpt lat="51.237264977047" lon="4.490410476576">
        <ele>5</ele>
        <time>2019-05-03T22:41:02Z</time>
      </trkpt>
      <trkpt lat="51.237079234143" lon="4.490510891738">
        <ele>9.6</ele>
        <time>2019-05-03T22:41:11Z</time>
      </trkpt>
      <trkpt lat="51.236899190931" lon="4.490541569492">
        <ele>12.6</ele>
        <time>2019-05-03T22:41:18Z</time>
      </trkpt>
      <trkpt lat="51.236712106923" lon="4.490524470416">
        <ele>14.4</ele>
        <time>2019-05-03T22:41:26Z</time>
      </trkpt>
      <trkpt lat="51.236529968236" lon="4.490473089369">
        <ele>12.8</ele>
        <time>2019-05-03T22:41:34Z</time>
      </trkpt>
      <trkpt lat="51.236353864517" lon="4.490354653122">
        <ele>12</ele>
        <time>2019-05-03T22:41:42Z</time>
      </trkpt>
      <trkpt lat="51.236221765773" lon="4.490141417586">
        <ele>11.2</ele>
        <time>2019-05-03T22:41:50Z</time>
      </trkpt>
      <trkpt lat="51.236100647318" lon="4.489924242557">
        <ele>9</ele>
        <time>2019-05-03T22:41:58Z</time>
      </trkpt>
      <trkpt lat="51.236046416425" lon="4.489652920454">
        <ele>8.8</ele>
        <time>2019-05-03T22:42:06Z</time>
      </trkpt>
      <trkpt lat="51.236085056984" lon="4.489368774044">
        <ele>7.4</ele>
        <time>2019-05-03T22:42:14Z</time>
      </trkpt>
      <trkpt lat="51.23608874502" lon="4.489081945426">
        <ele>7.2</ele>
        <time>2019-05-03T22:42:21Z</time>
      </trkpt>
      <trkpt lat="51.236079357292" lon="4.488788746564">
        <ele>5.8</ele>
        <time>2019-05-03T22:42:29Z</time>
      </trkpt>
      <trkpt lat="51.236070388659" lon="4.488495380064">
        <ele>6.6</ele>
        <time>2019-05-03T22:42:37Z</time>
      </trkpt>
      <trkpt lat="51.236067874089" lon="4.488206455971">
        <ele>6.2</ele>
        <time>2019-05-03T22:42:45Z</time>
      </trkpt>
      <trkpt lat="51.236066784442" lon="4.487890039246">
        <ele>5.8</ele>
        <time>2019-05-03T22:42:54Z</time>
      </trkpt>
      <trkpt lat="51.236071813582" lon="4.487585357181">
        <ele>4.8</ele>
        <time>2019-05-03T22:43:02Z</time>
      </trkpt>
      <trkpt lat="51.236072987048" lon="4.487298696201">
        <ele>2.8</ele>
        <time>2019-05-03T22:43:10Z</time>
      </trkpt>
      <trkpt lat="51.236070221021" lon="4.486993343584">
        <ele>2.4</ele>
        <time>2019-05-03T22:43:18Z</time>
      </trkpt>
      <trkpt lat="51.236062928768" lon="4.486721015653">
        <ele>2.4</ele>
        <time>2019-05-03T22:43:25Z</time>
      </trkpt>
      <trkpt lat="51.23606276113" lon="4.486687236596">
        <ele>2.6</ele>
        <time>2019-05-03T22:43:26Z</time>
      </trkpt>
      <trkpt lat="51.236062844949" lon="4.486397558132">
        <ele>4</ele>
        <time>2019-05-03T22:43:34Z</time>
      </trkpt>
      <trkpt lat="51.236052954307" lon="4.486080638493">
        <ele>2</ele>
        <time>2019-05-03T22:43:43Z</time>
      </trkpt>
      <trkpt lat="51.236043231303" lon="4.485790121839">
        <ele>3.8</ele>
        <time>2019-05-03T22:43:50Z</time>
      </trkpt>
      <trkpt lat="51.236040046181" lon="4.485484350127">
        <ele>4</ele>
        <time>2019-05-03T22:43:58Z</time>
      </trkpt>
      <trkpt lat="51.23599989688" lon="4.485204310848">
        <ele>5.2</ele>
        <time>2019-05-03T22:44:06Z</time>
      </trkpt>
      <trkpt lat="51.235966704556" lon="4.484914716203">
        <ele>4.4</ele>
        <time>2019-05-03T22:44:15Z</time>
      </trkpt>
      <trkpt lat="51.236005009839" lon="4.484632413811">
        <ele>3</ele>
        <time>2019-05-03T22:44:23Z</time>
      </trkpt>
      <trkpt lat="51.236034933222" lon="4.484331671239">
        <ele>0.8</ele>
        <time>2019-05-03T22:44:31Z</time>
      </trkpt>
      <trkpt lat="51.236014816662" lon="4.484017852903">
        <ele>1.6</ele>
        <time>2019-05-03T22:44:39Z</time>
      </trkpt>
      <trkpt lat="51.236005345115" lon="4.483491637221">
        <ele>2.6</ele>
        <time>2019-05-03T22:44:53Z</time>
      </trkpt>
      <trkpt lat="51.236003165821" lon="4.483193995952">
        <ele>3.2</ele>
        <time>2019-05-03T22:45:02Z</time>
      </trkpt>
      <trkpt lat="51.236003082002" lon="4.482906412963">
        <ele>2.8</ele>
        <time>2019-05-03T22:45:10Z</time>
      </trkpt>
      <trkpt lat="51.235994700102" lon="4.482594773921">
        <ele>2.8</ele>
        <time>2019-05-03T22:45:18Z</time>
      </trkpt>
      <trkpt lat="51.235981540519" lon="4.482272070771">
        <ele>5.6</ele>
        <time>2019-05-03T22:45:26Z</time>
      </trkpt>
      <trkpt lat="51.235998891052" lon="4.4819444223">
        <ele>6.4</ele>
        <time>2019-05-03T22:45:34Z</time>
      </trkpt>
      <trkpt lat="51.236032753928" lon="4.481647619221">
        <ele>5.6</ele>
        <time>2019-05-03T22:45:42Z</time>
      </trkpt>
      <trkpt lat="51.236031161367" lon="4.481350899961">
        <ele>4.2</ele>
        <time>2019-05-03T22:45:49Z</time>
      </trkpt>
      <trkpt lat="51.236062258216" lon="4.481068346112">
        <ele>5.4</ele>
        <time>2019-05-03T22:45:56Z</time>
      </trkpt>
      <trkpt lat="51.236069550469" lon="4.480763831685">
        <ele>6</ele>
        <time>2019-05-03T22:46:05Z</time>
      </trkpt>
      <trkpt lat="51.236074328152" lon="4.480459484896">
        <ele>5</ele>
        <time>2019-05-03T22:46:13Z</time>
      </trkpt>
      <trkpt lat="51.236089164115" lon="4.480160418704">
        <ele>3.8</ele>
        <time>2019-05-03T22:46:21Z</time>
      </trkpt>
      <trkpt lat="51.236115315643" lon="4.479864789091">
        <ele>3.4</ele>
        <time>2019-05-03T22:46:29Z</time>
      </trkpt>
      <trkpt lat="51.236111124693" lon="4.479546109253">
        <ele>4.8</ele>
        <time>2019-05-03T22:46:37Z</time>
      </trkpt>
      <trkpt lat="51.23611724348" lon="4.479256263151">
        <ele>6.4</ele>
        <time>2019-05-03T22:46:45Z</time>
      </trkpt>
      <trkpt lat="51.236109029218" lon="4.478954179475">
        <ele>3</ele>
        <time>2019-05-03T22:46:54Z</time>
      </trkpt>
      <trkpt lat="51.236080782215" lon="4.478635751094">
        <ele>4.4</ele>
        <time>2019-05-03T22:47:03Z</time>
      </trkpt>
      <trkpt lat="51.236027724788" lon="4.478323357681">
        <ele>3.6</ele>
        <time>2019-05-03T22:47:12Z</time>
      </trkpt>
      <trkpt lat="51.235964441443" lon="4.478044491868">
        <ele>1</ele>
        <time>2019-05-03T22:47:20Z</time>
      </trkpt>
      <trkpt lat="51.235892776198" lon="4.477774929964">
        <ele>1.8</ele>
        <time>2019-05-03T22:47:28Z</time>
      </trkpt>
      <trkpt lat="51.23583644983" lon="4.477478629799">
        <ele>4.4</ele>
        <time>2019-05-03T22:47:36Z</time>
      </trkpt>
      <trkpt lat="51.235791774303" lon="4.477171600802">
        <ele>5.8</ele>
        <time>2019-05-03T22:47:46Z</time>
      </trkpt>
      <trkpt lat="51.235746931138" lon="4.476882425252">
        <ele>3.6</ele>
        <time>2019-05-03T22:47:55Z</time>
      </trkpt>
      <trkpt lat="51.235700998326" lon="4.47657916811">
        <ele>3.4</ele>
        <time>2019-05-03T22:48:05Z</time>
      </trkpt>
      <trkpt lat="51.235619693896" lon="4.476295776071">
        <ele>1</ele>
        <time>2019-05-03T22:48:14Z</time>
      </trkpt>
      <trkpt lat="51.235571414152" lon="4.475987992703">
        <ele>2.4</ele>
        <time>2019-05-03T22:48:23Z</time>
      </trkpt>
      <trkpt lat="51.235515674517" lon="4.475687836864">
        <ele>1</ele>
        <time>2019-05-03T22:48:32Z</time>
      </trkpt>
      <trkpt lat="51.23543328044" lon="4.475403355178">
        <ele>1.2</ele>
        <time>2019-05-03T22:48:39Z</time>
      </trkpt>
      <trkpt lat="51.23536538705" lon="4.475131781618">
        <ele>6.4</ele>
        <time>2019-05-03T22:48:47Z</time>
      </trkpt>
      <trkpt lat="51.235305540284" lon="4.474848389579">
        <ele>8</ele>
        <time>2019-05-03T22:48:55Z</time>
      </trkpt>
      <trkpt lat="51.235236389609" lon="4.474555861269">
        <ele>7.8</ele>
        <time>2019-05-03T22:49:04Z</time>
      </trkpt>
      <trkpt lat="51.235196575584" lon="4.474265093158">
        <ele>5.6</ele>
        <time>2019-05-03T22:49:13Z</time>
      </trkpt>
      <trkpt lat="51.235107140711" lon="4.473974492685">
        <ele>9</ele>
        <time>2019-05-03T22:49:20Z</time>
      </trkpt>
      <trkpt lat="51.235031871249" lon="4.473710462835">
        <ele>13</ele>
        <time>2019-05-03T22:49:27Z</time>
      </trkpt>
      <trkpt lat="51.234970180465" lon="4.47340578077">
        <ele>12.4</ele>
        <time>2019-05-03T22:49:35Z</time>
      </trkpt>
      <trkpt lat="51.234939335073" lon="4.473115515573">
        <ele>9.8</ele>
        <time>2019-05-03T22:49:43Z</time>
      </trkpt>
      <trkpt lat="51.234886445284" lon="4.472827262032">
        <ele>9</ele>
        <time>2019-05-03T22:49:51Z</time>
      </trkpt>
      <trkpt lat="51.234830035097" lon="4.472547138934">
        <ele>7.8</ele>
        <time>2019-05-03T22:50:00Z</time>
      </trkpt>
      <trkpt lat="51.234769014865" lon="4.472273637537">
        <ele>5.2</ele>
        <time>2019-05-03T22:50:08Z</time>
      </trkpt>
      <trkpt lat="51.234697433439" lon="4.471997705389">
        <ele>3.2</ele>
        <time>2019-05-03T22:50:16Z</time>
      </trkpt>
      <trkpt lat="51.234645968573" lon="4.471724036354">
        <ele>1</ele>
        <time>2019-05-03T22:50:24Z</time>
      </trkpt>
      <trkpt lat="51.234593162603" lon="4.471439889944">
        <ele>2.8</ele>
        <time>2019-05-03T22:50:32Z</time>
      </trkpt>
      <trkpt lat="51.234523509014" lon="4.471156162629">
        <ele>5.6</ele>
        <time>2019-05-03T22:50:40Z</time>
      </trkpt>
      <trkpt lat="51.23451797696" lon="4.470862879948">
        <ele>9</ele>
        <time>2019-05-03T22:50:48Z</time>
      </trkpt>
      <trkpt lat="51.234474558718" lon="4.470579487909">
        <ele>9.6</ele>
        <time>2019-05-03T22:50:56Z</time>
      </trkpt>
      <trkpt lat="51.234429212639" lon="4.470272542731">
        <ele>8.2</ele>
        <time>2019-05-03T22:51:04Z</time>
      </trkpt>
      <trkpt lat="51.234381938723" lon="4.469996694402">
        <ele>5.2</ele>
        <time>2019-05-03T22:51:12Z</time>
      </trkpt>
      <trkpt lat="51.234309351469" lon="4.469685642093">
        <ele>2.6</ele>
        <time>2019-05-03T22:51:20Z</time>
      </trkpt>
      <trkpt lat="51.234261071725" lon="4.469377271992">
        <ele>4.8</ele>
        <time>2019-05-03T22:51:28Z</time>
      </trkpt>
      <trkpt lat="51.234241793355" lon="4.469064208027">
        <ele>8.4</ele>
        <time>2019-05-03T22:51:36Z</time>
      </trkpt>
      <trkpt lat="51.234195441448" lon="4.468760112695">
        <ele>13</ele>
        <time>2019-05-03T22:51:45Z</time>
      </trkpt>
      <trkpt lat="51.23423383055" lon="4.468441851952">
        <ele>17.4</ele>
        <time>2019-05-03T22:51:53Z</time>
      </trkpt>
      <trkpt lat="51.234187143367" lon="4.468130296729">
        <ele>18.2</ele>
        <time>2019-05-03T22:52:02Z</time>
      </trkpt>
      <trkpt lat="51.234101145073" lon="4.467842210826">
        <ele>13</ele>
        <time>2019-05-03T22:52:10Z</time>
      </trkpt>
      <trkpt lat="51.234025288878" lon="4.467544737195">
        <ele>10.4</ele>
        <time>2019-05-03T22:52:18Z</time>
      </trkpt>
      <trkpt lat="51.233954545642" lon="4.467270481427">
        <ele>8</ele>
        <time>2019-05-03T22:52:26Z</time>
      </trkpt>
      <trkpt lat="51.233907104088" lon="4.466984239542">
        <ele>5.8</ele>
        <time>2019-05-03T22:52:34Z</time>
      </trkpt>
      <trkpt lat="51.233895453247" lon="4.466683999884">
        <ele>8.6</ele>
        <time>2019-05-03T22:52:41Z</time>
      </trkpt>
      <trkpt lat="51.233914983074" lon="4.466346628409">
        <ele>14.8</ele>
        <time>2019-05-03T22:52:49Z</time>
      </trkpt>
      <trkpt lat="51.233933674711" lon="4.466014956626">
        <ele>22.8</ele>
        <time>2019-05-03T22:52:57Z</time>
      </trkpt>
      <trkpt lat="51.23388765808" lon="4.465719829927">
        <ele>22.4</ele>
        <time>2019-05-03T22:53:05Z</time>
      </trkpt>
      <trkpt lat="51.233872654479" lon="4.465426631065">
        <ele>26.2</ele>
        <time>2019-05-03T22:53:13Z</time>
      </trkpt>
      <trkpt lat="51.233796379189" lon="4.465140640637">
        <ele>23.2</ele>
        <time>2019-05-03T22:53:21Z</time>
      </trkpt>
      <trkpt lat="51.23373762207" lon="4.46483864078">
        <ele>19.6</ele>
        <time>2019-05-03T22:53:29Z</time>
      </trkpt>
      <trkpt lat="51.23369738895" lon="4.464553823818">
        <ele>19.4</ele>
        <time>2019-05-03T22:53:37Z</time>
      </trkpt>
      <trkpt lat="51.233552214442" lon="4.464327847794">
        <ele>14.8</ele>
        <time>2019-05-03T22:53:45Z</time>
      </trkpt>
      <trkpt lat="51.233494882246" lon="4.464312425098">
        <ele>13.4</ele>
        <time>2019-05-03T22:53:48Z</time>
      </trkpt>
      <trkpt lat="51.233364878977" lon="4.464317538057">
        <ele>11.4</ele>
        <time>2019-05-03T22:53:54Z</time>
      </trkpt>
      <trkpt lat="51.233358341095" lon="4.464042947013">
        <ele>7.6</ele>
        <time>2019-05-03T22:54:03Z</time>
      </trkpt>
      <trkpt lat="51.233413577816" lon="4.463774307118">
        <ele>3.4</ele>
        <time>2019-05-03T22:54:11Z</time>
      </trkpt>
      <trkpt lat="51.233354820697" lon="4.463496530952">
        <ele>2.4</ele>
        <time>2019-05-03T22:54:19Z</time>
      </trkpt>
      <trkpt lat="51.233310564265" lon="4.463203918823">
        <ele>1</ele>
        <time>2019-05-03T22:54:27Z</time>
      </trkpt>
      <trkpt lat="51.233312408283" lon="4.462898650025">
        <ele>2.4</ele>
        <time>2019-05-03T22:54:35Z</time>
      </trkpt>
      <trkpt lat="51.233286005298" lon="4.462582820033">
        <ele>4.2</ele>
        <time>2019-05-03T22:54:44Z</time>
      </trkpt>
      <trkpt lat="51.23322967893" lon="4.462298841261">
        <ele>3.8</ele>
        <time>2019-05-03T22:54:52Z</time>
      </trkpt>
      <trkpt lat="51.233181985919" lon="4.461997511956">
        <ele>4.4</ele>
        <time>2019-05-03T22:55:01Z</time>
      </trkpt>
      <trkpt lat="51.233163210463" lon="4.461698110488">
        <ele>4.4</ele>
        <time>2019-05-03T22:55:09Z</time>
      </trkpt>
      <trkpt lat="51.233103447516" lon="4.461403905798">
        <ele>6.4</ele>
        <time>2019-05-03T22:55:18Z</time>
      </trkpt>
      <trkpt lat="51.233031195538" lon="4.461120681397">
        <ele>5.8</ele>
        <time>2019-05-03T22:55:26Z</time>
      </trkpt>
      <trkpt lat="51.232971348772" lon="4.460834774788">
        <ele>5</ele>
        <time>2019-05-03T22:55:34Z</time>
      </trkpt>
      <trkpt lat="51.232924493951" lon="4.460533445483">
        <ele>8.6</ele>
        <time>2019-05-03T22:55:43Z</time>
      </trkpt>
      <trkpt lat="51.232882081537" lon="4.460217531672">
        <ele>7</ele>
        <time>2019-05-03T22:55:52Z</time>
      </trkpt>
      <trkpt lat="51.232841261684" lon="4.460123486754">
        <ele>7</ele>
        <time>2019-05-03T22:55:56Z</time>
      </trkpt>
      <trkpt lat="51.232659039178" lon="4.460211245247">
        <ele>5.4</ele>
        <time>2019-05-03T22:56:05Z</time>
      </trkpt>
      <trkpt lat="51.232481007622" lon="4.460300009568">
        <ele>9.4</ele>
        <time>2019-05-03T22:56:12Z</time>
      </trkpt>
      <trkpt lat="51.232290235578" lon="4.46039623378">
        <ele>13.4</ele>
        <time>2019-05-03T22:56:20Z</time>
      </trkpt>
      <trkpt lat="51.232125028329" lon="4.46050938943">
        <ele>16.4</ele>
        <time>2019-05-03T22:56:28Z</time>
      </trkpt>
      <trkpt lat="51.231940039796" lon="4.460554819328">
        <ele>18.2</ele>
        <time>2019-05-03T22:56:36Z</time>
      </trkpt>
      <trkpt lat="51.231821938825" lon="4.460496648942">
        <ele>18.6</ele>
        <time>2019-05-03T22:56:42Z</time>
      </trkpt>
      <trkpt lat="51.231780029325" lon="4.460209568867">
        <ele>14.2</ele>
        <time>2019-05-03T22:56:50Z</time>
      </trkpt>
      <trkpt lat="51.23173853892" lon="4.459907233734">
        <ele>10.2</ele>
        <time>2019-05-03T22:56:58Z</time>
      </trkpt>
      <trkpt lat="51.231719092912" lon="4.459849230986">
        <ele>9.6</ele>
        <time>2019-05-03T22:57:00Z</time>
      </trkpt>
      <trkpt lat="51.231543492107" lon="4.45974998929">
        <ele>8</ele>
        <time>2019-05-03T22:57:09Z</time>
      </trkpt>
      <trkpt lat="51.231439891823" lon="4.45971310893">
        <ele>7.4</ele>
        <time>2019-05-03T22:57:14Z</time>
      </trkpt>
      <trkpt lat="51.231346768914" lon="4.459677234398">
        <ele>5.8</ele>
        <time>2019-05-03T22:57:19Z</time>
      </trkpt>
      <trkpt lat="51.231150380997" lon="4.459693411465">
        <ele>3.2</ele>
        <time>2019-05-03T22:57:29Z</time>
      </trkpt>
      <trkpt lat="51.230958686944" lon="4.459780080311">
        <ele>3.2</ele>
        <time>2019-05-03T22:57:38Z</time>
      </trkpt>
      <trkpt lat="51.230675965457" lon="4.45987152684">
        <ele>5.4</ele>
        <time>2019-05-03T22:57:50Z</time>
      </trkpt>
      <trkpt lat="51.230489384363" lon="4.459783097795">
        <ele>7.2</ele>
        <time>2019-05-03T22:57:58Z</time>
      </trkpt>
      <trkpt lat="51.230445379388" lon="4.459762645959">
        <ele>7.8</ele>
        <time>2019-05-03T22:58:01Z</time>
      </trkpt>
      <trkpt lat="51.230446217578" lon="4.459706068134">
        <ele>7.2</ele>
        <time>2019-05-03T22:58:03Z</time>
      </trkpt>
      <trkpt lat="51.230449905614" lon="4.45940046406">
        <ele>4.4</ele>
        <time>2019-05-03T22:58:11Z</time>
      </trkpt>
      <trkpt lat="51.230408415209" lon="4.459114557451">
        <ele>5.8</ele>
        <time>2019-05-03T22:58:18Z</time>
      </trkpt>
      <trkpt lat="51.230341192371" lon="4.458847426298">
        <ele>4.2</ele>
        <time>2019-05-03T22:58:26Z</time>
      </trkpt>
      <trkpt lat="51.230156706752" lon="4.458875589482">
        <ele>2.2</ele>
        <time>2019-05-03T22:58:34Z</time>
      </trkpt>
      <trkpt lat="51.229985129259" lon="4.458821190951">
        <ele>2.4</ele>
        <time>2019-05-03T22:58:41Z</time>
      </trkpt>
      <trkpt lat="51.229932658565" lon="4.458525980433">
        <ele>4</ele>
        <time>2019-05-03T22:58:49Z</time>
      </trkpt>
      <trkpt lat="51.229897119309" lon="4.458224818766">
        <ele>6.6</ele>
        <time>2019-05-03T22:58:57Z</time>
      </trkpt>
      <trkpt lat="51.229878176215" lon="4.457916281027">
        <ele>6.4</ele>
        <time>2019-05-03T22:59:05Z</time>
      </trkpt>
      <trkpt lat="51.229857137646" lon="4.457596260085">
        <ele>6.8</ele>
        <time>2019-05-03T22:59:13Z</time>
      </trkpt>
      <trkpt lat="51.229849426298" lon="4.457525516849">
        <ele>7.4</ele>
        <time>2019-05-03T22:59:14Z</time>
      </trkpt>
    </trkseg>
  </trk>
</gpx>